<?xml version='1.0' encoding='UTF-8'?><gpx version="1.1" creator="JPX - https://github.com/jenetics/jpx" xmlns="http://www.topografix.com/GPX/1/1"><trk><trkseg><trkpt lat="42.7410117" lon="13.2221867"><ele>859.0</ele><time>2026-04-03T16:19:25.052Z</time></trkpt><trkpt lat="42.7446733" lon="13.2608133"><ele>859.0</ele><time>2026-04-03T16:22:25.052Z</time></trkpt><trkpt lat="42.7449133" lon="13.26111"><ele>859.0</ele><time>2026-04-03T16:22:27.052Z</time></trkpt><trkpt lat="42.745045" lon="13.2612483"><ele>859.0</ele><time>2026-04-03T16:22:28.052Z</time></trkpt><trkpt lat="42.74518" lon="13.2613783"><ele>859.0</ele><time>2026-04-03T16:22:29.052Z</time></trkpt><trkpt lat="42.74532" lon="13.2615067"><ele>859.0</ele><time>2026-04-03T16:22:30.052Z</time></trkpt><trkpt lat="42.74546" lon="13.2616367"><ele>858.0</ele><time>2026-04-03T16:22:31.052Z</time></trkpt><trkpt lat="42.7456067" lon="13.26178"><ele>857.0</ele><time>2026-04-03T16:22:32.052Z</time></trkpt><trkpt lat="42.74575" lon="13.2619233"><ele>856.0</ele><time>2026-04-03T16:22:33.052Z</time></trkpt><trkpt lat="42.7459017" lon="13.2620583"><ele>852.0</ele><time>2026-04-03T16:22:34.052Z</time></trkpt><trkpt lat="42.746055" lon="13.2622017"><ele>848.0</ele><time>2026-04-03T16:22:35.052Z</time></trkpt><trkpt lat="42.7462067" lon="13.26234"><ele>844.0</ele><time>2026-04-03T16:22:36.052Z</time></trkpt><trkpt lat="42.7463583" lon="13.2624767"><ele>844.0</ele><time>2026-04-03T16:22:37.052Z</time></trkpt><trkpt lat="42.7465083" lon="13.262615"><ele>844.0</ele><time>2026-04-03T16:22:38.052Z</time></trkpt><trkpt lat="42.746665" lon="13.262765"><ele>844.0</ele><time>2026-04-03T16:22:39.052Z</time></trkpt><trkpt lat="42.7468167" lon="13.26291"><ele>842.0</ele><time>2026-04-03T16:22:40.052Z</time></trkpt><trkpt lat="42.7469733" lon="13.2630567"><ele>840.0</ele><time>2026-04-03T16:22:41.052Z</time></trkpt><trkpt lat="42.747125" lon="13.2632033"><ele>838.0</ele><time>2026-04-03T16:22:42.052Z</time></trkpt><trkpt lat="42.7472733" lon="13.2633333"><ele>838.0</ele><time>2026-04-03T16:22:43.052Z</time></trkpt><trkpt lat="42.7474233" lon="13.2634667"><ele>838.0</ele><time>2026-04-03T16:22:44.052Z</time></trkpt><trkpt lat="42.74757" lon="13.2636017"><ele>838.0</ele><time>2026-04-03T16:22:45.052Z</time></trkpt><trkpt lat="42.7477183" lon="13.2637383"><ele>843.0</ele><time>2026-04-03T16:22:46.052Z</time></trkpt><trkpt lat="42.7478717" lon="13.2638783"><ele>848.0</ele><time>2026-04-03T16:22:47.052Z</time></trkpt><trkpt lat="42.7480333" lon="13.2640033"><ele>853.0</ele><time>2026-04-03T16:22:48.052Z</time></trkpt><trkpt lat="42.7482" lon="13.26413"><ele>853.0</ele><time>2026-04-03T16:22:49.052Z</time></trkpt><trkpt lat="42.7483633" lon="13.2642517"><ele>853.0</ele><time>2026-04-03T16:22:50.052Z</time></trkpt><trkpt lat="42.748535" lon="13.26439"><ele>853.0</ele><time>2026-04-03T16:22:51.052Z</time></trkpt><trkpt lat="42.7486917" lon="13.2645283"><ele>849.3333333333333</ele><time>2026-04-03T16:22:52.052Z</time></trkpt><trkpt lat="42.7488467" lon="13.264665"><ele>845.6666666666667</ele><time>2026-04-03T16:22:53.052Z</time></trkpt><trkpt lat="42.7489983" lon="13.2647967"><ele>842.0</ele><time>2026-04-03T16:22:54.052Z</time></trkpt><trkpt lat="42.74915" lon="13.2649283"><ele>842.0</ele><time>2026-04-03T16:22:55.052Z</time></trkpt><trkpt lat="42.7493" lon="13.2650583"><ele>842.0</ele><time>2026-04-03T16:22:56.052Z</time></trkpt><trkpt lat="42.749775" lon="13.2655017"><ele>836.3333333333334</ele><time>2026-04-03T16:22:59.052Z</time></trkpt><trkpt lat="42.7498983" lon="13.2656533"><ele>830.6666666666667</ele><time>2026-04-03T16:23:00.053Z</time></trkpt><trkpt lat="42.7500367" lon="13.2658533"><ele>825.0</ele><time>2026-04-03T16:23:01.053Z</time></trkpt><trkpt lat="42.7501917" lon="13.2660083"><ele>829.0</ele><time>2026-04-03T16:23:02.053Z</time></trkpt><trkpt lat="42.7503433" lon="13.2661583"><ele>833.0</ele><time>2026-04-03T16:23:03.053Z</time></trkpt><trkpt lat="42.75051" lon="13.26631"><ele>837.0</ele><time>2026-04-03T16:23:04.053Z</time></trkpt><trkpt lat="42.7506717" lon="13.2664383"><ele>832.6666666666667</ele><time>2026-04-03T16:23:05.053Z</time></trkpt><trkpt lat="42.75083" lon="13.2665983"><ele>828.3333333333334</ele><time>2026-04-03T16:23:06.053Z</time></trkpt><trkpt lat="42.7509983" lon="13.2667467"><ele>824.0</ele><time>2026-04-03T16:23:07.053Z</time></trkpt><trkpt lat="42.751165" lon="13.2669017"><ele>824.0</ele><time>2026-04-03T16:23:08.053Z</time></trkpt><trkpt lat="42.7513267" lon="13.2670717"><ele>824.0</ele><time>2026-04-03T16:23:09.053Z</time></trkpt><trkpt lat="42.75148" lon="13.2672517"><ele>824.0</ele><time>2026-04-03T16:23:10.053Z</time></trkpt><trkpt lat="42.751615" lon="13.267455"><ele>818.0</ele><time>2026-04-03T16:23:11.053Z</time></trkpt><trkpt lat="42.75175" lon="13.26761"><ele>812.0</ele><time>2026-04-03T16:23:12.053Z</time></trkpt><trkpt lat="42.751875" lon="13.267815"><ele>806.0</ele><time>2026-04-03T16:23:13.053Z</time></trkpt><trkpt lat="42.752005" lon="13.26801"><ele>797.6666666666667</ele><time>2026-04-03T16:23:14.053Z</time></trkpt><trkpt lat="42.75213" lon="13.2682317"><ele>789.3333333333333</ele><time>2026-04-03T16:23:15.053Z</time></trkpt><trkpt lat="42.7522517" lon="13.2684583"><ele>781.0</ele><time>2026-04-03T16:23:16.053Z</time></trkpt><trkpt lat="42.7523617" lon="13.268685"><ele>781.0</ele><time>2026-04-03T16:23:17.053Z</time></trkpt><trkpt lat="42.7524683" lon="13.268915"><ele>781.0</ele><time>2026-04-03T16:23:18.053Z</time></trkpt><trkpt lat="42.7525733" lon="13.26914"><ele>781.0</ele><time>2026-04-03T16:23:19.053Z</time></trkpt><trkpt lat="42.7526667" lon="13.2693633"><ele>788.6666666666666</ele><time>2026-04-03T16:23:20.053Z</time></trkpt><trkpt lat="42.752765" lon="13.2696"><ele>796.3333333333333</ele><time>2026-04-03T16:23:21.053Z</time></trkpt><trkpt lat="42.75285" lon="13.2698433"><ele>804.0</ele><time>2026-04-03T16:23:22.053Z</time></trkpt><trkpt lat="42.7529433" lon="13.27007"><ele>804.0</ele><time>2026-04-03T16:23:23.053Z</time></trkpt><trkpt lat="42.7530283" lon="13.2703233"><ele>804.0</ele><time>2026-04-03T16:23:24.053Z</time></trkpt><trkpt lat="42.7531133" lon="13.2705733"><ele>804.0</ele><time>2026-04-03T16:23:25.053Z</time></trkpt><trkpt lat="42.7532" lon="13.2708117"><ele>802.0</ele><time>2026-04-03T16:23:26.053Z</time></trkpt><trkpt lat="42.7532917" lon="13.2710533"><ele>800.0</ele><time>2026-04-03T16:23:27.052Z</time></trkpt><trkpt lat="42.7533633" lon="13.2712733"><ele>798.0</ele><time>2026-04-03T16:23:28.053Z</time></trkpt><trkpt lat="42.7534733" lon="13.27148"><ele>805.6666666666667</ele><time>2026-04-03T16:23:29.053Z</time></trkpt><trkpt lat="42.7535767" lon="13.2717017"><ele>813.3333333333334</ele><time>2026-04-03T16:23:30.053Z</time></trkpt><trkpt lat="42.753685" lon="13.2719167"><ele>821.0</ele><time>2026-04-03T16:23:31.053Z</time></trkpt><trkpt lat="42.75379" lon="13.2721517"><ele>813.0</ele><time>2026-04-03T16:23:32.053Z</time></trkpt><trkpt lat="42.7538917" lon="13.2723783"><ele>805.0</ele><time>2026-04-03T16:23:33.053Z</time></trkpt><trkpt lat="42.7539933" lon="13.272595"><ele>797.0</ele><time>2026-04-03T16:23:34.053Z</time></trkpt><trkpt lat="42.7540967" lon="13.2728217"><ele>797.0</ele><time>2026-04-03T16:23:35.053Z</time></trkpt><trkpt lat="42.7542" lon="13.2730567"><ele>797.0</ele><time>2026-04-03T16:23:36.053Z</time></trkpt><trkpt lat="42.7543017" lon="13.273285"><ele>797.0</ele><time>2026-04-03T16:23:37.053Z</time></trkpt><trkpt lat="42.75441" lon="13.2735083"><ele>794.3333333333334</ele><time>2026-04-03T16:23:38.052Z</time></trkpt><trkpt lat="42.7545467" lon="13.2737467"><ele>791.6666666666667</ele><time>2026-04-03T16:23:39.053Z</time></trkpt><trkpt lat="42.7546717" lon="13.2740017"><ele>789.0</ele><time>2026-04-03T16:23:40.053Z</time></trkpt><trkpt lat="42.754785" lon="13.2742083"><ele>779.3333333333334</ele><time>2026-04-03T16:23:41.053Z</time></trkpt><trkpt lat="42.754905" lon="13.274405"><ele>769.6666666666667</ele><time>2026-04-03T16:23:42.053Z</time></trkpt><trkpt lat="42.7550183" lon="13.2746167"><ele>760.0</ele><time>2026-04-03T16:23:43.053Z</time></trkpt><trkpt lat="42.7551317" lon="13.2748367"><ele>762.6666666666667</ele><time>2026-04-03T16:23:44.053Z</time></trkpt><trkpt lat="42.7552233" lon="13.275095"><ele>765.3333333333334</ele><time>2026-04-03T16:23:45.053Z</time></trkpt><trkpt lat="42.755345" lon="13.2753133"><ele>768.0</ele><time>2026-04-03T16:23:46.053Z</time></trkpt><trkpt lat="42.7554583" lon="13.2755383"><ele>763.3333333333334</ele><time>2026-04-03T16:23:47.053Z</time></trkpt><trkpt lat="42.7555733" lon="13.2757667"><ele>758.6666666666667</ele><time>2026-04-03T16:23:48.053Z</time></trkpt><trkpt lat="42.7556883" lon="13.2759967"><ele>754.0</ele><time>2026-04-03T16:23:49.053Z</time></trkpt><trkpt lat="42.7557967" lon="13.276225"><ele>757.3333333333334</ele><time>2026-04-03T16:23:50.053Z</time></trkpt><trkpt lat="42.7559083" lon="13.2764517"><ele>760.6666666666666</ele><time>2026-04-03T16:23:51.053Z</time></trkpt><trkpt lat="42.7560167" lon="13.27668"><ele>764.0</ele><time>2026-04-03T16:23:52.052Z</time></trkpt><trkpt lat="42.7561283" lon="13.2769117"><ele>764.0</ele><time>2026-04-03T16:23:53.053Z</time></trkpt><trkpt lat="42.7562417" lon="13.27714"><ele>764.0</ele><time>2026-04-03T16:23:54.053Z</time></trkpt><trkpt lat="42.7563517" lon="13.2773583"><ele>764.0</ele><time>2026-04-03T16:23:55.053Z</time></trkpt><trkpt lat="42.75647" lon="13.27757"><ele>757.0</ele><time>2026-04-03T16:23:56.053Z</time></trkpt><trkpt lat="42.7565933" lon="13.2777667"><ele>750.0</ele><time>2026-04-03T16:23:57.053Z</time></trkpt><trkpt lat="42.756715" lon="13.2779533"><ele>743.0</ele><time>2026-04-03T16:23:58.053Z</time></trkpt><trkpt lat="42.7568383" lon="13.278115"><ele>747.6666666666666</ele><time>2026-04-03T16:23:59.052Z</time></trkpt><trkpt lat="42.75697" lon="13.2782817"><ele>752.3333333333334</ele><time>2026-04-03T16:24:00.053Z</time></trkpt><trkpt lat="42.757105" lon="13.2784467"><ele>757.0</ele><time>2026-04-03T16:24:01.053Z</time></trkpt><trkpt lat="42.7572533" lon="13.2786017"><ele>757.0</ele><time>2026-04-03T16:24:02.053Z</time></trkpt><trkpt lat="42.7574083" lon="13.2787583"><ele>757.0</ele><time>2026-04-03T16:24:03.053Z</time></trkpt><trkpt lat="42.7575633" lon="13.2789033"><ele>757.0</ele><time>2026-04-03T16:24:04.053Z</time></trkpt><trkpt lat="42.75772" lon="13.2790417"><ele>754.3333333333334</ele><time>2026-04-03T16:24:05.053Z</time></trkpt><trkpt lat="42.757895" lon="13.2791567"><ele>751.6666666666666</ele><time>2026-04-03T16:24:06.053Z</time></trkpt><trkpt lat="42.75808" lon="13.27925"><ele>749.0</ele><time>2026-04-03T16:24:07.053Z</time></trkpt><trkpt lat="42.758255" lon="13.2793633"><ele>749.0</ele><time>2026-04-03T16:24:08.053Z</time></trkpt><trkpt lat="42.7584217" lon="13.27947"><ele>749.0</ele><time>2026-04-03T16:24:09.053Z</time></trkpt><trkpt lat="42.75859" lon="13.27959"><ele>749.0</ele><time>2026-04-03T16:24:10.053Z</time></trkpt><trkpt lat="42.7587467" lon="13.2797133"><ele>744.3333333333333</ele><time>2026-04-03T16:24:11.053Z</time></trkpt><trkpt lat="42.7588983" lon="13.279865"><ele>739.6666666666666</ele><time>2026-04-03T16:24:12.053Z</time></trkpt><trkpt lat="42.759045" lon="13.28002"><ele>735.0</ele><time>2026-04-03T16:24:13.053Z</time></trkpt><trkpt lat="42.7591933" lon="13.2801967"><ele>735.0</ele><time>2026-04-03T16:24:14.053Z</time></trkpt><trkpt lat="42.759345" lon="13.2803717"><ele>735.0</ele><time>2026-04-03T16:24:15.053Z</time></trkpt><trkpt lat="42.7594883" lon="13.2805283"><ele>735.0</ele><time>2026-04-03T16:24:16.052Z</time></trkpt><trkpt lat="42.7596267" lon="13.2806883"><ele>736.6666666666666</ele><time>2026-04-03T16:24:17.053Z</time></trkpt><trkpt lat="42.7597583" lon="13.2808733"><ele>738.3333333333333</ele><time>2026-04-03T16:24:18.053Z</time></trkpt><trkpt lat="42.7599" lon="13.2810633"><ele>740.0</ele><time>2026-04-03T16:24:19.053Z</time></trkpt><trkpt lat="42.760005" lon="13.281295"><ele>734.6666666666666</ele><time>2026-04-03T16:24:20.053Z</time></trkpt><trkpt lat="42.7601433" lon="13.28148"><ele>729.3333333333334</ele><time>2026-04-03T16:24:21.052Z</time></trkpt><trkpt lat="42.7602667" lon="13.2816883"><ele>724.0</ele><time>2026-04-03T16:24:22.053Z</time></trkpt><trkpt lat="42.7605133" lon="13.2820783"><ele>720.5</ele><time>2026-04-03T16:24:24.053Z</time></trkpt><trkpt lat="42.7606417" lon="13.2822733"><ele>717.0</ele><time>2026-04-03T16:24:25.053Z</time></trkpt><trkpt lat="42.7610267" lon="13.28289"><ele>720.0</ele><time>2026-04-03T16:24:28.053Z</time></trkpt><trkpt lat="42.7612983" lon="13.283315"><ele>723.0</ele><time>2026-04-03T16:24:30.053Z</time></trkpt><trkpt lat="42.762135" lon="13.28425"><ele>710.0</ele><time>2026-04-03T16:24:36.053Z</time></trkpt><trkpt lat="42.7624917" lon="13.2840017"><ele>697.0</ele><time>2026-04-03T16:24:37.053Z</time></trkpt><trkpt lat="42.762715" lon="13.2840433"><ele>697.0</ele><time>2026-04-03T16:24:38.053Z</time></trkpt><trkpt lat="42.7633467" lon="13.2842433"><ele>701.0</ele><time>2026-04-03T16:24:41.053Z</time></trkpt><trkpt lat="42.7635417" lon="13.2843483"><ele>705.0</ele><time>2026-04-03T16:24:42.053Z</time></trkpt><trkpt lat="42.7640783" lon="13.2846933"><ele>702.5</ele><time>2026-04-03T16:24:45.052Z</time></trkpt><trkpt lat="42.764255" lon="13.2848217"><ele>700.0</ele><time>2026-04-03T16:24:46.053Z</time></trkpt><trkpt lat="42.76459" lon="13.2851267"><ele>700.0</ele><time>2026-04-03T16:24:48.053Z</time></trkpt><trkpt lat="42.7647417" lon="13.2852967"><ele>700.0</ele><time>2026-04-03T16:24:49.053Z</time></trkpt><trkpt lat="42.76516" lon="13.28589"><ele>700.3333333333334</ele><time>2026-04-03T16:24:52.053Z</time></trkpt><trkpt lat="42.76529" lon="13.2860967"><ele>700.6666666666666</ele><time>2026-04-03T16:24:53.053Z</time></trkpt><trkpt lat="42.7654183" lon="13.2863"><ele>701.0</ele><time>2026-04-03T16:24:54.053Z</time></trkpt><trkpt lat="42.7657" lon="13.286735"><ele>695.5</ele><time>2026-04-03T16:24:56.053Z</time></trkpt><trkpt lat="42.76583" lon="13.2869267"><ele>690.0</ele><time>2026-04-03T16:24:57.053Z</time></trkpt><trkpt lat="42.7662033" lon="13.2875017"><ele>690.0</ele><time>2026-04-03T16:25:00.053Z</time></trkpt><trkpt lat="42.7663233" lon="13.2876883"><ele>690.0</ele><time>2026-04-03T16:25:01.053Z</time></trkpt><trkpt lat="42.7667267" lon="13.2883233"><ele>685.5</ele><time>2026-04-03T16:25:05.053Z</time></trkpt><trkpt lat="42.7668333" lon="13.2884717"><ele>681.0</ele><time>2026-04-03T16:25:06.053Z</time></trkpt><trkpt lat="42.7669367" lon="13.2886167"><ele>676.5</ele><time>2026-04-03T16:25:07.053Z</time></trkpt><trkpt lat="42.7670283" lon="13.28876"><ele>672.0</ele><time>2026-04-03T16:25:08.053Z</time></trkpt><trkpt lat="42.767095" lon="13.2888883"><ele>670.0</ele><time>2026-04-03T16:25:09.053Z</time></trkpt><trkpt lat="42.76714" lon="13.2890133"><ele>668.0</ele><time>2026-04-03T16:25:10.053Z</time></trkpt><trkpt lat="42.76717" lon="13.28913"><ele>666.0</ele><time>2026-04-03T16:25:11.053Z</time></trkpt><trkpt lat="42.767185" lon="13.28924"><ele>664.0</ele><time>2026-04-03T16:25:12.053Z</time></trkpt><trkpt lat="42.7671667" lon="13.2893333"><ele>662.0</ele><time>2026-04-03T16:25:13.053Z</time></trkpt><trkpt lat="42.767125" lon="13.289425"><ele>660.0</ele><time>2026-04-03T16:25:14.053Z</time></trkpt><trkpt lat="42.76706" lon="13.2894867"><ele>660.0</ele><time>2026-04-03T16:25:15.053Z</time></trkpt><trkpt lat="42.7669867" lon="13.2895167"><ele>660.0</ele><time>2026-04-03T16:25:16.053Z</time></trkpt><trkpt lat="42.7668883" lon="13.2895133"><ele>660.0</ele><time>2026-04-03T16:25:17.053Z</time></trkpt><trkpt lat="42.766795" lon="13.2894433"><ele>660.0</ele><time>2026-04-03T16:25:18.053Z</time></trkpt><trkpt lat="42.76671" lon="13.2893117"><ele>660.0</ele><time>2026-04-03T16:25:19.053Z</time></trkpt><trkpt lat="42.7666267" lon="13.28916"><ele>659.5</ele><time>2026-04-03T16:25:20.053Z</time></trkpt><trkpt lat="42.7665433" lon="13.28901"><ele>659.0</ele><time>2026-04-03T16:25:21.053Z</time></trkpt><trkpt lat="42.7664683" lon="13.2888633"><ele>658.5</ele><time>2026-04-03T16:25:22.053Z</time></trkpt><trkpt lat="42.7663867" lon="13.2887383"><ele>658.0</ele><time>2026-04-03T16:25:23.053Z</time></trkpt><trkpt lat="42.7663017" lon="13.28866"><ele>658.0</ele><time>2026-04-03T16:25:24.053Z</time></trkpt><trkpt lat="42.7662167" lon="13.2886317"><ele>658.0</ele><time>2026-04-03T16:25:25.053Z</time></trkpt><trkpt lat="42.7661267" lon="13.288645"><ele>658.0</ele><time>2026-04-03T16:25:26.053Z</time></trkpt><trkpt lat="42.7660433" lon="13.2887133"><ele>658.0</ele><time>2026-04-03T16:25:27.053Z</time></trkpt><trkpt lat="42.7659933" lon="13.288835"><ele>658.0</ele><time>2026-04-03T16:25:28.053Z</time></trkpt><trkpt lat="42.765985" lon="13.2889683"><ele>655.2</ele><time>2026-04-03T16:25:29.053Z</time></trkpt><trkpt lat="42.766005" lon="13.2891017"><ele>652.4</ele><time>2026-04-03T16:25:30.053Z</time></trkpt><trkpt lat="42.7660567" lon="13.2892133"><ele>649.6</ele><time>2026-04-03T16:25:31.053Z</time></trkpt><trkpt lat="42.766135" lon="13.2893133"><ele>646.8000000000001</ele><time>2026-04-03T16:25:32.053Z</time></trkpt><trkpt lat="42.7662317" lon="13.28942"><ele>644.0</ele><time>2026-04-03T16:25:33.053Z</time></trkpt><trkpt lat="42.7663333" lon="13.289525"><ele>644.0</ele><time>2026-04-03T16:25:34.053Z</time></trkpt><trkpt lat="42.766445" lon="13.2896417"><ele>644.0</ele><time>2026-04-03T16:25:35.053Z</time></trkpt><trkpt lat="42.7665667" lon="13.2897567"><ele>644.0</ele><time>2026-04-03T16:25:36.053Z</time></trkpt><trkpt lat="42.7666983" lon="13.2898517"><ele>644.0</ele><time>2026-04-03T16:25:37.053Z</time></trkpt><trkpt lat="42.7668183" lon="13.2899533"><ele>645.5</ele><time>2026-04-03T16:25:38.053Z</time></trkpt><trkpt lat="42.766925" lon="13.2900617"><ele>647.0</ele><time>2026-04-03T16:25:39.053Z</time></trkpt><trkpt lat="42.7670283" lon="13.2901783"><ele>648.5</ele><time>2026-04-03T16:25:40.053Z</time></trkpt><trkpt lat="42.7671183" lon="13.290305"><ele>650.0</ele><time>2026-04-03T16:25:41.052Z</time></trkpt><trkpt lat="42.7671867" lon="13.2904267"><ele>650.0</ele><time>2026-04-03T16:25:42.053Z</time></trkpt><trkpt lat="42.7672483" lon="13.2905367"><ele>650.0</ele><time>2026-04-03T16:25:43.053Z</time></trkpt><trkpt lat="42.767305" lon="13.290625"><ele>650.0</ele><time>2026-04-03T16:25:44.053Z</time></trkpt><trkpt lat="42.7673483" lon="13.2906983"><ele>650.0</ele><time>2026-04-03T16:25:45.053Z</time></trkpt><trkpt lat="42.7673983" lon="13.29078"><ele>650.0</ele><time>2026-04-03T16:25:47.053Z</time></trkpt><trkpt lat="42.767455" lon="13.2908417"><ele>650.0</ele><time>2026-04-03T16:26:17.053Z</time></trkpt><trkpt lat="42.767545" lon="13.2909567"><ele>651.0</ele><time>2026-04-03T16:26:19.053Z</time></trkpt><trkpt lat="42.7676" lon="13.2910383"><ele>652.0</ele><time>2026-04-03T16:26:20.053Z</time></trkpt><trkpt lat="42.76767" lon="13.2911467"><ele>653.0</ele><time>2026-04-03T16:26:21.053Z</time></trkpt><trkpt lat="42.7677417" lon="13.291255"><ele>654.0</ele><time>2026-04-03T16:26:22.053Z</time></trkpt><trkpt lat="42.7678167" lon="13.291375"><ele>655.0</ele><time>2026-04-03T16:26:23.053Z</time></trkpt><trkpt lat="42.7678883" lon="13.2914933"><ele>655.0</ele><time>2026-04-03T16:26:24.053Z</time></trkpt><trkpt lat="42.7679617" lon="13.2916217"><ele>655.0</ele><time>2026-04-03T16:26:25.053Z</time></trkpt><trkpt lat="42.768045" lon="13.2917617"><ele>655.0</ele><time>2026-04-03T16:26:26.053Z</time></trkpt><trkpt lat="42.7681267" lon="13.2919067"><ele>655.0</ele><time>2026-04-03T16:26:27.053Z</time></trkpt><trkpt lat="42.7682183" lon="13.2920683"><ele>655.0</ele><time>2026-04-03T16:26:28.053Z</time></trkpt><trkpt lat="42.7683367" lon="13.2922167"><ele>655.0</ele><time>2026-04-03T16:26:29.053Z</time></trkpt><trkpt lat="42.7684417" lon="13.29237"><ele>655.0</ele><time>2026-04-03T16:26:30.052Z</time></trkpt><trkpt lat="42.7685633" lon="13.292545"><ele>653.3333333333334</ele><time>2026-04-03T16:26:31.052Z</time></trkpt><trkpt lat="42.76868" lon="13.2927217"><ele>651.6666666666666</ele><time>2026-04-03T16:26:32.053Z</time></trkpt><trkpt lat="42.7688033" lon="13.2929233"><ele>650.0</ele><time>2026-04-03T16:26:33.053Z</time></trkpt><trkpt lat="42.768925" lon="13.29311"><ele>643.0</ele><time>2026-04-03T16:26:34.053Z</time></trkpt><trkpt lat="42.76905" lon="13.2933"><ele>636.0</ele><time>2026-04-03T16:26:35.053Z</time></trkpt><trkpt lat="42.7691767" lon="13.2934917"><ele>629.0</ele><time>2026-04-03T16:26:36.053Z</time></trkpt><trkpt lat="42.769305" lon="13.2936967"><ele>628.3333333333333</ele><time>2026-04-03T16:26:37.052Z</time></trkpt><trkpt lat="42.76943" lon="13.2938933"><ele>627.6666666666666</ele><time>2026-04-03T16:26:38.053Z</time></trkpt><trkpt lat="42.7695517" lon="13.2940867"><ele>627.0</ele><time>2026-04-03T16:26:39.053Z</time></trkpt><trkpt lat="42.7696717" lon="13.294305"><ele>627.0</ele><time>2026-04-03T16:26:40.053Z</time></trkpt><trkpt lat="42.7697867" lon="13.29453"><ele>627.0</ele><time>2026-04-03T16:26:41.053Z</time></trkpt><trkpt lat="42.7698967" lon="13.294735"><ele>627.0</ele><time>2026-04-03T16:26:42.053Z</time></trkpt><trkpt lat="42.7700067" lon="13.2949617"><ele>628.6666666666666</ele><time>2026-04-03T16:26:43.053Z</time></trkpt><trkpt lat="42.7701117" lon="13.2951867"><ele>630.3333333333333</ele><time>2026-04-03T16:26:44.053Z</time></trkpt><trkpt lat="42.7702167" lon="13.295425"><ele>632.0</ele><time>2026-04-03T16:26:45.053Z</time></trkpt><trkpt lat="42.770315" lon="13.295665"><ele>636.0</ele><time>2026-04-03T16:26:46.053Z</time></trkpt><trkpt lat="42.7704083" lon="13.295905"><ele>640.0</ele><time>2026-04-03T16:26:47.053Z</time></trkpt><trkpt lat="42.7705017" lon="13.296135"><ele>644.0</ele><time>2026-04-03T16:26:48.053Z</time></trkpt><trkpt lat="42.7705983" lon="13.296365"><ele>643.3333333333333</ele><time>2026-04-03T16:26:49.053Z</time></trkpt><trkpt lat="42.7707" lon="13.29659"><ele>642.6666666666666</ele><time>2026-04-03T16:26:50.053Z</time></trkpt><trkpt lat="42.770815" lon="13.2968083"><ele>642.0</ele><time>2026-04-03T16:26:51.052Z</time></trkpt><trkpt lat="42.7709283" lon="13.2970167"><ele>645.0</ele><time>2026-04-03T16:26:52.053Z</time></trkpt><trkpt lat="42.7710733" lon="13.2971733"><ele>648.0</ele><time>2026-04-03T16:26:53.053Z</time></trkpt><trkpt lat="42.7712033" lon="13.2973733"><ele>651.0</ele><time>2026-04-03T16:26:54.053Z</time></trkpt><trkpt lat="42.7713383" lon="13.297555"><ele>651.0</ele><time>2026-04-03T16:26:55.053Z</time></trkpt><trkpt lat="42.7716233" lon="13.2979567"><ele>651.0</ele><time>2026-04-03T16:26:57.053Z</time></trkpt><trkpt lat="42.7717533" lon="13.298145"><ele>649.6666666666666</ele><time>2026-04-03T16:26:58.053Z</time></trkpt><trkpt lat="42.771865" lon="13.2983383"><ele>648.3333333333333</ele><time>2026-04-03T16:26:59.053Z</time></trkpt><trkpt lat="42.771965" lon="13.29856"><ele>647.0</ele><time>2026-04-03T16:27:00.053Z</time></trkpt><trkpt lat="42.7720333" lon="13.2988133"><ele>642.6666666666666</ele><time>2026-04-03T16:27:01.053Z</time></trkpt><trkpt lat="42.7721233" lon="13.299045"><ele>638.3333333333334</ele><time>2026-04-03T16:27:02.053Z</time></trkpt><trkpt lat="42.7722" lon="13.2992767"><ele>634.0</ele><time>2026-04-03T16:27:03.053Z</time></trkpt><trkpt lat="42.7722583" lon="13.2995133"><ele>631.6666666666667</ele><time>2026-04-03T16:27:04.053Z</time></trkpt><trkpt lat="42.772305" lon="13.29982"><ele>629.3333333333334</ele><time>2026-04-03T16:27:05.053Z</time></trkpt><trkpt lat="42.7723233" lon="13.3000567"><ele>627.0</ele><time>2026-04-03T16:27:06.053Z</time></trkpt><trkpt lat="42.7723583" lon="13.300325"><ele>627.0</ele><time>2026-04-03T16:27:07.053Z</time></trkpt><trkpt lat="42.7723933" lon="13.30058"><ele>627.0</ele><time>2026-04-03T16:27:08.053Z</time></trkpt><trkpt lat="42.77243" lon="13.300855"><ele>627.0</ele><time>2026-04-03T16:27:09.053Z</time></trkpt><trkpt lat="42.7724817" lon="13.3011267"><ele>625.0</ele><time>2026-04-03T16:27:10.053Z</time></trkpt><trkpt lat="42.7725483" lon="13.301355"><ele>623.0</ele><time>2026-04-03T16:27:11.053Z</time></trkpt><trkpt lat="42.7726333" lon="13.3016033"><ele>621.0</ele><time>2026-04-03T16:27:12.053Z</time></trkpt><trkpt lat="42.7727283" lon="13.3018383"><ele>623.6666666666666</ele><time>2026-04-03T16:27:13.053Z</time></trkpt><trkpt lat="42.7728417" lon="13.3020567"><ele>626.3333333333333</ele><time>2026-04-03T16:27:14.053Z</time></trkpt><trkpt lat="42.772965" lon="13.3022833"><ele>629.0</ele><time>2026-04-03T16:27:15.053Z</time></trkpt><trkpt lat="42.7731033" lon="13.3024833"><ele>629.0</ele><time>2026-04-03T16:27:16.053Z</time></trkpt><trkpt lat="42.773245" lon="13.30268"><ele>629.0</ele><time>2026-04-03T16:27:17.052Z</time></trkpt><trkpt lat="42.7733833" lon="13.3028767"><ele>629.0</ele><time>2026-04-03T16:27:18.053Z</time></trkpt><trkpt lat="42.7735167" lon="13.303085"><ele>631.6666666666666</ele><time>2026-04-03T16:27:19.053Z</time></trkpt><trkpt lat="42.7736367" lon="13.3032917"><ele>634.3333333333334</ele><time>2026-04-03T16:27:20.053Z</time></trkpt><trkpt lat="42.77376" lon="13.3034833"><ele>637.0</ele><time>2026-04-03T16:27:21.053Z</time></trkpt><trkpt lat="42.7738833" lon="13.3036767"><ele>637.0</ele><time>2026-04-03T16:27:22.053Z</time></trkpt><trkpt lat="42.7739917" lon="13.3039033"><ele>637.0</ele><time>2026-04-03T16:27:23.053Z</time></trkpt><trkpt lat="42.774095" lon="13.304125"><ele>637.0</ele><time>2026-04-03T16:27:24.053Z</time></trkpt><trkpt lat="42.7741883" lon="13.304355"><ele>639.3333333333334</ele><time>2026-04-03T16:27:25.053Z</time></trkpt><trkpt lat="42.774285" lon="13.30458"><ele>641.6666666666666</ele><time>2026-04-03T16:27:26.053Z</time></trkpt><trkpt lat="42.7743667" lon="13.30483"><ele>644.0</ele><time>2026-04-03T16:27:27.053Z</time></trkpt><trkpt lat="42.77444" lon="13.30508"><ele>644.0</ele><time>2026-04-03T16:27:28.053Z</time></trkpt><trkpt lat="42.774505" lon="13.3053333"><ele>644.0</ele><time>2026-04-03T16:27:29.052Z</time></trkpt><trkpt lat="42.7745683" lon="13.3055833"><ele>644.0</ele><time>2026-04-03T16:27:30.053Z</time></trkpt><trkpt lat="42.7746167" lon="13.3058233"><ele>639.3333333333333</ele><time>2026-04-03T16:27:31.053Z</time></trkpt><trkpt lat="42.7746667" lon="13.30608"><ele>634.6666666666666</ele><time>2026-04-03T16:27:32.053Z</time></trkpt><trkpt lat="42.7747083" lon="13.3063267"><ele>630.0</ele><time>2026-04-03T16:27:33.053Z</time></trkpt><trkpt lat="42.7747433" lon="13.3065717"><ele>624.6666666666666</ele><time>2026-04-03T16:27:34.053Z</time></trkpt><trkpt lat="42.774775" lon="13.306825"><ele>619.3333333333333</ele><time>2026-04-03T16:27:35.053Z</time></trkpt><trkpt lat="42.7748083" lon="13.3070683"><ele>614.0</ele><time>2026-04-03T16:27:36.053Z</time></trkpt><trkpt lat="42.774845" lon="13.3073117"><ele>611.6666666666666</ele><time>2026-04-03T16:27:37.053Z</time></trkpt><trkpt lat="42.7748833" lon="13.30754"><ele>609.3333333333334</ele><time>2026-04-03T16:27:38.053Z</time></trkpt><trkpt lat="42.77491" lon="13.3077733"><ele>607.0</ele><time>2026-04-03T16:27:39.052Z</time></trkpt><trkpt lat="42.7749317" lon="13.3080183"><ele>605.6666666666667</ele><time>2026-04-03T16:27:40.053Z</time></trkpt><trkpt lat="42.7749417" lon="13.3082533"><ele>604.3333333333334</ele><time>2026-04-03T16:27:41.053Z</time></trkpt><trkpt lat="42.7749467" lon="13.3084917"><ele>603.0</ele><time>2026-04-03T16:27:42.053Z</time></trkpt><trkpt lat="42.77496" lon="13.3087433"><ele>603.3333333333334</ele><time>2026-04-03T16:27:43.053Z</time></trkpt><trkpt lat="42.774975" lon="13.30899"><ele>603.6666666666667</ele><time>2026-04-03T16:27:44.053Z</time></trkpt><trkpt lat="42.7749833" lon="13.3092383"><ele>604.0</ele><time>2026-04-03T16:27:45.053Z</time></trkpt><trkpt lat="42.7749833" lon="13.3095033"><ele>604.0</ele><time>2026-04-03T16:27:46.053Z</time></trkpt><trkpt lat="42.7749717" lon="13.309715"><ele>604.0</ele><time>2026-04-03T16:27:47.053Z</time></trkpt><trkpt lat="42.7749617" lon="13.3099133"><ele>604.0</ele><time>2026-04-03T16:27:48.053Z</time></trkpt><trkpt lat="42.774945" lon="13.31011"><ele>604.0</ele><time>2026-04-03T16:27:49.053Z</time></trkpt><trkpt lat="42.7749233" lon="13.31031"><ele>604.25</ele><time>2026-04-03T16:27:50.053Z</time></trkpt><trkpt lat="42.77489" lon="13.3105"><ele>604.5</ele><time>2026-04-03T16:27:51.053Z</time></trkpt><trkpt lat="42.7748733" lon="13.310665"><ele>604.75</ele><time>2026-04-03T16:27:52.053Z</time></trkpt><trkpt lat="42.7748483" lon="13.3108117"><ele>605.0</ele><time>2026-04-03T16:27:53.053Z</time></trkpt><trkpt lat="42.7748367" lon="13.3109467"><ele>606.0</ele><time>2026-04-03T16:27:54.053Z</time></trkpt><trkpt lat="42.7748317" lon="13.3110667"><ele>607.0</ele><time>2026-04-03T16:27:55.053Z</time></trkpt><trkpt lat="42.7748233" lon="13.3111683"><ele>608.0</ele><time>2026-04-03T16:27:56.053Z</time></trkpt><trkpt lat="42.77481" lon="13.3112717"><ele>609.0</ele><time>2026-04-03T16:27:57.052Z</time></trkpt><trkpt lat="42.774805" lon="13.31137"><ele>610.0</ele><time>2026-04-03T16:27:58.053Z</time></trkpt><trkpt lat="42.7748017" lon="13.3114767"><ele>611.0</ele><time>2026-04-03T16:27:59.053Z</time></trkpt><trkpt lat="42.7748" lon="13.3115917"><ele>611.6666666666666</ele><time>2026-04-03T16:28:00.053Z</time></trkpt><trkpt lat="42.7747967" lon="13.3117117"><ele>612.3333333333333</ele><time>2026-04-03T16:28:01.053Z</time></trkpt><trkpt lat="42.774795" lon="13.3118333"><ele>613.0</ele><time>2026-04-03T16:28:02.053Z</time></trkpt><trkpt lat="42.7747883" lon="13.31194"><ele>613.6666666666666</ele><time>2026-04-03T16:28:03.053Z</time></trkpt><trkpt lat="42.774775" lon="13.3120383"><ele>614.3333333333334</ele><time>2026-04-03T16:28:04.053Z</time></trkpt><trkpt lat="42.7747633" lon="13.3121367"><ele>615.0</ele><time>2026-04-03T16:28:05.053Z</time></trkpt><trkpt lat="42.7747433" lon="13.3122367"><ele>616.5</ele><time>2026-04-03T16:28:06.053Z</time></trkpt><trkpt lat="42.7747267" lon="13.312335"><ele>618.0</ele><time>2026-04-03T16:28:07.053Z</time></trkpt><trkpt lat="42.77471" lon="13.3124283"><ele>619.5</ele><time>2026-04-03T16:28:08.053Z</time></trkpt><trkpt lat="42.7746917" lon="13.3125267"><ele>621.0</ele><time>2026-04-03T16:28:10.053Z</time></trkpt><trkpt lat="42.7746717" lon="13.3126083"><ele>622.5</ele><time>2026-04-03T16:28:14.053Z</time></trkpt><trkpt lat="42.77467" lon="13.31271"><ele>624.0</ele><time>2026-04-03T16:28:20.053Z</time></trkpt><trkpt lat="42.77465" lon="13.3128767"><ele>624.0</ele><time>2026-04-03T16:28:22.053Z</time></trkpt><trkpt lat="42.77463" lon="13.3129683"><ele>624.0</ele><time>2026-04-03T16:28:23.053Z</time></trkpt><trkpt lat="42.774595" lon="13.3131217"><ele>624.0</ele><time>2026-04-03T16:28:25.053Z</time></trkpt><trkpt lat="42.774565" lon="13.3132067"><ele>624.0</ele><time>2026-04-03T16:28:27.053Z</time></trkpt><trkpt lat="42.7745283" lon="13.3133067"><ele>624.0</ele><time>2026-04-03T16:28:32.053Z</time></trkpt><trkpt lat="42.774495" lon="13.31341"><ele>624.0</ele><time>2026-04-03T16:28:56.053Z</time></trkpt><trkpt lat="42.7744683" lon="13.3135433"><ele>625.8</ele><time>2026-04-03T16:28:58.053Z</time></trkpt><trkpt lat="42.77443" lon="13.3136983"><ele>627.5999999999999</ele><time>2026-04-03T16:29:00.053Z</time></trkpt><trkpt lat="42.7743667" lon="13.313815"><ele>629.4</ele><time>2026-04-03T16:29:02.053Z</time></trkpt><trkpt lat="42.7743183" lon="13.313895"><ele>631.1999999999999</ele><time>2026-04-03T16:29:14.053Z</time></trkpt><trkpt lat="42.7743167" lon="13.31401"><ele>633.0</ele><time>2026-04-03T16:29:17.053Z</time></trkpt><trkpt lat="42.7743733" lon="13.313895"><ele>633.0</ele><time>2026-04-03T16:29:51.053Z</time></trkpt><trkpt lat="42.774405" lon="13.3137383"><ele>633.0</ele><time>2026-04-03T16:29:53.053Z</time></trkpt><trkpt lat="42.7744267" lon="13.3136467"><ele>633.0</ele><time>2026-04-03T16:29:54.053Z</time></trkpt><trkpt lat="42.774455" lon="13.3135617"><ele>633.0</ele><time>2026-04-03T16:29:55.053Z</time></trkpt><trkpt lat="42.774485" lon="13.313415"><ele>633.0</ele><time>2026-04-03T16:29:57.053Z</time></trkpt><trkpt lat="42.7745183" lon="13.3132983"><ele>633.0</ele><time>2026-04-03T16:29:59.053Z</time></trkpt><trkpt lat="42.7745383" lon="13.3131917"><ele>633.0</ele><time>2026-04-03T16:30:01.052Z</time></trkpt><trkpt lat="42.7745467" lon="13.313095"><ele>633.0</ele><time>2026-04-03T16:30:03.053Z</time></trkpt><trkpt lat="42.7745833" lon="13.312985"><ele>633.0</ele><time>2026-04-03T16:30:06.053Z</time></trkpt><trkpt lat="42.774605" lon="13.3128917"><ele>633.0</ele><time>2026-04-03T16:30:08.053Z</time></trkpt><trkpt lat="42.7746167" lon="13.3128"><ele>633.0</ele><time>2026-04-03T16:30:10.053Z</time></trkpt><trkpt lat="42.77464" lon="13.3126733"><ele>631.5</ele><time>2026-04-03T16:30:13.053Z</time></trkpt><trkpt lat="42.7746633" lon="13.312575"><ele>630.0</ele><time>2026-04-03T16:30:15.053Z</time></trkpt><trkpt lat="42.7746917" lon="13.31247"><ele>628.5</ele><time>2026-04-03T16:30:21.053Z</time></trkpt><trkpt lat="42.7747083" lon="13.312375"><ele>627.0</ele><time>2026-04-03T16:30:26.053Z</time></trkpt><trkpt lat="42.7747267" lon="13.3122917"><ele>625.5</ele><time>2026-04-03T16:30:35.053Z</time></trkpt><trkpt lat="42.7747317" lon="13.3121867"><ele>624.0</ele><time>2026-04-03T16:30:37.053Z</time></trkpt><trkpt lat="42.7747417" lon="13.3120433"><ele>622.5</ele><time>2026-04-03T16:30:39.053Z</time></trkpt><trkpt lat="42.774745" lon="13.3119167"><ele>621.0</ele><time>2026-04-03T16:30:41.053Z</time></trkpt><trkpt lat="42.7747467" lon="13.3118283"><ele>619.5</ele><time>2026-04-03T16:30:43.053Z</time></trkpt><trkpt lat="42.7747817" lon="13.311745"><ele>618.0</ele><time>2026-04-03T16:30:49.053Z</time></trkpt><trkpt lat="42.77478" lon="13.31165"><ele>616.5</ele><time>2026-04-03T16:30:52.053Z</time></trkpt><trkpt lat="42.77474" lon="13.311495"><ele>615.0</ele><time>2026-04-03T16:31:20.053Z</time></trkpt><trkpt lat="42.7747033" lon="13.3115783"><ele>615.0</ele><time>2026-04-03T16:31:24.053Z</time></trkpt><trkpt lat="42.774695" lon="13.3116733"><ele>615.0</ele><time>2026-04-03T16:31:26.053Z</time></trkpt><trkpt lat="42.774665" lon="13.311765"><ele>615.0</ele><time>2026-04-03T16:31:28.053Z</time></trkpt><trkpt lat="42.7746067" lon="13.3118167"><ele>615.0</ele><time>2026-04-03T16:31:30.053Z</time></trkpt><trkpt lat="42.7745333" lon="13.311825"><ele>615.0</ele><time>2026-04-03T16:31:32.053Z</time></trkpt><trkpt lat="42.774455" lon="13.3118133"><ele>615.0</ele><time>2026-04-03T16:31:34.053Z</time></trkpt><trkpt lat="42.7743867" lon="13.311815"><ele>615.0</ele><time>2026-04-03T16:31:36.053Z</time></trkpt><trkpt lat="42.7743183" lon="13.3118067"><ele>611.8</ele><time>2026-04-03T16:31:39.053Z</time></trkpt><trkpt lat="42.7742133" lon="13.3117933"><ele>608.6</ele><time>2026-04-03T16:32:19.053Z</time></trkpt><trkpt lat="42.7741117" lon="13.31177"><ele>605.4</ele><time>2026-04-03T16:32:21.053Z</time></trkpt><trkpt lat="42.7740067" lon="13.3117467"><ele>602.2</ele><time>2026-04-03T16:32:23.053Z</time></trkpt><trkpt lat="42.7739167" lon="13.3117667"><ele>599.0</ele><time>2026-04-03T16:32:25.053Z</time></trkpt><trkpt lat="42.773835" lon="13.31182"><ele>599.0</ele><time>2026-04-03T16:32:27.053Z</time></trkpt><trkpt lat="42.77378" lon="13.311895"><ele>599.0</ele><time>2026-04-03T16:32:29.053Z</time></trkpt><trkpt lat="42.7737233" lon="13.3119367"><ele>599.0</ele><time>2026-04-03T16:32:31.053Z</time></trkpt><trkpt lat="42.7736617" lon="13.311965"><ele>599.0</ele><time>2026-04-03T16:32:33.053Z</time></trkpt><trkpt lat="42.7736017" lon="13.3120183"><ele>599.0</ele><time>2026-04-03T16:32:39.053Z</time></trkpt><trkpt lat="42.7735317" lon="13.31206"><ele>599.0</ele><time>2026-04-03T16:32:43.053Z</time></trkpt><trkpt lat="42.7734667" lon="13.3120417"><ele>599.0</ele><time>2026-04-03T16:32:45.053Z</time></trkpt><trkpt lat="42.7734333" lon="13.31194"><ele>601.0</ele><time>2026-04-03T16:32:47.053Z</time></trkpt><trkpt lat="42.773435" lon="13.3117833"><ele>603.0</ele><time>2026-04-03T16:32:49.053Z</time></trkpt><trkpt lat="42.7734417" lon="13.3116967"><ele>605.0</ele><time>2026-04-03T16:32:50.053Z</time></trkpt><trkpt lat="42.773445" lon="13.3116"><ele>607.0</ele><time>2026-04-03T16:32:51.053Z</time></trkpt><trkpt lat="42.7734483" lon="13.3115"><ele>609.0</ele><time>2026-04-03T16:32:52.053Z</time></trkpt><trkpt lat="42.773455" lon="13.3114"><ele>611.0</ele><time>2026-04-03T16:32:53.053Z</time></trkpt><trkpt lat="42.7734583" lon="13.3113067"><ele>611.1428571428572</ele><time>2026-04-03T16:32:54.053Z</time></trkpt><trkpt lat="42.7734617" lon="13.3112117"><ele>611.2857142857143</ele><time>2026-04-03T16:32:55.053Z</time></trkpt><trkpt lat="42.773465" lon="13.3111233"><ele>611.4285714285714</ele><time>2026-04-03T16:32:56.053Z</time></trkpt><trkpt lat="42.7734533" lon="13.31103"><ele>611.5714285714287</ele><time>2026-04-03T16:32:57.053Z</time></trkpt><trkpt lat="42.77344" lon="13.3109317"><ele>611.7142857142858</ele><time>2026-04-03T16:32:58.053Z</time></trkpt><trkpt lat="42.7734133" lon="13.310835"><ele>611.8571428571429</ele><time>2026-04-03T16:32:59.053Z</time></trkpt><trkpt lat="42.7733783" lon="13.3107417"><ele>612.0</ele><time>2026-04-03T16:33:00.053Z</time></trkpt><trkpt lat="42.77334" lon="13.3106367"><ele>613.0</ele><time>2026-04-03T16:33:01.052Z</time></trkpt><trkpt lat="42.7733" lon="13.3105267"><ele>614.0</ele><time>2026-04-03T16:33:02.053Z</time></trkpt><trkpt lat="42.7732683" lon="13.3104217"><ele>615.0</ele><time>2026-04-03T16:33:03.053Z</time></trkpt><trkpt lat="42.77325" lon="13.3103117"><ele>616.0</ele><time>2026-04-03T16:33:04.053Z</time></trkpt><trkpt lat="42.7732367" lon="13.31019"><ele>617.0</ele><time>2026-04-03T16:33:05.053Z</time></trkpt><trkpt lat="42.7732217" lon="13.310075"><ele>618.0</ele><time>2026-04-03T16:33:06.053Z</time></trkpt><trkpt lat="42.7732133" lon="13.3099733"><ele>618.0</ele><time>2026-04-03T16:33:07.053Z</time></trkpt><trkpt lat="42.7732033" lon="13.3098733"><ele>618.0</ele><time>2026-04-03T16:33:08.053Z</time></trkpt><trkpt lat="42.7732" lon="13.3097683"><ele>618.0</ele><time>2026-04-03T16:33:09.053Z</time></trkpt><trkpt lat="42.7731967" lon="13.3096683"><ele>618.0</ele><time>2026-04-03T16:33:10.053Z</time></trkpt><trkpt lat="42.7731967" lon="13.3095767"><ele>618.0</ele><time>2026-04-03T16:33:11.053Z</time></trkpt><trkpt lat="42.7732" lon="13.30949"><ele>618.0</ele><time>2026-04-03T16:33:12.053Z</time></trkpt><trkpt lat="42.7731983" lon="13.3093617"><ele>618.6666666666666</ele><time>2026-04-03T16:33:14.053Z</time></trkpt><trkpt lat="42.773185" lon="13.309275"><ele>619.3333333333334</ele><time>2026-04-03T16:33:16.053Z</time></trkpt><trkpt lat="42.7731283" lon="13.3092167"><ele>620.0</ele><time>2026-04-03T16:33:18.053Z</time></trkpt><trkpt lat="42.773055" lon="13.3092233"><ele>620.6666666666667</ele><time>2026-04-03T16:33:20.053Z</time></trkpt><trkpt lat="42.7730033" lon="13.3093617"><ele>621.3333333333334</ele><time>2026-04-03T16:33:22.052Z</time></trkpt><trkpt lat="42.7729783" lon="13.30948"><ele>622.0</ele><time>2026-04-03T16:33:23.053Z</time></trkpt><trkpt lat="42.77297" lon="13.3096233"><ele>621.2</ele><time>2026-04-03T16:33:24.053Z</time></trkpt><trkpt lat="42.772955" lon="13.3097683"><ele>620.4000000000001</ele><time>2026-04-03T16:33:25.053Z</time></trkpt><trkpt lat="42.7729433" lon="13.30991"><ele>619.5999999999999</ele><time>2026-04-03T16:33:26.053Z</time></trkpt><trkpt lat="42.7729283" lon="13.3100333"><ele>618.8</ele><time>2026-04-03T16:33:27.053Z</time></trkpt><trkpt lat="42.772915" lon="13.3101667"><ele>618.0</ele><time>2026-04-03T16:33:28.053Z</time></trkpt><trkpt lat="42.7728983" lon="13.31031"><ele>618.0</ele><time>2026-04-03T16:33:29.053Z</time></trkpt><trkpt lat="42.7728933" lon="13.3104583"><ele>618.0</ele><time>2026-04-03T16:33:30.053Z</time></trkpt><trkpt lat="42.772885" lon="13.3106"><ele>618.0</ele><time>2026-04-03T16:33:31.053Z</time></trkpt><trkpt lat="42.772885" lon="13.3107367"><ele>618.0</ele><time>2026-04-03T16:33:32.053Z</time></trkpt><trkpt lat="42.7728883" lon="13.310875"><ele>618.0</ele><time>2026-04-03T16:33:33.053Z</time></trkpt><trkpt lat="42.7728883" lon="13.3110183"><ele>616.5</ele><time>2026-04-03T16:33:34.053Z</time></trkpt><trkpt lat="42.7729" lon="13.311145"><ele>615.0</ele><time>2026-04-03T16:33:35.052Z</time></trkpt><trkpt lat="42.772905" lon="13.31128"><ele>613.5</ele><time>2026-04-03T16:33:36.053Z</time></trkpt><trkpt lat="42.772915" lon="13.311415"><ele>612.0</ele><time>2026-04-03T16:33:37.053Z</time></trkpt><trkpt lat="42.77292" lon="13.3117117"><ele>611.8000000000001</ele><time>2026-04-03T16:33:39.053Z</time></trkpt><trkpt lat="42.772925" lon="13.3118383"><ele>611.6</ele><time>2026-04-03T16:33:40.053Z</time></trkpt><trkpt lat="42.7729217" lon="13.3119683"><ele>611.4000000000001</ele><time>2026-04-03T16:33:41.053Z</time></trkpt><trkpt lat="42.77291" lon="13.3121017"><ele>611.2</ele><time>2026-04-03T16:33:42.053Z</time></trkpt><trkpt lat="42.7728833" lon="13.3122367"><ele>611.0</ele><time>2026-04-03T16:33:43.053Z</time></trkpt><trkpt lat="42.7728533" lon="13.3123783"><ele>610.4</ele><time>2026-04-03T16:33:44.053Z</time></trkpt><trkpt lat="42.7728217" lon="13.3125083"><ele>609.8</ele><time>2026-04-03T16:33:45.053Z</time></trkpt><trkpt lat="42.7727783" lon="13.3126433"><ele>609.1999999999999</ele><time>2026-04-03T16:33:46.053Z</time></trkpt><trkpt lat="42.7727317" lon="13.3127867"><ele>608.6</ele><time>2026-04-03T16:33:47.053Z</time></trkpt><trkpt lat="42.7726817" lon="13.3129267"><ele>608.0</ele><time>2026-04-03T16:33:48.052Z</time></trkpt><trkpt lat="42.7725767" lon="13.313215"><ele>608.0</ele><time>2026-04-03T16:33:50.053Z</time></trkpt><trkpt lat="42.7725267" lon="13.3133617"><ele>608.0</ele><time>2026-04-03T16:33:51.053Z</time></trkpt><trkpt lat="42.7724783" lon="13.313515"><ele>608.0</ele><time>2026-04-03T16:33:52.053Z</time></trkpt><trkpt lat="42.7724167" lon="13.3136633"><ele>608.0</ele><time>2026-04-03T16:33:53.052Z</time></trkpt><trkpt lat="42.7723617" lon="13.313805"><ele>605.5</ele><time>2026-04-03T16:33:54.053Z</time></trkpt><trkpt lat="42.7723067" lon="13.313955"><ele>603.0</ele><time>2026-04-03T16:33:55.053Z</time></trkpt><trkpt lat="42.7722433" lon="13.31411"><ele>600.5</ele><time>2026-04-03T16:33:56.053Z</time></trkpt><trkpt lat="42.7721817" lon="13.3142717"><ele>598.0</ele><time>2026-04-03T16:33:57.053Z</time></trkpt><trkpt lat="42.772125" lon="13.3144283"><ele>598.0</ele><time>2026-04-03T16:33:58.053Z</time></trkpt><trkpt lat="42.7720017" lon="13.3147367"><ele>598.0</ele><time>2026-04-03T16:34:00.053Z</time></trkpt><trkpt lat="42.7719317" lon="13.3148883"><ele>598.0</ele><time>2026-04-03T16:34:01.053Z</time></trkpt><trkpt lat="42.7718667" lon="13.3150433"><ele>597.75</ele><time>2026-04-03T16:34:02.053Z</time></trkpt><trkpt lat="42.7718083" lon="13.3151967"><ele>597.5</ele><time>2026-04-03T16:34:03.053Z</time></trkpt><trkpt lat="42.7717633" lon="13.3153467"><ele>597.25</ele><time>2026-04-03T16:34:04.053Z</time></trkpt><trkpt lat="42.7717333" lon="13.3154867"><ele>597.0</ele><time>2026-04-03T16:34:05.053Z</time></trkpt><trkpt lat="42.7717083" lon="13.3156283"><ele>597.0</ele><time>2026-04-03T16:34:06.053Z</time></trkpt><trkpt lat="42.7717" lon="13.3157717"><ele>597.0</ele><time>2026-04-03T16:34:07.053Z</time></trkpt><trkpt lat="42.7717083" lon="13.3159117"><ele>597.0</ele><time>2026-04-03T16:34:08.053Z</time></trkpt><trkpt lat="42.771735" lon="13.3160517"><ele>597.0</ele><time>2026-04-03T16:34:09.053Z</time></trkpt><trkpt lat="42.7717617" lon="13.3162"><ele>597.0</ele><time>2026-04-03T16:34:10.053Z</time></trkpt><trkpt lat="42.77179" lon="13.3163483"><ele>596.4</ele><time>2026-04-03T16:34:11.053Z</time></trkpt><trkpt lat="42.771825" lon="13.31648"><ele>595.8000000000001</ele><time>2026-04-03T16:34:12.053Z</time></trkpt><trkpt lat="42.7718583" lon="13.3166067"><ele>595.2</ele><time>2026-04-03T16:34:13.053Z</time></trkpt><trkpt lat="42.7718783" lon="13.31672"><ele>594.6</ele><time>2026-04-03T16:34:14.053Z</time></trkpt><trkpt lat="42.7718933" lon="13.3168467"><ele>594.0</ele><time>2026-04-03T16:34:15.053Z</time></trkpt><trkpt lat="42.7719" lon="13.3169567"><ele>594.0</ele><time>2026-04-03T16:34:16.053Z</time></trkpt><trkpt lat="42.7719017" lon="13.31707"><ele>594.0</ele><time>2026-04-03T16:34:17.053Z</time></trkpt><trkpt lat="42.7718983" lon="13.3171733"><ele>594.0</ele><time>2026-04-03T16:34:18.053Z</time></trkpt><trkpt lat="42.77188" lon="13.317305"><ele>594.0</ele><time>2026-04-03T16:34:20.053Z</time></trkpt><trkpt lat="42.7718483" lon="13.317395"><ele>594.0</ele><time>2026-04-03T16:34:22.053Z</time></trkpt><trkpt lat="42.771795" lon="13.3175033"><ele>594.0</ele><time>2026-04-03T16:34:24.053Z</time></trkpt><trkpt lat="42.7717383" lon="13.3176467"><ele>593.4285714285714</ele><time>2026-04-03T16:34:26.053Z</time></trkpt><trkpt lat="42.7717083" lon="13.3177317"><ele>592.8571428571429</ele><time>2026-04-03T16:34:27.053Z</time></trkpt><trkpt lat="42.7716767" lon="13.317815"><ele>592.2857142857143</ele><time>2026-04-03T16:34:28.053Z</time></trkpt><trkpt lat="42.771645" lon="13.3178983"><ele>591.7142857142858</ele><time>2026-04-03T16:34:29.053Z</time></trkpt><trkpt lat="42.7716167" lon="13.3179783"><ele>591.1428571428571</ele><time>2026-04-03T16:34:30.053Z</time></trkpt><trkpt lat="42.7715867" lon="13.3180583"><ele>590.5714285714287</ele><time>2026-04-03T16:34:31.053Z</time></trkpt><trkpt lat="42.7715533" lon="13.3181417"><ele>590.0</ele><time>2026-04-03T16:34:32.053Z</time></trkpt><trkpt lat="42.7715133" lon="13.3182183"><ele>591.5</ele><time>2026-04-03T16:34:33.053Z</time></trkpt><trkpt lat="42.7714817" lon="13.3183133"><ele>593.0</ele><time>2026-04-03T16:34:34.053Z</time></trkpt><trkpt lat="42.7714383" lon="13.3183933"><ele>594.5</ele><time>2026-04-03T16:34:35.053Z</time></trkpt><trkpt lat="42.7713883" lon="13.3184867"><ele>596.0</ele><time>2026-04-03T16:34:36.053Z</time></trkpt><trkpt lat="42.7713317" lon="13.3185783"><ele>597.5</ele><time>2026-04-03T16:34:37.053Z</time></trkpt><trkpt lat="42.7712817" lon="13.318685"><ele>599.0</ele><time>2026-04-03T16:34:38.053Z</time></trkpt><trkpt lat="42.7712183" lon="13.3187933"><ele>597.25</ele><time>2026-04-03T16:34:39.053Z</time></trkpt><trkpt lat="42.7711467" lon="13.3189067"><ele>595.5</ele><time>2026-04-03T16:34:40.053Z</time></trkpt><trkpt lat="42.771075" lon="13.3190317"><ele>593.75</ele><time>2026-04-03T16:34:41.053Z</time></trkpt><trkpt lat="42.7709933" lon="13.31916"><ele>592.0</ele><time>2026-04-03T16:34:42.052Z</time></trkpt><trkpt lat="42.7709167" lon="13.31928"><ele>592.0</ele><time>2026-04-03T16:34:43.053Z</time></trkpt><trkpt lat="42.7708433" lon="13.3194083"><ele>592.0</ele><time>2026-04-03T16:34:44.053Z</time></trkpt><trkpt lat="42.7707783" lon="13.3195417"><ele>592.0</ele><time>2026-04-03T16:34:45.053Z</time></trkpt><trkpt lat="42.77072" lon="13.3196867"><ele>592.0</ele><time>2026-04-03T16:34:46.052Z</time></trkpt><trkpt lat="42.7706533" lon="13.3198217"><ele>596.5</ele><time>2026-04-03T16:34:47.053Z</time></trkpt><trkpt lat="42.7705883" lon="13.31997"><ele>601.0</ele><time>2026-04-03T16:34:48.053Z</time></trkpt><trkpt lat="42.7705233" lon="13.3201083"><ele>605.5</ele><time>2026-04-03T16:34:49.053Z</time></trkpt><trkpt lat="42.7704633" lon="13.3202533"><ele>610.0</ele><time>2026-04-03T16:34:50.053Z</time></trkpt><trkpt lat="42.7703983" lon="13.320395"><ele>610.0</ele><time>2026-04-03T16:34:51.053Z</time></trkpt><trkpt lat="42.770335" lon="13.3205433"><ele>610.0</ele><time>2026-04-03T16:34:52.053Z</time></trkpt><trkpt lat="42.77027" lon="13.320685"><ele>610.0</ele><time>2026-04-03T16:34:53.053Z</time></trkpt><trkpt lat="42.7702117" lon="13.3208367"><ele>610.0</ele><time>2026-04-03T16:34:54.053Z</time></trkpt><trkpt lat="42.7701717" lon="13.32101"><ele>606.5</ele><time>2026-04-03T16:34:55.053Z</time></trkpt><trkpt lat="42.770145" lon="13.3211933"><ele>603.0</ele><time>2026-04-03T16:34:56.053Z</time></trkpt><trkpt lat="42.7701083" lon="13.3213833"><ele>599.5</ele><time>2026-04-03T16:34:57.053Z</time></trkpt><trkpt lat="42.7701117" lon="13.3215717"><ele>596.0</ele><time>2026-04-03T16:34:58.053Z</time></trkpt><trkpt lat="42.7700983" lon="13.3217717"><ele>596.0</ele><time>2026-04-03T16:34:59.053Z</time></trkpt><trkpt lat="42.7701167" lon="13.32196"><ele>596.0</ele><time>2026-04-03T16:35:00.053Z</time></trkpt><trkpt lat="42.7701217" lon="13.3221567"><ele>596.0</ele><time>2026-04-03T16:35:01.053Z</time></trkpt><trkpt lat="42.77011" lon="13.3223533"><ele>596.0</ele><time>2026-04-03T16:35:02.053Z</time></trkpt><trkpt lat="42.7701267" lon="13.322535"><ele>593.5</ele><time>2026-04-03T16:35:03.053Z</time></trkpt><trkpt lat="42.7701267" lon="13.3227233"><ele>591.0</ele><time>2026-04-03T16:35:04.053Z</time></trkpt><trkpt lat="42.7701117" lon="13.3229233"><ele>588.5</ele><time>2026-04-03T16:35:05.053Z</time></trkpt><trkpt lat="42.770105" lon="13.3230933"><ele>586.0</ele><time>2026-04-03T16:35:06.053Z</time></trkpt><trkpt lat="42.7700733" lon="13.3232633"><ele>586.0</ele><time>2026-04-03T16:35:07.053Z</time></trkpt><trkpt lat="42.7700317" lon="13.32343"><ele>586.0</ele><time>2026-04-03T16:35:08.053Z</time></trkpt><trkpt lat="42.7699567" lon="13.3235933"><ele>586.0</ele><time>2026-04-03T16:35:09.053Z</time></trkpt><trkpt lat="42.769885" lon="13.323745"><ele>586.0</ele><time>2026-04-03T16:35:10.053Z</time></trkpt><trkpt lat="42.7697983" lon="13.32391"><ele>592.0</ele><time>2026-04-03T16:35:11.053Z</time></trkpt><trkpt lat="42.7696967" lon="13.3240867"><ele>598.0</ele><time>2026-04-03T16:35:12.053Z</time></trkpt><trkpt lat="42.7696083" lon="13.3242617"><ele>604.0</ele><time>2026-04-03T16:35:13.053Z</time></trkpt><trkpt lat="42.769505" lon="13.3244117"><ele>604.0</ele><time>2026-04-03T16:35:14.053Z</time></trkpt><trkpt lat="42.7693967" lon="13.324555"><ele>604.0</ele><time>2026-04-03T16:35:15.053Z</time></trkpt><trkpt lat="42.7692733" lon="13.3247"><ele>604.0</ele><time>2026-04-03T16:35:16.053Z</time></trkpt><trkpt lat="42.7691367" lon="13.32481"><ele>600.0</ele><time>2026-04-03T16:35:17.053Z</time></trkpt><trkpt lat="42.7690117" lon="13.3249217"><ele>596.0</ele><time>2026-04-03T16:35:18.053Z</time></trkpt><trkpt lat="42.768895" lon="13.32501"><ele>592.0</ele><time>2026-04-03T16:35:19.053Z</time></trkpt><trkpt lat="42.7687867" lon="13.3251333"><ele>588.0</ele><time>2026-04-03T16:35:20.053Z</time></trkpt><trkpt lat="42.7687" lon="13.3252583"><ele>588.0</ele><time>2026-04-03T16:35:21.053Z</time></trkpt><trkpt lat="42.76862" lon="13.3254033"><ele>588.0</ele><time>2026-04-03T16:35:22.053Z</time></trkpt><trkpt lat="42.76855" lon="13.325565"><ele>588.0</ele><time>2026-04-03T16:35:23.053Z</time></trkpt><trkpt lat="42.7684667" lon="13.3257367"><ele>588.0</ele><time>2026-04-03T16:35:24.053Z</time></trkpt><trkpt lat="42.7683883" lon="13.3259117"><ele>589.3333333333334</ele><time>2026-04-03T16:35:25.053Z</time></trkpt><trkpt lat="42.768305" lon="13.3261067"><ele>590.6666666666667</ele><time>2026-04-03T16:35:26.052Z</time></trkpt><trkpt lat="42.768205" lon="13.32629"><ele>592.0</ele><time>2026-04-03T16:35:27.053Z</time></trkpt><trkpt lat="42.7680933" lon="13.3264733"><ele>592.0</ele><time>2026-04-03T16:35:28.053Z</time></trkpt><trkpt lat="42.767965" lon="13.3266083"><ele>592.0</ele><time>2026-04-03T16:35:29.053Z</time></trkpt><trkpt lat="42.7677817" lon="13.3266917"><ele>592.0</ele><time>2026-04-03T16:35:30.053Z</time></trkpt><trkpt lat="42.7676467" lon="13.3268283"><ele>583.0</ele><time>2026-04-03T16:35:31.053Z</time></trkpt><trkpt lat="42.76751" lon="13.3269667"><ele>574.0</ele><time>2026-04-03T16:35:32.053Z</time></trkpt><trkpt lat="42.7673817" lon="13.3271133"><ele>565.0</ele><time>2026-04-03T16:35:33.053Z</time></trkpt><trkpt lat="42.76725" lon="13.327245"><ele>565.0</ele><time>2026-04-03T16:35:34.053Z</time></trkpt><trkpt lat="42.7671367" lon="13.3273883"><ele>565.0</ele><time>2026-04-03T16:35:35.053Z</time></trkpt><trkpt lat="42.767025" lon="13.327545"><ele>565.0</ele><time>2026-04-03T16:35:36.053Z</time></trkpt><trkpt lat="42.7669183" lon="13.3277183"><ele>562.0</ele><time>2026-04-03T16:35:37.053Z</time></trkpt><trkpt lat="42.7668217" lon="13.32789"><ele>559.0</ele><time>2026-04-03T16:35:38.053Z</time></trkpt><trkpt lat="42.7667233" lon="13.3280517"><ele>556.0</ele><time>2026-04-03T16:35:39.053Z</time></trkpt><trkpt lat="42.7666367" lon="13.3282217"><ele>554.0</ele><time>2026-04-03T16:35:40.053Z</time></trkpt><trkpt lat="42.76657" lon="13.328395"><ele>552.0</ele><time>2026-04-03T16:35:41.052Z</time></trkpt><trkpt lat="42.7665117" lon="13.3285733"><ele>550.0</ele><time>2026-04-03T16:35:42.053Z</time></trkpt><trkpt lat="42.7664733" lon="13.3287583"><ele>548.0</ele><time>2026-04-03T16:35:43.053Z</time></trkpt><trkpt lat="42.7664567" lon="13.3289683"><ele>548.0</ele><time>2026-04-03T16:35:44.053Z</time></trkpt><trkpt lat="42.766445" lon="13.3291717"><ele>548.0</ele><time>2026-04-03T16:35:45.053Z</time></trkpt><trkpt lat="42.7664333" lon="13.3293683"><ele>548.0</ele><time>2026-04-03T16:35:46.053Z</time></trkpt><trkpt lat="42.766405" lon="13.3295733"><ele>548.0</ele><time>2026-04-03T16:35:47.053Z</time></trkpt><trkpt lat="42.766355" lon="13.3297683"><ele>553.0</ele><time>2026-04-03T16:35:48.053Z</time></trkpt><trkpt lat="42.766275" lon="13.329945"><ele>558.0</ele><time>2026-04-03T16:35:49.053Z</time></trkpt><trkpt lat="42.766165" lon="13.3301083"><ele>563.0</ele><time>2026-04-03T16:35:50.053Z</time></trkpt><trkpt lat="42.7660483" lon="13.3302717"><ele>557.3333333333333</ele><time>2026-04-03T16:35:51.053Z</time></trkpt><trkpt lat="42.7659317" lon="13.3304167"><ele>551.6666666666666</ele><time>2026-04-03T16:35:52.053Z</time></trkpt><trkpt lat="42.7657817" lon="13.3305383"><ele>546.0</ele><time>2026-04-03T16:35:53.053Z</time></trkpt><trkpt lat="42.7656583" lon="13.3306567"><ele>546.0</ele><time>2026-04-03T16:35:54.053Z</time></trkpt><trkpt lat="42.7655417" lon="13.3307667"><ele>546.0</ele><time>2026-04-03T16:35:55.053Z</time></trkpt><trkpt lat="42.7654233" lon="13.330895"><ele>546.0</ele><time>2026-04-03T16:35:56.053Z</time></trkpt><trkpt lat="42.7653117" lon="13.3310217"><ele>546.0</ele><time>2026-04-03T16:35:57.053Z</time></trkpt><trkpt lat="42.765195" lon="13.3311467"><ele>542.25</ele><time>2026-04-03T16:35:58.053Z</time></trkpt><trkpt lat="42.7650817" lon="13.33127"><ele>538.5</ele><time>2026-04-03T16:35:59.053Z</time></trkpt><trkpt lat="42.764955" lon="13.3314"><ele>534.75</ele><time>2026-04-03T16:36:00.053Z</time></trkpt><trkpt lat="42.7648667" lon="13.3315383"><ele>531.0</ele><time>2026-04-03T16:36:01.053Z</time></trkpt><trkpt lat="42.7648" lon="13.3316883"><ele>530.5</ele><time>2026-04-03T16:36:02.053Z</time></trkpt><trkpt lat="42.7647767" lon="13.33186"><ele>530.0</ele><time>2026-04-03T16:36:03.053Z</time></trkpt><trkpt lat="42.7647733" lon="13.3320417"><ele>529.5</ele><time>2026-04-03T16:36:04.053Z</time></trkpt><trkpt lat="42.764805" lon="13.3322417"><ele>529.0</ele><time>2026-04-03T16:36:05.053Z</time></trkpt><trkpt lat="42.7648467" lon="13.332445"><ele>531.6666666666667</ele><time>2026-04-03T16:36:06.053Z</time></trkpt><trkpt lat="42.764885" lon="13.33266"><ele>534.3333333333334</ele><time>2026-04-03T16:36:07.053Z</time></trkpt><trkpt lat="42.764915" lon="13.3328683"><ele>537.0</ele><time>2026-04-03T16:36:08.053Z</time></trkpt><trkpt lat="42.76491" lon="13.3330783"><ele>537.6666666666666</ele><time>2026-04-03T16:36:09.053Z</time></trkpt><trkpt lat="42.76486" lon="13.3332717"><ele>538.3333333333333</ele><time>2026-04-03T16:36:10.053Z</time></trkpt><trkpt lat="42.76483" lon="13.3334867"><ele>539.0</ele><time>2026-04-03T16:36:11.053Z</time></trkpt><trkpt lat="42.764815" lon="13.33371"><ele>537.0</ele><time>2026-04-03T16:36:12.053Z</time></trkpt><trkpt lat="42.764825" lon="13.3339267"><ele>535.0</ele><time>2026-04-03T16:36:13.053Z</time></trkpt><trkpt lat="42.7648517" lon="13.3341467"><ele>533.0</ele><time>2026-04-03T16:36:14.053Z</time></trkpt><trkpt lat="42.764875" lon="13.3343683"><ele>533.0</ele><time>2026-04-03T16:36:15.053Z</time></trkpt><trkpt lat="42.7648967" lon="13.3345983"><ele>533.0</ele><time>2026-04-03T16:36:16.053Z</time></trkpt><trkpt lat="42.76492" lon="13.3348217"><ele>533.0</ele><time>2026-04-03T16:36:17.053Z</time></trkpt><trkpt lat="42.7649417" lon="13.3350633"><ele>531.3333333333333</ele><time>2026-04-03T16:36:18.053Z</time></trkpt><trkpt lat="42.76497" lon="13.335305"><ele>529.6666666666666</ele><time>2026-04-03T16:36:19.053Z</time></trkpt><trkpt lat="42.764995" lon="13.335545"><ele>528.0</ele><time>2026-04-03T16:36:20.053Z</time></trkpt><trkpt lat="42.7650217" lon="13.335775"><ele>524.0</ele><time>2026-04-03T16:36:21.053Z</time></trkpt><trkpt lat="42.76505" lon="13.335995"><ele>520.0</ele><time>2026-04-03T16:36:22.053Z</time></trkpt><trkpt lat="42.765075" lon="13.3362083"><ele>516.0</ele><time>2026-04-03T16:36:23.053Z</time></trkpt><trkpt lat="42.7651" lon="13.336405"><ele>515.0</ele><time>2026-04-03T16:36:24.052Z</time></trkpt><trkpt lat="42.7651167" lon="13.336605"><ele>514.0</ele><time>2026-04-03T16:36:25.053Z</time></trkpt><trkpt lat="42.7651167" lon="13.3367833"><ele>513.0</ele><time>2026-04-03T16:36:26.053Z</time></trkpt><trkpt lat="42.7650967" lon="13.3369517"><ele>512.0</ele><time>2026-04-03T16:36:27.053Z</time></trkpt><trkpt lat="42.7650617" lon="13.3371017"><ele>514.25</ele><time>2026-04-03T16:36:28.053Z</time></trkpt><trkpt lat="42.765" lon="13.3372683"><ele>516.5</ele><time>2026-04-03T16:36:29.053Z</time></trkpt><trkpt lat="42.76493" lon="13.3374417"><ele>518.75</ele><time>2026-04-03T16:36:30.053Z</time></trkpt><trkpt lat="42.76485" lon="13.337605"><ele>521.0</ele><time>2026-04-03T16:36:31.052Z</time></trkpt><trkpt lat="42.7647733" lon="13.3377617"><ele>521.0</ele><time>2026-04-03T16:36:32.053Z</time></trkpt><trkpt lat="42.76469" lon="13.3379383"><ele>521.0</ele><time>2026-04-03T16:36:33.053Z</time></trkpt><trkpt lat="42.764605" lon="13.3381083"><ele>521.0</ele><time>2026-04-03T16:36:34.053Z</time></trkpt><trkpt lat="42.7645267" lon="13.338275"><ele>517.3333333333333</ele><time>2026-04-03T16:36:35.053Z</time></trkpt><trkpt lat="42.76445" lon="13.3384467"><ele>513.6666666666666</ele><time>2026-04-03T16:36:36.053Z</time></trkpt><trkpt lat="42.76437" lon="13.338625"><ele>510.0</ele><time>2026-04-03T16:36:37.053Z</time></trkpt><trkpt lat="42.7642867" lon="13.3388017"><ele>512.25</ele><time>2026-04-03T16:36:38.053Z</time></trkpt><trkpt lat="42.7642083" lon="13.3389867"><ele>514.5</ele><time>2026-04-03T16:36:39.053Z</time></trkpt><trkpt lat="42.7641217" lon="13.3391433"><ele>516.75</ele><time>2026-04-03T16:36:40.053Z</time></trkpt><trkpt lat="42.7640467" lon="13.3392983"><ele>519.0</ele><time>2026-04-03T16:36:41.053Z</time></trkpt><trkpt lat="42.7639667" lon="13.3394417"><ele>519.0</ele><time>2026-04-03T16:36:42.053Z</time></trkpt><trkpt lat="42.7639067" lon="13.3395717"><ele>519.0</ele><time>2026-04-03T16:36:43.052Z</time></trkpt><trkpt lat="42.7638533" lon="13.33972"><ele>519.0</ele><time>2026-04-03T16:36:44.053Z</time></trkpt><trkpt lat="42.7638133" lon="13.339875"><ele>519.0</ele><time>2026-04-03T16:36:45.053Z</time></trkpt><trkpt lat="42.76381" lon="13.3400433"><ele>522.5</ele><time>2026-04-03T16:36:46.053Z</time></trkpt><trkpt lat="42.7637933" lon="13.3402217"><ele>526.0</ele><time>2026-04-03T16:36:47.053Z</time></trkpt><trkpt lat="42.763805" lon="13.3404133"><ele>529.5</ele><time>2026-04-03T16:36:48.053Z</time></trkpt><trkpt lat="42.7638133" lon="13.3405917"><ele>533.0</ele><time>2026-04-03T16:36:49.053Z</time></trkpt><trkpt lat="42.7638467" lon="13.34078"><ele>533.0</ele><time>2026-04-03T16:36:50.053Z</time></trkpt><trkpt lat="42.7638933" lon="13.3409833"><ele>533.0</ele><time>2026-04-03T16:36:51.053Z</time></trkpt><trkpt lat="42.76394" lon="13.3411967"><ele>533.0</ele><time>2026-04-03T16:36:52.053Z</time></trkpt><trkpt lat="42.7639783" lon="13.3414083"><ele>528.3333333333333</ele><time>2026-04-03T16:36:53.053Z</time></trkpt><trkpt lat="42.764015" lon="13.341635"><ele>523.6666666666666</ele><time>2026-04-03T16:36:54.053Z</time></trkpt><trkpt lat="42.764045" lon="13.3418483"><ele>519.0</ele><time>2026-04-03T16:36:55.053Z</time></trkpt><trkpt lat="42.7640717" lon="13.3420667"><ele>517.6666666666666</ele><time>2026-04-03T16:36:56.053Z</time></trkpt><trkpt lat="42.7640933" lon="13.34228"><ele>516.3333333333333</ele><time>2026-04-03T16:36:57.053Z</time></trkpt><trkpt lat="42.7641167" lon="13.3425033"><ele>515.0</ele><time>2026-04-03T16:36:58.053Z</time></trkpt><trkpt lat="42.7641267" lon="13.342725"><ele>515.0</ele><time>2026-04-03T16:36:59.052Z</time></trkpt><trkpt lat="42.76413" lon="13.3429483"><ele>515.0</ele><time>2026-04-03T16:37:00.053Z</time></trkpt><trkpt lat="42.7631483" lon="13.3576317"><ele>506.66666666666663</ele><time>2026-04-03T16:37:55.053Z</time></trkpt><trkpt lat="42.7631233" lon="13.3579"><ele>498.33333333333337</ele><time>2026-04-03T16:37:56.053Z</time></trkpt><trkpt lat="42.7630667" lon="13.35816"><ele>490.0</ele><time>2026-04-03T16:37:57.052Z</time></trkpt><trkpt lat="42.7629767" lon="13.358405"><ele>490.0</ele><time>2026-04-03T16:37:58.053Z</time></trkpt><trkpt lat="42.762905" lon="13.3586317"><ele>490.0</ele><time>2026-04-03T16:37:59.053Z</time></trkpt><trkpt lat="42.7628233" lon="13.358865"><ele>490.0</ele><time>2026-04-03T16:38:00.053Z</time></trkpt><trkpt lat="42.7627583" lon="13.35908"><ele>479.6666666666667</ele><time>2026-04-03T16:38:01.053Z</time></trkpt><trkpt lat="42.7626933" lon="13.3592767"><ele>469.33333333333337</ele><time>2026-04-03T16:38:02.053Z</time></trkpt><trkpt lat="42.7626167" lon="13.35946"><ele>459.0</ele><time>2026-04-03T16:38:03.053Z</time></trkpt><trkpt lat="42.7625217" lon="13.35963"><ele>461.66666666666663</ele><time>2026-04-03T16:38:04.053Z</time></trkpt><trkpt lat="42.7624033" lon="13.359785"><ele>464.3333333333333</ele><time>2026-04-03T16:38:05.053Z</time></trkpt><trkpt lat="42.7622867" lon="13.359945"><ele>467.0</ele><time>2026-04-03T16:38:06.053Z</time></trkpt><trkpt lat="42.7621683" lon="13.3601"><ele>467.0</ele><time>2026-04-03T16:38:07.053Z</time></trkpt><trkpt lat="42.7620483" lon="13.3602733"><ele>467.0</ele><time>2026-04-03T16:38:08.053Z</time></trkpt><trkpt lat="42.7619467" lon="13.3604417"><ele>467.0</ele><time>2026-04-03T16:38:09.053Z</time></trkpt><trkpt lat="42.7618817" lon="13.360645"><ele>465.5</ele><time>2026-04-03T16:38:10.052Z</time></trkpt><trkpt lat="42.76182" lon="13.3608467"><ele>464.0</ele><time>2026-04-03T16:38:11.053Z</time></trkpt><trkpt lat="42.7617933" lon="13.3610233"><ele>462.5</ele><time>2026-04-03T16:38:12.053Z</time></trkpt><trkpt lat="42.7617767" lon="13.361205"><ele>461.0</ele><time>2026-04-03T16:38:13.053Z</time></trkpt><trkpt lat="42.7618383" lon="13.3613767"><ele>466.3333333333333</ele><time>2026-04-03T16:38:14.053Z</time></trkpt><trkpt lat="42.76191" lon="13.3615617"><ele>471.66666666666663</ele><time>2026-04-03T16:38:15.053Z</time></trkpt><trkpt lat="42.76199" lon="13.3617433"><ele>477.0</ele><time>2026-04-03T16:38:16.053Z</time></trkpt><trkpt lat="42.7620667" lon="13.3619433"><ele>477.0</ele><time>2026-04-03T16:38:17.053Z</time></trkpt><trkpt lat="42.762145" lon="13.3621683"><ele>477.0</ele><time>2026-04-03T16:38:18.053Z</time></trkpt><trkpt lat="42.7622217" lon="13.36239"><ele>477.0</ele><time>2026-04-03T16:38:19.053Z</time></trkpt><trkpt lat="42.7622733" lon="13.3626133"><ele>477.0</ele><time>2026-04-03T16:38:20.053Z</time></trkpt><trkpt lat="42.7623183" lon="13.36284"><ele>477.0</ele><time>2026-04-03T16:38:21.053Z</time></trkpt><trkpt lat="42.762345" lon="13.363065"><ele>477.0</ele><time>2026-04-03T16:38:22.053Z</time></trkpt><trkpt lat="42.7623617" lon="13.3633017"><ele>477.0</ele><time>2026-04-03T16:38:23.052Z</time></trkpt><trkpt lat="42.76239" lon="13.3635483"><ele>477.0</ele><time>2026-04-03T16:38:24.053Z</time></trkpt><trkpt lat="42.76237" lon="13.3637633"><ele>477.0</ele><time>2026-04-03T16:38:25.053Z</time></trkpt><trkpt lat="42.7623183" lon="13.3639467"><ele>476.66666666666663</ele><time>2026-04-03T16:38:26.053Z</time></trkpt><trkpt lat="42.7622233" lon="13.3641183"><ele>476.3333333333333</ele><time>2026-04-03T16:38:27.053Z</time></trkpt><trkpt lat="42.7620767" lon="13.36426"><ele>476.0</ele><time>2026-04-03T16:38:28.053Z</time></trkpt><trkpt lat="42.7619717" lon="13.3644183"><ele>476.0</ele><time>2026-04-03T16:38:29.053Z</time></trkpt><trkpt lat="42.761895" lon="13.3645867"><ele>476.0</ele><time>2026-04-03T16:38:30.053Z</time></trkpt><trkpt lat="42.76184" lon="13.3647583"><ele>476.0</ele><time>2026-04-03T16:38:31.052Z</time></trkpt><trkpt lat="42.7618333" lon="13.3649467"><ele>476.0</ele><time>2026-04-03T16:38:32.053Z</time></trkpt><trkpt lat="42.7618217" lon="13.36512"><ele>471.0</ele><time>2026-04-03T16:38:33.053Z</time></trkpt><trkpt lat="42.76182" lon="13.3652917"><ele>466.0</ele><time>2026-04-03T16:38:34.053Z</time></trkpt><trkpt lat="42.7618217" lon="13.3654467"><ele>461.0</ele><time>2026-04-03T16:38:35.053Z</time></trkpt><trkpt lat="42.761825" lon="13.3655983"><ele>456.0</ele><time>2026-04-03T16:38:36.053Z</time></trkpt><trkpt lat="42.761855" lon="13.365735"><ele>462.0</ele><time>2026-04-03T16:38:37.053Z</time></trkpt><trkpt lat="42.7618733" lon="13.3658667"><ele>468.0</ele><time>2026-04-03T16:38:38.053Z</time></trkpt><trkpt lat="42.7618833" lon="13.3659667"><ele>474.0</ele><time>2026-04-03T16:38:39.053Z</time></trkpt><trkpt lat="42.7618933" lon="13.3660533"><ele>480.0</ele><time>2026-04-03T16:38:40.053Z</time></trkpt><trkpt lat="42.7619033" lon="13.3662067"><ele>486.0</ele><time>2026-04-03T16:38:42.053Z</time></trkpt><trkpt lat="42.7618983" lon="13.3663533"><ele>483.8</ele><time>2026-04-03T16:38:44.052Z</time></trkpt><trkpt lat="42.7618867" lon="13.3665067"><ele>481.6</ele><time>2026-04-03T16:38:46.053Z</time></trkpt><trkpt lat="42.76188" lon="13.3666783"><ele>479.4</ele><time>2026-04-03T16:38:48.053Z</time></trkpt><trkpt lat="42.7618817" lon="13.36678"><ele>477.2</ele><time>2026-04-03T16:38:49.053Z</time></trkpt><trkpt lat="42.7618867" lon="13.3668917"><ele>475.0</ele><time>2026-04-03T16:38:50.053Z</time></trkpt><trkpt lat="42.7618817" lon="13.3670133"><ele>473.0</ele><time>2026-04-03T16:38:51.053Z</time></trkpt><trkpt lat="42.761865" lon="13.3671383"><ele>471.0</ele><time>2026-04-03T16:38:52.053Z</time></trkpt><trkpt lat="42.76184" lon="13.3672783"><ele>469.0</ele><time>2026-04-03T16:38:53.053Z</time></trkpt><trkpt lat="42.7618067" lon="13.36742"><ele>467.0</ele><time>2026-04-03T16:38:54.052Z</time></trkpt><trkpt lat="42.7617583" lon="13.3675483"><ele>465.0</ele><time>2026-04-03T16:38:55.053Z</time></trkpt><trkpt lat="42.761695" lon="13.36767"><ele>465.0</ele><time>2026-04-03T16:38:56.053Z</time></trkpt><trkpt lat="42.7616117" lon="13.367785"><ele>465.0</ele><time>2026-04-03T16:38:57.053Z</time></trkpt><trkpt lat="42.76153" lon="13.3679133"><ele>465.0</ele><time>2026-04-03T16:38:58.053Z</time></trkpt><trkpt lat="42.761455" lon="13.3680233"><ele>465.0</ele><time>2026-04-03T16:38:59.053Z</time></trkpt><trkpt lat="42.761385" lon="13.368145"><ele>469.0</ele><time>2026-04-03T16:39:00.053Z</time></trkpt><trkpt lat="42.761315" lon="13.36826"><ele>473.0</ele><time>2026-04-03T16:39:01.053Z</time></trkpt><trkpt lat="42.761245" lon="13.3683683"><ele>477.0</ele><time>2026-04-03T16:39:02.053Z</time></trkpt><trkpt lat="42.7612017" lon="13.3685083"><ele>481.0</ele><time>2026-04-03T16:39:03.053Z</time></trkpt><trkpt lat="42.761165" lon="13.3686467"><ele>485.0</ele><time>2026-04-03T16:39:04.053Z</time></trkpt><trkpt lat="42.761125" lon="13.368785"><ele>485.0</ele><time>2026-04-03T16:39:05.053Z</time></trkpt><trkpt lat="42.7611083" lon="13.3689417"><ele>485.0</ele><time>2026-04-03T16:39:06.052Z</time></trkpt><trkpt lat="42.7611067" lon="13.3691233"><ele>485.0</ele><time>2026-04-03T16:39:07.053Z</time></trkpt><trkpt lat="42.76111" lon="13.3693017"><ele>485.0</ele><time>2026-04-03T16:39:08.053Z</time></trkpt><trkpt lat="42.7611083" lon="13.3694767"><ele>485.0</ele><time>2026-04-03T16:39:09.053Z</time></trkpt><trkpt lat="42.761105" lon="13.3696367"><ele>485.0</ele><time>2026-04-03T16:39:10.053Z</time></trkpt><trkpt lat="42.7611" lon="13.3697883"><ele>485.0</ele><time>2026-04-03T16:39:11.053Z</time></trkpt><trkpt lat="42.7610833" lon="13.369935"><ele>485.0</ele><time>2026-04-03T16:39:12.053Z</time></trkpt><trkpt lat="42.7610683" lon="13.37007"><ele>485.0</ele><time>2026-04-03T16:39:13.053Z</time></trkpt><trkpt lat="42.7610583" lon="13.3701833"><ele>481.8333333333333</ele><time>2026-04-03T16:39:14.052Z</time></trkpt><trkpt lat="42.761035" lon="13.37029"><ele>478.66666666666663</ele><time>2026-04-03T16:39:15.053Z</time></trkpt><trkpt lat="42.7610667" lon="13.3704"><ele>475.5</ele><time>2026-04-03T16:39:16.053Z</time></trkpt><trkpt lat="42.7610983" lon="13.3704767"><ele>472.33333333333337</ele><time>2026-04-03T16:39:17.053Z</time></trkpt><trkpt lat="42.7611967" lon="13.370565"><ele>469.1666666666667</ele><time>2026-04-03T16:39:19.053Z</time></trkpt><trkpt lat="42.76128" lon="13.370555"><ele>466.0</ele><time>2026-04-03T16:39:20.053Z</time></trkpt><trkpt lat="42.7614117" lon="13.370505"><ele>466.0</ele><time>2026-04-03T16:39:21.053Z</time></trkpt><trkpt lat="42.7615717" lon="13.37044"><ele>466.0</ele><time>2026-04-03T16:39:22.053Z</time></trkpt><trkpt lat="42.7617367" lon="13.3703683"><ele>466.0</ele><time>2026-04-03T16:39:23.053Z</time></trkpt><trkpt lat="42.761895" lon="13.37031"><ele>464.5</ele><time>2026-04-03T16:39:24.053Z</time></trkpt><trkpt lat="42.7622083" lon="13.3702267"><ele>463.0</ele><time>2026-04-03T16:39:26.052Z</time></trkpt><trkpt lat="42.7623567" lon="13.3701867"><ele>463.0</ele><time>2026-04-03T16:39:27.053Z</time></trkpt><trkpt lat="42.762485" lon="13.37016"><ele>463.0</ele><time>2026-04-03T16:39:28.053Z</time></trkpt><trkpt lat="42.7626183" lon="13.3701517"><ele>463.0</ele><time>2026-04-03T16:39:29.053Z</time></trkpt><trkpt lat="42.762735" lon="13.3701567"><ele>463.0</ele><time>2026-04-03T16:39:30.053Z</time></trkpt><trkpt lat="42.7628583" lon="13.3701917"><ele>463.5</ele><time>2026-04-03T16:39:31.053Z</time></trkpt><trkpt lat="42.7629567" lon="13.37029"><ele>464.0</ele><time>2026-04-03T16:39:32.053Z</time></trkpt><trkpt lat="42.7630417" lon="13.3704183"><ele>464.5</ele><time>2026-04-03T16:39:33.053Z</time></trkpt><trkpt lat="42.7631067" lon="13.37055"><ele>465.0</ele><time>2026-04-03T16:39:34.053Z</time></trkpt><trkpt lat="42.7631583" lon="13.3707017"><ele>465.0</ele><time>2026-04-03T16:39:35.053Z</time></trkpt><trkpt lat="42.763205" lon="13.370855"><ele>465.0</ele><time>2026-04-03T16:39:36.053Z</time></trkpt><trkpt lat="42.76323" lon="13.3710433"><ele>465.0</ele><time>2026-04-03T16:39:37.053Z</time></trkpt><trkpt lat="42.7632517" lon="13.37125"><ele>465.0</ele><time>2026-04-03T16:39:38.053Z</time></trkpt><trkpt lat="42.7632567" lon="13.37146"><ele>463.25</ele><time>2026-04-03T16:39:39.053Z</time></trkpt><trkpt lat="42.7632517" lon="13.3716583"><ele>461.5</ele><time>2026-04-03T16:39:40.053Z</time></trkpt><trkpt lat="42.7632383" lon="13.3718367"><ele>459.75</ele><time>2026-04-03T16:39:41.053Z</time></trkpt><trkpt lat="42.76322" lon="13.372"><ele>458.0</ele><time>2026-04-03T16:39:42.053Z</time></trkpt><trkpt lat="42.763185" lon="13.3721667"><ele>458.25</ele><time>2026-04-03T16:39:43.053Z</time></trkpt><trkpt lat="42.76311" lon="13.3723067"><ele>458.5</ele><time>2026-04-03T16:39:44.053Z</time></trkpt><trkpt lat="42.763035" lon="13.372435"><ele>458.75</ele><time>2026-04-03T16:39:45.053Z</time></trkpt><trkpt lat="42.7629517" lon="13.3725833"><ele>459.0</ele><time>2026-04-03T16:39:46.053Z</time></trkpt><trkpt lat="42.762875" lon="13.37273"><ele>459.0</ele><time>2026-04-03T16:39:47.053Z</time></trkpt><trkpt lat="42.7628033" lon="13.37288"><ele>459.0</ele><time>2026-04-03T16:39:48.053Z</time></trkpt><trkpt lat="42.7627433" lon="13.3730183"><ele>459.0</ele><time>2026-04-03T16:39:49.053Z</time></trkpt><trkpt lat="42.762685" lon="13.373155"><ele>459.0</ele><time>2026-04-03T16:39:50.053Z</time></trkpt><trkpt lat="42.7626067" lon="13.373275"><ele>455.5</ele><time>2026-04-03T16:39:51.053Z</time></trkpt><trkpt lat="42.762525" lon="13.3733733"><ele>452.0</ele><time>2026-04-03T16:39:52.053Z</time></trkpt><trkpt lat="42.762445" lon="13.3734767"><ele>448.5</ele><time>2026-04-03T16:39:53.053Z</time></trkpt><trkpt lat="42.76237" lon="13.3735933"><ele>445.0</ele><time>2026-04-03T16:39:54.053Z</time></trkpt><trkpt lat="42.762305" lon="13.373725"><ele>447.25</ele><time>2026-04-03T16:39:55.053Z</time></trkpt><trkpt lat="42.7622467" lon="13.373885"><ele>449.5</ele><time>2026-04-03T16:39:56.053Z</time></trkpt><trkpt lat="42.76221" lon="13.3740517"><ele>451.75</ele><time>2026-04-03T16:39:57.053Z</time></trkpt><trkpt lat="42.7621883" lon="13.3742217"><ele>454.0</ele><time>2026-04-03T16:39:58.053Z</time></trkpt><trkpt lat="42.7621883" lon="13.3744083"><ele>454.0</ele><time>2026-04-03T16:39:59.053Z</time></trkpt><trkpt lat="42.7622017" lon="13.3746033"><ele>454.0</ele><time>2026-04-03T16:40:00.053Z</time></trkpt><trkpt lat="42.7622267" lon="13.3748033"><ele>454.0</ele><time>2026-04-03T16:40:01.053Z</time></trkpt><trkpt lat="42.76228" lon="13.37502"><ele>454.0</ele><time>2026-04-03T16:40:02.053Z</time></trkpt><trkpt lat="42.7623333" lon="13.3752183"><ele>454.0</ele><time>2026-04-03T16:40:03.053Z</time></trkpt><trkpt lat="42.7623883" lon="13.3754117"><ele>454.0</ele><time>2026-04-03T16:40:04.053Z</time></trkpt><trkpt lat="42.7624433" lon="13.3756033"><ele>449.33333333333337</ele><time>2026-04-03T16:40:05.053Z</time></trkpt><trkpt lat="42.762495" lon="13.375785"><ele>444.66666666666663</ele><time>2026-04-03T16:40:06.053Z</time></trkpt><trkpt lat="42.7625633" lon="13.3759817"><ele>440.0</ele><time>2026-04-03T16:40:07.053Z</time></trkpt><trkpt lat="42.7626317" lon="13.3761667"><ele>440.0</ele><time>2026-04-03T16:40:08.053Z</time></trkpt><trkpt lat="42.762695" lon="13.3763383"><ele>440.0</ele><time>2026-04-03T16:40:09.053Z</time></trkpt><trkpt lat="42.76277" lon="13.3765167"><ele>440.0</ele><time>2026-04-03T16:40:10.053Z</time></trkpt><trkpt lat="42.7628183" lon="13.376685"><ele>440.0</ele><time>2026-04-03T16:40:11.053Z</time></trkpt><trkpt lat="42.7628567" lon="13.3768433"><ele>445.0</ele><time>2026-04-03T16:40:12.053Z</time></trkpt><trkpt lat="42.7628767" lon="13.377"><ele>450.0</ele><time>2026-04-03T16:40:13.053Z</time></trkpt><trkpt lat="42.762885" lon="13.3771617"><ele>455.0</ele><time>2026-04-03T16:40:14.053Z</time></trkpt><trkpt lat="42.7628767" lon="13.3773283"><ele>460.0</ele><time>2026-04-03T16:40:15.053Z</time></trkpt><trkpt lat="42.7628567" lon="13.377495"><ele>461.75</ele><time>2026-04-03T16:40:16.053Z</time></trkpt><trkpt lat="42.7628083" lon="13.3776567"><ele>463.5</ele><time>2026-04-03T16:40:17.053Z</time></trkpt><trkpt lat="42.7627517" lon="13.3778033"><ele>465.25</ele><time>2026-04-03T16:40:18.053Z</time></trkpt><trkpt lat="42.7626783" lon="13.3779183"><ele>467.0</ele><time>2026-04-03T16:40:19.053Z</time></trkpt><trkpt lat="42.762605" lon="13.3780283"><ele>460.8</ele><time>2026-04-03T16:40:20.053Z</time></trkpt><trkpt lat="42.7625233" lon="13.378115"><ele>454.6</ele><time>2026-04-03T16:40:21.053Z</time></trkpt><trkpt lat="42.7624333" lon="13.3781783"><ele>448.40000000000003</ele><time>2026-04-03T16:40:22.053Z</time></trkpt><trkpt lat="42.7623417" lon="13.378225"><ele>442.20000000000005</ele><time>2026-04-03T16:40:23.053Z</time></trkpt><trkpt lat="42.7622467" lon="13.3782567"><ele>436.0</ele><time>2026-04-03T16:40:24.053Z</time></trkpt><trkpt lat="42.7621667" lon="13.3782767"><ele>436.0</ele><time>2026-04-03T16:40:25.053Z</time></trkpt><trkpt lat="42.7620767" lon="13.37827"><ele>436.0</ele><time>2026-04-03T16:40:26.053Z</time></trkpt><trkpt lat="42.7619833" lon="13.3782483"><ele>436.0</ele><time>2026-04-03T16:40:27.053Z</time></trkpt><trkpt lat="42.7618883" lon="13.3782283"><ele>436.0</ele><time>2026-04-03T16:40:28.053Z</time></trkpt><trkpt lat="42.76179" lon="13.3782117"><ele>436.0</ele><time>2026-04-03T16:40:29.053Z</time></trkpt><trkpt lat="42.7616883" lon="13.37821"><ele>435.83333333333337</ele><time>2026-04-03T16:40:30.053Z</time></trkpt><trkpt lat="42.7615933" lon="13.3782283"><ele>435.6666666666667</ele><time>2026-04-03T16:40:31.053Z</time></trkpt><trkpt lat="42.76152" lon="13.3782633"><ele>435.5</ele><time>2026-04-03T16:40:32.053Z</time></trkpt><trkpt lat="42.7614633" lon="13.3783267"><ele>435.33333333333337</ele><time>2026-04-03T16:40:33.053Z</time></trkpt><trkpt lat="42.7614333" lon="13.37842"><ele>435.1666666666667</ele><time>2026-04-03T16:40:34.053Z</time></trkpt><trkpt lat="42.76142" lon="13.378515"><ele>435.0</ele><time>2026-04-03T16:40:35.053Z</time></trkpt><trkpt lat="42.76143" lon="13.378625"><ele>435.0</ele><time>2026-04-03T16:40:36.053Z</time></trkpt><trkpt lat="42.7614517" lon="13.3787367"><ele>435.0</ele><time>2026-04-03T16:40:37.052Z</time></trkpt><trkpt lat="42.7614983" lon="13.3788517"><ele>435.0</ele><time>2026-04-03T16:40:38.053Z</time></trkpt><trkpt lat="42.7615717" lon="13.379"><ele>435.0</ele><time>2026-04-03T16:40:39.053Z</time></trkpt><trkpt lat="42.761665" lon="13.3791583"><ele>435.66666666666663</ele><time>2026-04-03T16:40:40.053Z</time></trkpt><trkpt lat="42.7617733" lon="13.37932"><ele>436.3333333333333</ele><time>2026-04-03T16:40:41.053Z</time></trkpt><trkpt lat="42.7618817" lon="13.3794983"><ele>437.0</ele><time>2026-04-03T16:40:42.053Z</time></trkpt><trkpt lat="42.762015" lon="13.3797717"><ele>439.0</ele><time>2026-04-03T16:40:43.053Z</time></trkpt><trkpt lat="42.7620833" lon="13.3799617"><ele>441.0</ele><time>2026-04-03T16:40:44.053Z</time></trkpt><trkpt lat="42.7621333" lon="13.380165"><ele>443.0</ele><time>2026-04-03T16:40:45.053Z</time></trkpt><trkpt lat="42.7621717" lon="13.3803617"><ele>441.25</ele><time>2026-04-03T16:40:46.053Z</time></trkpt><trkpt lat="42.762195" lon="13.3805617"><ele>439.5</ele><time>2026-04-03T16:40:47.053Z</time></trkpt><trkpt lat="42.762205" lon="13.38076"><ele>437.75</ele><time>2026-04-03T16:40:48.053Z</time></trkpt><trkpt lat="42.762205" lon="13.3809583"><ele>436.0</ele><time>2026-04-03T16:40:49.053Z</time></trkpt><trkpt lat="42.7621933" lon="13.3811567"><ele>436.0</ele><time>2026-04-03T16:40:50.053Z</time></trkpt><trkpt lat="42.7621683" lon="13.3813467"><ele>436.0</ele><time>2026-04-03T16:40:51.053Z</time></trkpt><trkpt lat="42.762135" lon="13.3815417"><ele>436.0</ele><time>2026-04-03T16:40:52.053Z</time></trkpt><trkpt lat="42.7621033" lon="13.38172"><ele>436.0</ele><time>2026-04-03T16:40:53.053Z</time></trkpt><trkpt lat="42.76205" lon="13.3818567"><ele>434.6666666666667</ele><time>2026-04-03T16:40:54.053Z</time></trkpt><trkpt lat="42.7620217" lon="13.3819917"><ele>433.33333333333337</ele><time>2026-04-03T16:40:55.053Z</time></trkpt><trkpt lat="42.76203" lon="13.3821167"><ele>432.0</ele><time>2026-04-03T16:40:56.053Z</time></trkpt><trkpt lat="42.7620517" lon="13.3822167"><ele>430.66666666666663</ele><time>2026-04-03T16:40:57.053Z</time></trkpt><trkpt lat="42.7620933" lon="13.3823083"><ele>429.3333333333333</ele><time>2026-04-03T16:40:58.053Z</time></trkpt><trkpt lat="42.7621533" lon="13.3823833"><ele>428.0</ele><time>2026-04-03T16:40:59.053Z</time></trkpt><trkpt lat="42.7622367" lon="13.3824317"><ele>424.25</ele><time>2026-04-03T16:41:00.053Z</time></trkpt><trkpt lat="42.7623217" lon="13.382415"><ele>420.5</ele><time>2026-04-03T16:41:01.053Z</time></trkpt><trkpt lat="42.7624333" lon="13.3823617"><ele>416.75</ele><time>2026-04-03T16:41:02.053Z</time></trkpt><trkpt lat="42.7625617" lon="13.382255"><ele>413.0</ele><time>2026-04-03T16:41:03.053Z</time></trkpt><trkpt lat="42.762705" lon="13.3821233"><ele>425.0</ele><time>2026-04-03T16:41:04.053Z</time></trkpt><trkpt lat="42.76285" lon="13.3820367"><ele>437.0</ele><time>2026-04-03T16:41:05.053Z</time></trkpt><trkpt lat="42.7629717" lon="13.3820117"><ele>449.0</ele><time>2026-04-03T16:41:06.053Z</time></trkpt><trkpt lat="42.7631067" lon="13.382025"><ele>461.0</ele><time>2026-04-03T16:41:07.053Z</time></trkpt><trkpt lat="42.76322" lon="13.3820683"><ele>461.0</ele><time>2026-04-03T16:41:08.053Z</time></trkpt><trkpt lat="42.763315" lon="13.38214"><ele>461.0</ele><time>2026-04-03T16:41:09.053Z</time></trkpt><trkpt lat="42.7633983" lon="13.38224"><ele>461.0</ele><time>2026-04-03T16:41:10.053Z</time></trkpt><trkpt lat="42.7634567" lon="13.3823667"><ele>461.0</ele><time>2026-04-03T16:41:11.053Z</time></trkpt><trkpt lat="42.7635117" lon="13.3825233"><ele>456.5</ele><time>2026-04-03T16:41:12.053Z</time></trkpt><trkpt lat="42.7635617" lon="13.3826833"><ele>452.0</ele><time>2026-04-03T16:41:13.053Z</time></trkpt><trkpt lat="42.76361" lon="13.3828467"><ele>447.5</ele><time>2026-04-03T16:41:14.052Z</time></trkpt><trkpt lat="42.7636617" lon="13.38301"><ele>443.0</ele><time>2026-04-03T16:41:15.053Z</time></trkpt><trkpt lat="42.7637083" lon="13.3831683"><ele>436.5</ele><time>2026-04-03T16:41:16.053Z</time></trkpt><trkpt lat="42.7637517" lon="13.3833233"><ele>430.0</ele><time>2026-04-03T16:41:17.053Z</time></trkpt><trkpt lat="42.763785" lon="13.3834833"><ele>423.5</ele><time>2026-04-03T16:41:18.053Z</time></trkpt><trkpt lat="42.7638167" lon="13.38365"><ele>417.0</ele><time>2026-04-03T16:41:19.052Z</time></trkpt><trkpt lat="42.7638283" lon="13.383815"><ele>416.5</ele><time>2026-04-03T16:41:20.053Z</time></trkpt><trkpt lat="42.7638267" lon="13.38399"><ele>416.0</ele><time>2026-04-03T16:41:21.053Z</time></trkpt><trkpt lat="42.7638117" lon="13.3841667"><ele>415.5</ele><time>2026-04-03T16:41:22.053Z</time></trkpt><trkpt lat="42.763795" lon="13.3843433"><ele>415.0</ele><time>2026-04-03T16:41:23.053Z</time></trkpt><trkpt lat="42.763765" lon="13.38452"><ele>420.75</ele><time>2026-04-03T16:41:24.053Z</time></trkpt><trkpt lat="42.763725" lon="13.3846883"><ele>426.5</ele><time>2026-04-03T16:41:25.052Z</time></trkpt><trkpt lat="42.7636717" lon="13.3848633"><ele>432.25</ele><time>2026-04-03T16:41:26.053Z</time></trkpt><trkpt lat="42.7636117" lon="13.3850367"><ele>438.0</ele><time>2026-04-03T16:41:27.053Z</time></trkpt><trkpt lat="42.763535" lon="13.3852133"><ele>429.33333333333337</ele><time>2026-04-03T16:41:28.053Z</time></trkpt><trkpt lat="42.7634583" lon="13.385395"><ele>420.6666666666667</ele><time>2026-04-03T16:41:29.053Z</time></trkpt><trkpt lat="42.76338" lon="13.385575"><ele>412.0</ele><time>2026-04-03T16:41:30.053Z</time></trkpt><trkpt lat="42.76332" lon="13.3857617"><ele>412.0</ele><time>2026-04-03T16:41:31.053Z</time></trkpt><trkpt lat="42.76327" lon="13.3859533"><ele>412.0</ele><time>2026-04-03T16:41:32.053Z</time></trkpt><trkpt lat="42.7632433" lon="13.3861567"><ele>412.0</ele><time>2026-04-03T16:41:33.053Z</time></trkpt><trkpt lat="42.76322" lon="13.3863767"><ele>414.0</ele><time>2026-04-03T16:41:34.053Z</time></trkpt><trkpt lat="42.7632117" lon="13.3866"><ele>416.0</ele><time>2026-04-03T16:41:35.053Z</time></trkpt><trkpt lat="42.7632133" lon="13.3868117"><ele>418.0</ele><time>2026-04-03T16:41:36.052Z</time></trkpt><trkpt lat="42.763195" lon="13.3869967"><ele>417.0</ele><time>2026-04-03T16:41:37.053Z</time></trkpt><trkpt lat="42.763185" lon="13.3871933"><ele>416.0</ele><time>2026-04-03T16:41:38.053Z</time></trkpt><trkpt lat="42.7631833" lon="13.3873583"><ele>415.0</ele><time>2026-04-03T16:41:39.053Z</time></trkpt><trkpt lat="42.7631667" lon="13.3875217"><ele>414.0</ele><time>2026-04-03T16:41:40.053Z</time></trkpt><trkpt lat="42.7631517" lon="13.387675"><ele>414.0</ele><time>2026-04-03T16:41:41.053Z</time></trkpt><trkpt lat="42.76313" lon="13.3878283"><ele>414.0</ele><time>2026-04-03T16:41:42.052Z</time></trkpt><trkpt lat="42.76315" lon="13.387975"><ele>414.0</ele><time>2026-04-03T16:41:43.053Z</time></trkpt><trkpt lat="42.7631867" lon="13.3881417"><ele>414.0</ele><time>2026-04-03T16:41:44.053Z</time></trkpt><trkpt lat="42.7632083" lon="13.3883083"><ele>413.25</ele><time>2026-04-03T16:41:45.053Z</time></trkpt><trkpt lat="42.7632333" lon="13.38847"><ele>412.5</ele><time>2026-04-03T16:41:46.053Z</time></trkpt><trkpt lat="42.763255" lon="13.38863"><ele>411.75</ele><time>2026-04-03T16:41:47.053Z</time></trkpt><trkpt lat="42.7632783" lon="13.3887917"><ele>411.0</ele><time>2026-04-03T16:41:48.053Z</time></trkpt><trkpt lat="42.763295" lon="13.388955"><ele>412.75</ele><time>2026-04-03T16:41:49.053Z</time></trkpt><trkpt lat="42.76331" lon="13.3891167"><ele>414.5</ele><time>2026-04-03T16:41:50.053Z</time></trkpt><trkpt lat="42.76332" lon="13.38928"><ele>416.25</ele><time>2026-04-03T16:41:51.053Z</time></trkpt><trkpt lat="42.7632883" lon="13.3894317"><ele>418.0</ele><time>2026-04-03T16:41:52.053Z</time></trkpt><trkpt lat="42.7632917" lon="13.3895883"><ele>420.5</ele><time>2026-04-03T16:41:53.053Z</time></trkpt><trkpt lat="42.7633183" lon="13.3897683"><ele>423.0</ele><time>2026-04-03T16:41:54.053Z</time></trkpt><trkpt lat="42.7633367" lon="13.38995"><ele>425.5</ele><time>2026-04-03T16:41:55.053Z</time></trkpt><trkpt lat="42.7633483" lon="13.3901417"><ele>428.0</ele><time>2026-04-03T16:41:56.053Z</time></trkpt><trkpt lat="42.7633567" lon="13.3903267"><ele>428.0</ele><time>2026-04-03T16:41:57.053Z</time></trkpt><trkpt lat="42.7633483" lon="13.3905"><ele>428.0</ele><time>2026-04-03T16:41:58.053Z</time></trkpt><trkpt lat="42.7633267" lon="13.3906667"><ele>428.0</ele><time>2026-04-03T16:41:59.053Z</time></trkpt><trkpt lat="42.76331" lon="13.3908333"><ele>428.0</ele><time>2026-04-03T16:42:00.053Z</time></trkpt><trkpt lat="42.763305" lon="13.391005"><ele>429.75</ele><time>2026-04-03T16:42:01.053Z</time></trkpt><trkpt lat="42.763325" lon="13.391205"><ele>431.5</ele><time>2026-04-03T16:42:02.053Z</time></trkpt><trkpt lat="42.763355" lon="13.391375"><ele>433.25</ele><time>2026-04-03T16:42:03.052Z</time></trkpt><trkpt lat="42.76341" lon="13.3915383"><ele>435.0</ele><time>2026-04-03T16:42:04.053Z</time></trkpt><trkpt lat="42.7634733" lon="13.39171"><ele>435.5</ele><time>2026-04-03T16:42:05.053Z</time></trkpt><trkpt lat="42.7635017" lon="13.391885"><ele>436.0</ele><time>2026-04-03T16:42:06.053Z</time></trkpt><trkpt lat="42.7635017" lon="13.3920733"><ele>436.5</ele><time>2026-04-03T16:42:07.053Z</time></trkpt><trkpt lat="42.7634783" lon="13.3922667"><ele>437.0</ele><time>2026-04-03T16:42:08.052Z</time></trkpt><trkpt lat="42.7634417" lon="13.39245"><ele>435.25</ele><time>2026-04-03T16:42:09.053Z</time></trkpt><trkpt lat="42.76341" lon="13.3926283"><ele>433.5</ele><time>2026-04-03T16:42:10.052Z</time></trkpt><trkpt lat="42.76339" lon="13.3928133"><ele>431.75</ele><time>2026-04-03T16:42:11.053Z</time></trkpt><trkpt lat="42.763355" lon="13.3929683"><ele>430.0</ele><time>2026-04-03T16:42:12.053Z</time></trkpt><trkpt lat="42.7633517" lon="13.3931433"><ele>427.5</ele><time>2026-04-03T16:42:13.053Z</time></trkpt><trkpt lat="42.7633617" lon="13.3933333"><ele>425.0</ele><time>2026-04-03T16:42:14.053Z</time></trkpt><trkpt lat="42.7633983" lon="13.393525"><ele>422.5</ele><time>2026-04-03T16:42:15.053Z</time></trkpt><trkpt lat="42.7634167" lon="13.3937217"><ele>420.0</ele><time>2026-04-03T16:42:16.053Z</time></trkpt><trkpt lat="42.7634233" lon="13.393925"><ele>419.5</ele><time>2026-04-03T16:42:17.053Z</time></trkpt><trkpt lat="42.7634267" lon="13.39414"><ele>419.0</ele><time>2026-04-03T16:42:18.053Z</time></trkpt><trkpt lat="42.7634467" lon="13.3943383"><ele>418.5</ele><time>2026-04-03T16:42:19.052Z</time></trkpt><trkpt lat="42.7634817" lon="13.394525"><ele>418.0</ele><time>2026-04-03T16:42:20.053Z</time></trkpt><trkpt lat="42.7635283" lon="13.394725"><ele>410.0</ele><time>2026-04-03T16:42:21.053Z</time></trkpt><trkpt lat="42.7635833" lon="13.394915"><ele>402.0</ele><time>2026-04-03T16:42:22.053Z</time></trkpt><trkpt lat="42.763635" lon="13.395105"><ele>394.0</ele><time>2026-04-03T16:42:23.053Z</time></trkpt><trkpt lat="42.7637067" lon="13.39531"><ele>394.0</ele><time>2026-04-03T16:42:24.053Z</time></trkpt><trkpt lat="42.76378" lon="13.3954933"><ele>394.0</ele><time>2026-04-03T16:42:25.053Z</time></trkpt><trkpt lat="42.763875" lon="13.3956617"><ele>394.0</ele><time>2026-04-03T16:42:26.053Z</time></trkpt><trkpt lat="42.763975" lon="13.3958083"><ele>395.5</ele><time>2026-04-03T16:42:27.053Z</time></trkpt><trkpt lat="42.7640833" lon="13.39594"><ele>397.0</ele><time>2026-04-03T16:42:28.053Z</time></trkpt><trkpt lat="42.7641933" lon="13.3960733"><ele>398.5</ele><time>2026-04-03T16:42:29.053Z</time></trkpt><trkpt lat="42.7642683" lon="13.3962"><ele>400.0</ele><time>2026-04-03T16:42:30.053Z</time></trkpt><trkpt lat="42.7643367" lon="13.3963417"><ele>398.5</ele><time>2026-04-03T16:42:31.053Z</time></trkpt><trkpt lat="42.764375" lon="13.3964917"><ele>397.0</ele><time>2026-04-03T16:42:32.053Z</time></trkpt><trkpt lat="42.764395" lon="13.3966333"><ele>395.5</ele><time>2026-04-03T16:42:33.053Z</time></trkpt><trkpt lat="42.7643633" lon="13.3967783"><ele>394.0</ele><time>2026-04-03T16:42:34.053Z</time></trkpt><trkpt lat="42.764305" lon="13.3969233"><ele>396.5</ele><time>2026-04-03T16:42:35.053Z</time></trkpt><trkpt lat="42.7642133" lon="13.3970517"><ele>399.0</ele><time>2026-04-03T16:42:36.053Z</time></trkpt><trkpt lat="42.76413" lon="13.3971767"><ele>401.5</ele><time>2026-04-03T16:42:37.053Z</time></trkpt><trkpt lat="42.7640433" lon="13.39731"><ele>404.0</ele><time>2026-04-03T16:42:38.053Z</time></trkpt><trkpt lat="42.763975" lon="13.3974583"><ele>404.0</ele><time>2026-04-03T16:42:39.053Z</time></trkpt><trkpt lat="42.7639217" lon="13.3976217"><ele>404.0</ele><time>2026-04-03T16:42:40.053Z</time></trkpt><trkpt lat="42.7638817" lon="13.3977917"><ele>404.0</ele><time>2026-04-03T16:42:41.053Z</time></trkpt><trkpt lat="42.7638667" lon="13.3979733"><ele>404.0</ele><time>2026-04-03T16:42:42.053Z</time></trkpt><trkpt lat="42.7638817" lon="13.3981583"><ele>402.0</ele><time>2026-04-03T16:42:43.053Z</time></trkpt><trkpt lat="42.7638983" lon="13.39835"><ele>400.0</ele><time>2026-04-03T16:42:44.053Z</time></trkpt><trkpt lat="42.76393" lon="13.39855"><ele>398.0</ele><time>2026-04-03T16:42:45.053Z</time></trkpt><trkpt lat="42.7639667" lon="13.39875"><ele>396.0</ele><time>2026-04-03T16:42:46.053Z</time></trkpt><trkpt lat="42.763995" lon="13.3989433"><ele>396.0</ele><time>2026-04-03T16:42:47.053Z</time></trkpt><trkpt lat="42.76401" lon="13.3991383"><ele>396.0</ele><time>2026-04-03T16:42:48.053Z</time></trkpt><trkpt lat="42.7640217" lon="13.3993333"><ele>396.0</ele><time>2026-04-03T16:42:49.053Z</time></trkpt><trkpt lat="42.7640367" lon="13.3995283"><ele>396.0</ele><time>2026-04-03T16:42:50.053Z</time></trkpt><trkpt lat="42.7640533" lon="13.3997083"><ele>397.75</ele><time>2026-04-03T16:42:51.053Z</time></trkpt><trkpt lat="42.764095" lon="13.399865"><ele>399.5</ele><time>2026-04-03T16:42:52.053Z</time></trkpt><trkpt lat="42.7641433" lon="13.4000133"><ele>401.25</ele><time>2026-04-03T16:42:53.053Z</time></trkpt><trkpt lat="42.7642283" lon="13.4001267"><ele>403.0</ele><time>2026-04-03T16:42:54.053Z</time></trkpt><trkpt lat="42.7642833" lon="13.400275"><ele>403.0</ele><time>2026-04-03T16:42:55.053Z</time></trkpt><trkpt lat="42.76433" lon="13.4004333"><ele>403.0</ele><time>2026-04-03T16:42:56.053Z</time></trkpt><trkpt lat="42.7643583" lon="13.400605"><ele>403.0</ele><time>2026-04-03T16:42:57.053Z</time></trkpt><trkpt lat="42.7643683" lon="13.4007783"><ele>403.0</ele><time>2026-04-03T16:42:58.053Z</time></trkpt><trkpt lat="42.7643583" lon="13.4009317"><ele>403.25</ele><time>2026-04-03T16:42:59.052Z</time></trkpt><trkpt lat="42.764315" lon="13.40108"><ele>403.5</ele><time>2026-04-03T16:43:00.053Z</time></trkpt><trkpt lat="42.76425" lon="13.401215"><ele>403.75</ele><time>2026-04-03T16:43:01.053Z</time></trkpt><trkpt lat="42.764165" lon="13.4013417"><ele>404.0</ele><time>2026-04-03T16:43:02.053Z</time></trkpt><trkpt lat="42.7640617" lon="13.401455"><ele>400.0</ele><time>2026-04-03T16:43:03.053Z</time></trkpt><trkpt lat="42.7639517" lon="13.40156"><ele>396.0</ele><time>2026-04-03T16:43:04.053Z</time></trkpt><trkpt lat="42.7638417" lon="13.4016633"><ele>392.0</ele><time>2026-04-03T16:43:05.053Z</time></trkpt><trkpt lat="42.76374" lon="13.401785"><ele>388.0</ele><time>2026-04-03T16:43:06.053Z</time></trkpt><trkpt lat="42.76365" lon="13.4019217"><ele>388.0</ele><time>2026-04-03T16:43:07.053Z</time></trkpt><trkpt lat="42.7635883" lon="13.4020817"><ele>388.0</ele><time>2026-04-03T16:43:08.053Z</time></trkpt><trkpt lat="42.763545" lon="13.4022467"><ele>388.0</ele><time>2026-04-03T16:43:09.053Z</time></trkpt><trkpt lat="42.76354" lon="13.4024133"><ele>388.0</ele><time>2026-04-03T16:43:10.053Z</time></trkpt><trkpt lat="42.763525" lon="13.40259"><ele>386.25</ele><time>2026-04-03T16:43:11.053Z</time></trkpt><trkpt lat="42.7635283" lon="13.4027783"><ele>384.5</ele><time>2026-04-03T16:43:12.053Z</time></trkpt><trkpt lat="42.7635467" lon="13.402975"><ele>382.75</ele><time>2026-04-03T16:43:13.053Z</time></trkpt><trkpt lat="42.7635733" lon="13.4031533"><ele>381.0</ele><time>2026-04-03T16:43:14.053Z</time></trkpt><trkpt lat="42.7636083" lon="13.4033267"><ele>380.0</ele><time>2026-04-03T16:43:15.053Z</time></trkpt><trkpt lat="42.763645" lon="13.4034683"><ele>379.0</ele><time>2026-04-03T16:43:16.053Z</time></trkpt><trkpt lat="42.7637133" lon="13.4036033"><ele>378.0</ele><time>2026-04-03T16:43:17.053Z</time></trkpt><trkpt lat="42.7638033" lon="13.40372"><ele>377.0</ele><time>2026-04-03T16:43:18.053Z</time></trkpt><trkpt lat="42.7639083" lon="13.4038"><ele>379.5</ele><time>2026-04-03T16:43:19.053Z</time></trkpt><trkpt lat="42.7640217" lon="13.4038667"><ele>382.0</ele><time>2026-04-03T16:43:20.053Z</time></trkpt><trkpt lat="42.764165" lon="13.4039167"><ele>384.5</ele><time>2026-04-03T16:43:21.053Z</time></trkpt><trkpt lat="42.76433" lon="13.4039517"><ele>387.0</ele><time>2026-04-03T16:43:22.053Z</time></trkpt><trkpt lat="42.7644883" lon="13.4039883"><ele>387.0</ele><time>2026-04-03T16:43:23.053Z</time></trkpt><trkpt lat="42.7646417" lon="13.4040183"><ele>387.0</ele><time>2026-04-03T16:43:24.053Z</time></trkpt><trkpt lat="42.7648117" lon="13.4040867"><ele>387.0</ele><time>2026-04-03T16:43:25.053Z</time></trkpt><trkpt lat="42.7649683" lon="13.4041567"><ele>387.0</ele><time>2026-04-03T16:43:26.053Z</time></trkpt><trkpt lat="42.7651167" lon="13.4042317"><ele>387.0</ele><time>2026-04-03T16:43:27.052Z</time></trkpt><trkpt lat="42.7652617" lon="13.4042933"><ele>387.0</ele><time>2026-04-03T16:43:28.053Z</time></trkpt><trkpt lat="42.7654067" lon="13.40434"><ele>384.3333333333333</ele><time>2026-04-03T16:43:29.053Z</time></trkpt><trkpt lat="42.7655583" lon="13.40436"><ele>381.66666666666663</ele><time>2026-04-03T16:43:30.053Z</time></trkpt><trkpt lat="42.7657267" lon="13.4043917"><ele>379.0</ele><time>2026-04-03T16:43:31.053Z</time></trkpt><trkpt lat="42.7659183" lon="13.4043967"><ele>376.66666666666663</ele><time>2026-04-03T16:43:32.053Z</time></trkpt><trkpt lat="42.76609" lon="13.4044117"><ele>374.3333333333333</ele><time>2026-04-03T16:43:33.053Z</time></trkpt><trkpt lat="42.7662517" lon="13.4044333"><ele>372.0</ele><time>2026-04-03T16:43:34.053Z</time></trkpt><trkpt lat="42.7664167" lon="13.4044583"><ele>372.0</ele><time>2026-04-03T16:43:35.053Z</time></trkpt><trkpt lat="42.76658" lon="13.4045017"><ele>372.0</ele><time>2026-04-03T16:43:36.053Z</time></trkpt><trkpt lat="42.7667067" lon="13.4045433"><ele>372.0</ele><time>2026-04-03T16:43:37.053Z</time></trkpt><trkpt lat="42.7668733" lon="13.4046417"><ele>371.0</ele><time>2026-04-03T16:43:38.053Z</time></trkpt><trkpt lat="42.7670233" lon="13.4047633"><ele>370.0</ele><time>2026-04-03T16:43:39.053Z</time></trkpt><trkpt lat="42.7671417" lon="13.4049"><ele>369.0</ele><time>2026-04-03T16:43:40.053Z</time></trkpt><trkpt lat="42.7672333" lon="13.4050517"><ele>369.0</ele><time>2026-04-03T16:43:41.053Z</time></trkpt><trkpt lat="42.7673267" lon="13.4052333"><ele>369.0</ele><time>2026-04-03T16:43:42.053Z</time></trkpt><trkpt lat="42.76741" lon="13.4054183"><ele>369.0</ele><time>2026-04-03T16:43:43.053Z</time></trkpt><trkpt lat="42.7675067" lon="13.4056117"><ele>369.25</ele><time>2026-04-03T16:43:44.053Z</time></trkpt><trkpt lat="42.7675817" lon="13.4058067"><ele>369.5</ele><time>2026-04-03T16:43:45.053Z</time></trkpt><trkpt lat="42.7676183" lon="13.4059817"><ele>369.75</ele><time>2026-04-03T16:43:46.053Z</time></trkpt><trkpt lat="42.7676683" lon="13.406145"><ele>370.0</ele><time>2026-04-03T16:43:47.052Z</time></trkpt><trkpt lat="42.767715" lon="13.4062967"><ele>369.6</ele><time>2026-04-03T16:43:48.053Z</time></trkpt><trkpt lat="42.7677633" lon="13.4064367"><ele>369.2</ele><time>2026-04-03T16:43:49.053Z</time></trkpt><trkpt lat="42.7678" lon="13.40657"><ele>368.79999999999995</ele><time>2026-04-03T16:43:50.053Z</time></trkpt><trkpt lat="42.7678283" lon="13.4066833"><ele>368.4</ele><time>2026-04-03T16:43:51.053Z</time></trkpt><trkpt lat="42.7678567" lon="13.406775"><ele>368.0</ele><time>2026-04-03T16:43:52.053Z</time></trkpt><trkpt lat="42.7679017" lon="13.4069083"><ele>368.0</ele><time>2026-04-03T16:43:54.053Z</time></trkpt><trkpt lat="42.7679167" lon="13.4070067"><ele>368.0</ele><time>2026-04-03T16:44:40.053Z</time></trkpt><trkpt lat="42.767955" lon="13.4071167"><ele>368.0</ele><time>2026-04-03T16:44:42.053Z</time></trkpt><trkpt lat="42.7680167" lon="13.4072833"><ele>368.0</ele><time>2026-04-03T16:44:44.053Z</time></trkpt><trkpt lat="42.76806" lon="13.40738"><ele>368.0</ele><time>2026-04-03T16:44:45.053Z</time></trkpt><trkpt lat="42.7680983" lon="13.4074767"><ele>368.4</ele><time>2026-04-03T16:44:46.053Z</time></trkpt><trkpt lat="42.768145" lon="13.407575"><ele>368.79999999999995</ele><time>2026-04-03T16:44:47.053Z</time></trkpt><trkpt lat="42.7682017" lon="13.4076683"><ele>369.2</ele><time>2026-04-03T16:44:48.052Z</time></trkpt><trkpt lat="42.7682733" lon="13.4077583"><ele>369.6</ele><time>2026-04-03T16:44:49.053Z</time></trkpt><trkpt lat="42.7683433" lon="13.407855"><ele>370.0</ele><time>2026-04-03T16:44:50.053Z</time></trkpt><trkpt lat="42.7684133" lon="13.4079467"><ele>372.8</ele><time>2026-04-03T16:44:51.053Z</time></trkpt><trkpt lat="42.7684883" lon="13.4080367"><ele>375.6</ele><time>2026-04-03T16:44:52.053Z</time></trkpt><trkpt lat="42.76856" lon="13.40813"><ele>378.4</ele><time>2026-04-03T16:44:53.053Z</time></trkpt><trkpt lat="42.76863" lon="13.4082333"><ele>381.2</ele><time>2026-04-03T16:44:54.053Z</time></trkpt><trkpt lat="42.7687033" lon="13.4083567"><ele>384.0</ele><time>2026-04-03T16:44:55.053Z</time></trkpt><trkpt lat="42.7687767" lon="13.4084617"><ele>384.0</ele><time>2026-04-03T16:44:56.053Z</time></trkpt><trkpt lat="42.768855" lon="13.4085683"><ele>384.0</ele><time>2026-04-03T16:44:57.053Z</time></trkpt><trkpt lat="42.768935" lon="13.4086783"><ele>384.0</ele><time>2026-04-03T16:44:58.053Z</time></trkpt><trkpt lat="42.7690083" lon="13.4087867"><ele>384.0</ele><time>2026-04-03T16:44:59.053Z</time></trkpt><trkpt lat="42.7690817" lon="13.4088967"><ele>384.0</ele><time>2026-04-03T16:45:00.053Z</time></trkpt><trkpt lat="42.7691617" lon="13.409015"><ele>383.0</ele><time>2026-04-03T16:45:01.053Z</time></trkpt><trkpt lat="42.76927" lon="13.40914"><ele>382.0</ele><time>2026-04-03T16:45:02.053Z</time></trkpt><trkpt lat="42.7693533" lon="13.40925"><ele>381.0</ele><time>2026-04-03T16:45:03.053Z</time></trkpt><trkpt lat="42.7694433" lon="13.4093617"><ele>380.0</ele><time>2026-04-03T16:45:04.053Z</time></trkpt><trkpt lat="42.7695333" lon="13.4094767"><ele>380.0</ele><time>2026-04-03T16:45:05.053Z</time></trkpt><trkpt lat="42.7696133" lon="13.4095817"><ele>380.0</ele><time>2026-04-03T16:45:06.053Z</time></trkpt><trkpt lat="42.7696917" lon="13.4096733"><ele>380.0</ele><time>2026-04-03T16:45:07.053Z</time></trkpt><trkpt lat="42.7697717" lon="13.4097833"><ele>380.0</ele><time>2026-04-03T16:45:08.053Z</time></trkpt><trkpt lat="42.7698517" lon="13.409895"><ele>380.0</ele><time>2026-04-03T16:45:09.053Z</time></trkpt><trkpt lat="42.7699267" lon="13.41001"><ele>378.0</ele><time>2026-04-03T16:45:10.053Z</time></trkpt><trkpt lat="42.770005" lon="13.4101183"><ele>376.0</ele><time>2026-04-03T16:45:11.053Z</time></trkpt><trkpt lat="42.770085" lon="13.410235"><ele>374.0</ele><time>2026-04-03T16:45:12.053Z</time></trkpt><trkpt lat="42.770165" lon="13.4103483"><ele>372.0</ele><time>2026-04-03T16:45:13.053Z</time></trkpt><trkpt lat="42.770235" lon="13.4104633"><ele>374.8</ele><time>2026-04-03T16:45:14.052Z</time></trkpt><trkpt lat="42.7703033" lon="13.4105817"><ele>377.6</ele><time>2026-04-03T16:45:15.053Z</time></trkpt><trkpt lat="42.7703717" lon="13.4106933"><ele>380.40000000000003</ele><time>2026-04-03T16:45:16.053Z</time></trkpt><trkpt lat="42.7704433" lon="13.4107983"><ele>383.20000000000005</ele><time>2026-04-03T16:45:17.053Z</time></trkpt><trkpt lat="42.770505" lon="13.410905"><ele>386.0</ele><time>2026-04-03T16:45:18.053Z</time></trkpt><trkpt lat="42.770565" lon="13.4110083"><ele>386.0</ele><time>2026-04-03T16:45:19.052Z</time></trkpt><trkpt lat="42.7706217" lon="13.4111"><ele>386.0</ele><time>2026-04-03T16:45:20.053Z</time></trkpt><trkpt lat="42.7706833" lon="13.4111867"><ele>386.0</ele><time>2026-04-03T16:45:21.053Z</time></trkpt><trkpt lat="42.770745" lon="13.4112717"><ele>386.0</ele><time>2026-04-03T16:45:22.053Z</time></trkpt><trkpt lat="42.7708183" lon="13.4113717"><ele>386.0</ele><time>2026-04-03T16:45:23.053Z</time></trkpt><trkpt lat="42.770905" lon="13.4114333"><ele>388.49999999999994</ele><time>2026-04-03T16:45:24.053Z</time></trkpt><trkpt lat="42.7709883" lon="13.4114583"><ele>391.0</ele><time>2026-04-03T16:45:25.053Z</time></trkpt><trkpt lat="42.7710683" lon="13.4114783"><ele>393.5</ele><time>2026-04-03T16:45:26.053Z</time></trkpt><trkpt lat="42.771155" lon="13.4115017"><ele>396.0</ele><time>2026-04-03T16:45:27.053Z</time></trkpt><trkpt lat="42.771245" lon="13.4115083"><ele>398.49999999999994</ele><time>2026-04-03T16:45:28.053Z</time></trkpt><trkpt lat="42.7713183" lon="13.4114933"><ele>401.0</ele><time>2026-04-03T16:45:29.053Z</time></trkpt><trkpt lat="42.7713933" lon="13.411455"><ele>401.0</ele><time>2026-04-03T16:45:30.053Z</time></trkpt><trkpt lat="42.7714783" lon="13.4114133"><ele>401.0</ele><time>2026-04-03T16:45:31.053Z</time></trkpt><trkpt lat="42.771555" lon="13.4113717"><ele>401.0</ele><time>2026-04-03T16:45:32.053Z</time></trkpt><trkpt lat="42.77165" lon="13.4113383"><ele>401.0</ele><time>2026-04-03T16:45:33.053Z</time></trkpt><trkpt lat="42.7717567" lon="13.4113217"><ele>401.0</ele><time>2026-04-03T16:45:34.053Z</time></trkpt><trkpt lat="42.7718717" lon="13.411305"><ele>396.25</ele><time>2026-04-03T16:45:35.052Z</time></trkpt><trkpt lat="42.7719917" lon="13.4112817"><ele>391.5</ele><time>2026-04-03T16:45:36.053Z</time></trkpt><trkpt lat="42.77211" lon="13.4112683"><ele>386.75</ele><time>2026-04-03T16:45:37.053Z</time></trkpt><trkpt lat="42.7722367" lon="13.41126"><ele>382.0</ele><time>2026-04-03T16:45:38.053Z</time></trkpt><trkpt lat="42.772365" lon="13.4112617"><ele>382.0</ele><time>2026-04-03T16:45:39.053Z</time></trkpt><trkpt lat="42.772495" lon="13.4112783"><ele>382.0</ele><time>2026-04-03T16:45:40.053Z</time></trkpt><trkpt lat="42.77263" lon="13.41132"><ele>382.0</ele><time>2026-04-03T16:45:41.053Z</time></trkpt><trkpt lat="42.7727683" lon="13.4113633"><ele>382.0</ele><time>2026-04-03T16:45:42.053Z</time></trkpt><trkpt lat="42.772915" lon="13.4114267"><ele>388.0</ele><time>2026-04-03T16:45:43.053Z</time></trkpt><trkpt lat="42.7730583" lon="13.411505"><ele>394.0</ele><time>2026-04-03T16:45:44.053Z</time></trkpt><trkpt lat="42.7731883" lon="13.41157"><ele>400.0</ele><time>2026-04-03T16:45:45.053Z</time></trkpt><trkpt lat="42.7733383" lon="13.4116717"><ele>400.0</ele><time>2026-04-03T16:45:46.053Z</time></trkpt><trkpt lat="42.773475" lon="13.4117767"><ele>400.0</ele><time>2026-04-03T16:45:47.053Z</time></trkpt><trkpt lat="42.7736117" lon="13.4118867"><ele>400.0</ele><time>2026-04-03T16:45:48.053Z</time></trkpt><trkpt lat="42.7737367" lon="13.4120083"><ele>400.6666666666667</ele><time>2026-04-03T16:45:49.053Z</time></trkpt><trkpt lat="42.7738767" lon="13.4121567"><ele>401.33333333333337</ele><time>2026-04-03T16:45:50.053Z</time></trkpt><trkpt lat="42.7740033" lon="13.41231"><ele>402.0</ele><time>2026-04-03T16:45:51.053Z</time></trkpt><trkpt lat="42.774125" lon="13.412485"><ele>402.0</ele><time>2026-04-03T16:45:52.053Z</time></trkpt><trkpt lat="42.77425" lon="13.41267"><ele>402.0</ele><time>2026-04-03T16:45:53.053Z</time></trkpt><trkpt lat="42.774365" lon="13.4128667"><ele>402.0</ele><time>2026-04-03T16:45:54.053Z</time></trkpt><trkpt lat="42.77448" lon="13.4130583"><ele>394.0</ele><time>2026-04-03T16:45:55.053Z</time></trkpt><trkpt lat="42.7745833" lon="13.41325"><ele>386.0</ele><time>2026-04-03T16:45:56.053Z</time></trkpt><trkpt lat="42.7746883" lon="13.41345"><ele>378.0</ele><time>2026-04-03T16:45:57.053Z</time></trkpt><trkpt lat="42.7747883" lon="13.41365"><ele>389.0</ele><time>2026-04-03T16:45:58.053Z</time></trkpt><trkpt lat="42.7748833" lon="13.4138317"><ele>400.0</ele><time>2026-04-03T16:45:59.053Z</time></trkpt><trkpt lat="42.77501" lon="13.4140017"><ele>411.0</ele><time>2026-04-03T16:46:00.052Z</time></trkpt><trkpt lat="42.775125" lon="13.4141417"><ele>397.0</ele><time>2026-04-03T16:46:01.053Z</time></trkpt><trkpt lat="42.7752767" lon="13.4142983"><ele>383.0</ele><time>2026-04-03T16:46:02.053Z</time></trkpt><trkpt lat="42.7754283" lon="13.4144317"><ele>369.0</ele><time>2026-04-03T16:46:03.053Z</time></trkpt><trkpt lat="42.77558" lon="13.4145467"><ele>369.0</ele><time>2026-04-03T16:46:04.053Z</time></trkpt><trkpt lat="42.77575" lon="13.4146533"><ele>369.0</ele><time>2026-04-03T16:46:05.053Z</time></trkpt><trkpt lat="42.77592" lon="13.414755"><ele>369.0</ele><time>2026-04-03T16:46:06.053Z</time></trkpt><trkpt lat="42.7760883" lon="13.41486"><ele>379.66666666666663</ele><time>2026-04-03T16:46:07.053Z</time></trkpt><trkpt lat="42.7762733" lon="13.4149617"><ele>390.3333333333333</ele><time>2026-04-03T16:46:08.053Z</time></trkpt><trkpt lat="42.7764533" lon="13.4150717"><ele>401.0</ele><time>2026-04-03T16:46:09.053Z</time></trkpt><trkpt lat="42.77664" lon="13.4151783"><ele>401.0</ele><time>2026-04-03T16:46:10.053Z</time></trkpt><trkpt lat="42.7768233" lon="13.4152833"><ele>401.0</ele><time>2026-04-03T16:46:11.053Z</time></trkpt><trkpt lat="42.7770033" lon="13.4153833"><ele>401.0</ele><time>2026-04-03T16:46:12.053Z</time></trkpt><trkpt lat="42.7771833" lon="13.4154817"><ele>386.0</ele><time>2026-04-03T16:46:13.053Z</time></trkpt><trkpt lat="42.7786083" lon="13.4165383"><ele>386.0</ele><time>2026-04-03T16:46:22.053Z</time></trkpt><trkpt lat="42.7787217" lon="13.416785"><ele>386.0</ele><time>2026-04-03T16:46:23.053Z</time></trkpt><trkpt lat="42.7789" lon="13.41701"><ele>383.66666666666663</ele><time>2026-04-03T16:46:24.053Z</time></trkpt><trkpt lat="42.779075" lon="13.4171833"><ele>381.3333333333333</ele><time>2026-04-03T16:46:25.053Z</time></trkpt><trkpt lat="42.7792517" lon="13.4173583"><ele>379.0</ele><time>2026-04-03T16:46:26.053Z</time></trkpt><trkpt lat="42.7794167" lon="13.41753"><ele>379.0</ele><time>2026-04-03T16:46:27.053Z</time></trkpt><trkpt lat="42.7795883" lon="13.4177033"><ele>379.0</ele><time>2026-04-03T16:46:28.053Z</time></trkpt><trkpt lat="42.7797583" lon="13.41787"><ele>379.0</ele><time>2026-04-03T16:46:29.053Z</time></trkpt><trkpt lat="42.779925" lon="13.4180383"><ele>382.0</ele><time>2026-04-03T16:46:30.053Z</time></trkpt><trkpt lat="42.7800867" lon="13.4182017"><ele>385.0</ele><time>2026-04-03T16:46:31.053Z</time></trkpt><trkpt lat="42.7802467" lon="13.4183633"><ele>388.0</ele><time>2026-04-03T16:46:32.053Z</time></trkpt><trkpt lat="42.7804083" lon="13.4185233"><ele>388.0</ele><time>2026-04-03T16:46:33.053Z</time></trkpt><trkpt lat="42.7805717" lon="13.4186833"><ele>388.0</ele><time>2026-04-03T16:46:34.053Z</time></trkpt><trkpt lat="42.780735" lon="13.4188433"><ele>388.0</ele><time>2026-04-03T16:46:35.053Z</time></trkpt><trkpt lat="42.780895" lon="13.4190033"><ele>390.33333333333337</ele><time>2026-04-03T16:46:36.053Z</time></trkpt><trkpt lat="42.7810567" lon="13.41917"><ele>392.66666666666663</ele><time>2026-04-03T16:46:37.053Z</time></trkpt><trkpt lat="42.7812183" lon="13.419345"><ele>395.0</ele><time>2026-04-03T16:46:38.053Z</time></trkpt><trkpt lat="42.7813733" lon="13.4195033"><ele>395.66666666666663</ele><time>2026-04-03T16:46:39.053Z</time></trkpt><trkpt lat="42.781545" lon="13.4197167"><ele>396.33333333333337</ele><time>2026-04-03T16:46:40.053Z</time></trkpt><trkpt lat="42.7817" lon="13.419895"><ele>397.0</ele><time>2026-04-03T16:46:41.053Z</time></trkpt><trkpt lat="42.7818367" lon="13.4200917"><ele>394.6666666666667</ele><time>2026-04-03T16:46:42.053Z</time></trkpt><trkpt lat="42.7819667" lon="13.4203"><ele>392.33333333333337</ele><time>2026-04-03T16:46:43.053Z</time></trkpt><trkpt lat="42.7820933" lon="13.4205183"><ele>390.0</ele><time>2026-04-03T16:46:44.053Z</time></trkpt><trkpt lat="42.7822" lon="13.4207583"><ele>390.0</ele><time>2026-04-03T16:46:45.053Z</time></trkpt><trkpt lat="42.7822917" lon="13.4210083"><ele>390.0</ele><time>2026-04-03T16:46:46.053Z</time></trkpt><trkpt lat="42.7823717" lon="13.42126"><ele>390.0</ele><time>2026-04-03T16:46:47.053Z</time></trkpt><trkpt lat="42.78245" lon="13.4215233"><ele>390.66666666666663</ele><time>2026-04-03T16:46:48.053Z</time></trkpt><trkpt lat="42.7825183" lon="13.4217867"><ele>391.3333333333333</ele><time>2026-04-03T16:46:49.053Z</time></trkpt><trkpt lat="42.78258" lon="13.4220417"><ele>392.0</ele><time>2026-04-03T16:46:50.052Z</time></trkpt><trkpt lat="42.78263" lon="13.4222967"><ele>387.3333333333333</ele><time>2026-04-03T16:46:51.053Z</time></trkpt><trkpt lat="42.7826817" lon="13.4225567"><ele>382.66666666666663</ele><time>2026-04-03T16:46:52.053Z</time></trkpt><trkpt lat="42.782725" lon="13.42281"><ele>378.0</ele><time>2026-04-03T16:46:53.053Z</time></trkpt><trkpt lat="42.7827833" lon="13.42307"><ele>378.0</ele><time>2026-04-03T16:46:54.053Z</time></trkpt><trkpt lat="42.782845" lon="13.4233383"><ele>378.0</ele><time>2026-04-03T16:46:55.053Z</time></trkpt><trkpt lat="42.7828983" lon="13.423595"><ele>378.0</ele><time>2026-04-03T16:46:56.053Z</time></trkpt><trkpt lat="42.7829417" lon="13.423835"><ele>378.0</ele><time>2026-04-03T16:46:57.053Z</time></trkpt><trkpt lat="42.7829883" lon="13.424065"><ele>378.0</ele><time>2026-04-03T16:46:58.053Z</time></trkpt><trkpt lat="42.7830417" lon="13.424305"><ele>378.0</ele><time>2026-04-03T16:46:59.053Z</time></trkpt><trkpt lat="42.783085" lon="13.4245417"><ele>379.6666666666667</ele><time>2026-04-03T16:47:00.053Z</time></trkpt><trkpt lat="42.783135" lon="13.42479"><ele>381.33333333333337</ele><time>2026-04-03T16:47:01.053Z</time></trkpt><trkpt lat="42.783185" lon="13.42505"><ele>383.0</ele><time>2026-04-03T16:47:02.053Z</time></trkpt><trkpt lat="42.7832467" lon="13.4252983"><ele>384.33333333333337</ele><time>2026-04-03T16:47:03.053Z</time></trkpt><trkpt lat="42.78332" lon="13.4255533"><ele>385.6666666666667</ele><time>2026-04-03T16:47:04.053Z</time></trkpt><trkpt lat="42.7833983" lon="13.4257967"><ele>387.0</ele><time>2026-04-03T16:47:05.053Z</time></trkpt><trkpt lat="42.78349" lon="13.4260567"><ele>386.33333333333337</ele><time>2026-04-03T16:47:06.053Z</time></trkpt><trkpt lat="42.78359" lon="13.4262883"><ele>385.6666666666667</ele><time>2026-04-03T16:47:07.052Z</time></trkpt><trkpt lat="42.7836967" lon="13.42652"><ele>385.0</ele><time>2026-04-03T16:47:08.053Z</time></trkpt><trkpt lat="42.7838083" lon="13.426745"><ele>385.0</ele><time>2026-04-03T16:47:09.053Z</time></trkpt><trkpt lat="42.7839367" lon="13.427"><ele>385.0</ele><time>2026-04-03T16:47:10.053Z</time></trkpt><trkpt lat="42.78407" lon="13.427235"><ele>385.0</ele><time>2026-04-03T16:47:11.053Z</time></trkpt><trkpt lat="42.7842067" lon="13.4274617"><ele>385.0</ele><time>2026-04-03T16:47:12.053Z</time></trkpt><trkpt lat="42.784355" lon="13.42767"><ele>385.0</ele><time>2026-04-03T16:47:13.053Z</time></trkpt><trkpt lat="42.7845083" lon="13.42786"><ele>385.0</ele><time>2026-04-03T16:47:14.053Z</time></trkpt><trkpt lat="42.7846717" lon="13.4280583"><ele>384.0</ele><time>2026-04-03T16:47:15.053Z</time></trkpt><trkpt lat="42.7848417" lon="13.42824"><ele>383.0</ele><time>2026-04-03T16:47:16.053Z</time></trkpt><trkpt lat="42.7850117" lon="13.4284217"><ele>382.0</ele><time>2026-04-03T16:47:17.053Z</time></trkpt><trkpt lat="42.7851917" lon="13.4285867"><ele>382.0</ele><time>2026-04-03T16:47:18.053Z</time></trkpt><trkpt lat="42.7853767" lon="13.4287067"><ele>382.0</ele><time>2026-04-03T16:47:19.053Z</time></trkpt><trkpt lat="42.785575" lon="13.42883"><ele>382.0</ele><time>2026-04-03T16:47:20.052Z</time></trkpt><trkpt lat="42.78577" lon="13.428935"><ele>384.0</ele><time>2026-04-03T16:47:21.053Z</time></trkpt><trkpt lat="42.7859683" lon="13.4290117"><ele>386.0</ele><time>2026-04-03T16:47:22.053Z</time></trkpt><trkpt lat="42.7861767" lon="13.4290883"><ele>388.0</ele><time>2026-04-03T16:47:23.053Z</time></trkpt><trkpt lat="42.7863883" lon="13.4291767"><ele>388.0</ele><time>2026-04-03T16:47:24.053Z</time></trkpt><trkpt lat="42.7866183" lon="13.4292683"><ele>388.0</ele><time>2026-04-03T16:47:25.053Z</time></trkpt><trkpt lat="42.78686" lon="13.4293533"><ele>387.0</ele><time>2026-04-03T16:47:26.053Z</time></trkpt><trkpt lat="42.7870733" lon="13.4294383"><ele>386.0</ele><time>2026-04-03T16:47:27.053Z</time></trkpt><trkpt lat="42.7872817" lon="13.4295317"><ele>385.0</ele><time>2026-04-03T16:47:28.053Z</time></trkpt><trkpt lat="42.78749" lon="13.4296233"><ele>384.6666666666667</ele><time>2026-04-03T16:47:29.053Z</time></trkpt><trkpt lat="42.7876883" lon="13.4297317"><ele>384.33333333333337</ele><time>2026-04-03T16:47:30.053Z</time></trkpt><trkpt lat="42.7878783" lon="13.429865"><ele>384.0</ele><time>2026-04-03T16:47:31.053Z</time></trkpt><trkpt lat="42.7880683" lon="13.4300183"><ele>384.0</ele><time>2026-04-03T16:47:32.053Z</time></trkpt><trkpt lat="42.788245" lon="13.43018"><ele>384.0</ele><time>2026-04-03T16:47:33.053Z</time></trkpt><trkpt lat="42.7884133" lon="13.4303567"><ele>384.0</ele><time>2026-04-03T16:47:34.053Z</time></trkpt><trkpt lat="42.7885717" lon="13.43055"><ele>381.3333333333333</ele><time>2026-04-03T16:47:35.053Z</time></trkpt><trkpt lat="42.7887183" lon="13.43077"><ele>378.66666666666663</ele><time>2026-04-03T16:47:36.053Z</time></trkpt><trkpt lat="42.78886" lon="13.4310033"><ele>376.0</ele><time>2026-04-03T16:47:37.053Z</time></trkpt><trkpt lat="42.788985" lon="13.4312617"><ele>375.0</ele><time>2026-04-03T16:47:38.053Z</time></trkpt><trkpt lat="42.7891033" lon="13.4315233"><ele>374.0</ele><time>2026-04-03T16:47:39.053Z</time></trkpt><trkpt lat="42.7892233" lon="13.4317983"><ele>374.0</ele><time>2026-04-03T16:47:40.053Z</time></trkpt><trkpt lat="42.7893083" lon="13.43208"><ele>374.0</ele><time>2026-04-03T16:47:41.053Z</time></trkpt><trkpt lat="42.7893933" lon="13.4323667"><ele>368.5</ele><time>2026-04-03T16:47:42.053Z</time></trkpt><trkpt lat="42.789475" lon="13.4326533"><ele>363.0</ele><time>2026-04-03T16:47:43.053Z</time></trkpt><trkpt lat="42.7895533" lon="13.43294"><ele>363.5</ele><time>2026-04-03T16:47:44.053Z</time></trkpt><trkpt lat="42.7896417" lon="13.433215"><ele>364.0</ele><time>2026-04-03T16:47:45.053Z</time></trkpt><trkpt lat="42.7897317" lon="13.433505"><ele>364.0</ele><time>2026-04-03T16:47:46.053Z</time></trkpt><trkpt lat="42.7898133" lon="13.4337767"><ele>364.0</ele><time>2026-04-03T16:47:47.053Z</time></trkpt><trkpt lat="42.78991" lon="13.4340583"><ele>364.0</ele><time>2026-04-03T16:47:48.052Z</time></trkpt><trkpt lat="42.7899917" lon="13.4343433"><ele>365.5</ele><time>2026-04-03T16:47:49.052Z</time></trkpt><trkpt lat="42.7900933" lon="13.4346383"><ele>367.0</ele><time>2026-04-03T16:47:50.053Z</time></trkpt><trkpt lat="42.7901883" lon="13.4349333"><ele>355.5</ele><time>2026-04-03T16:47:51.052Z</time></trkpt><trkpt lat="42.790285" lon="13.4352217"><ele>344.0</ele><time>2026-04-03T16:47:52.053Z</time></trkpt><trkpt lat="42.79037" lon="13.4355133"><ele>341.5</ele><time>2026-04-03T16:47:53.053Z</time></trkpt><trkpt lat="42.7904767" lon="13.435805"><ele>339.0</ele><time>2026-04-03T16:47:54.053Z</time></trkpt><trkpt lat="42.7905983" lon="13.4360933"><ele>336.0</ele><time>2026-04-03T16:47:55.053Z</time></trkpt><trkpt lat="42.79071" lon="13.4363767"><ele>333.0</ele><time>2026-04-03T16:47:56.053Z</time></trkpt><trkpt lat="42.79082" lon="13.4366667"><ele>333.0</ele><time>2026-04-03T16:47:57.053Z</time></trkpt><trkpt lat="42.7909317" lon="13.4369517"><ele>333.0</ele><time>2026-04-03T16:47:58.053Z</time></trkpt><trkpt lat="42.7910383" lon="13.4372383"><ele>333.0</ele><time>2026-04-03T16:47:59.053Z</time></trkpt><trkpt lat="42.7911483" lon="13.4375267"><ele>333.0</ele><time>2026-04-03T16:48:00.053Z</time></trkpt><trkpt lat="42.7912617" lon="13.4378117"><ele>337.5</ele><time>2026-04-03T16:48:01.053Z</time></trkpt><trkpt lat="42.7913717" lon="13.4380917"><ele>342.0</ele><time>2026-04-03T16:48:02.053Z</time></trkpt><trkpt lat="42.7914833" lon="13.438375"><ele>342.0</ele><time>2026-04-03T16:48:03.053Z</time></trkpt><trkpt lat="42.791595" lon="13.43864"><ele>342.0</ele><time>2026-04-03T16:48:04.053Z</time></trkpt><trkpt lat="42.7917017" lon="13.438905"><ele>342.0</ele><time>2026-04-03T16:48:05.053Z</time></trkpt><trkpt lat="42.7917983" lon="13.4391617"><ele>341.0</ele><time>2026-04-03T16:48:06.053Z</time></trkpt><trkpt lat="42.7918983" lon="13.4394217"><ele>340.0</ele><time>2026-04-03T16:48:07.053Z</time></trkpt><trkpt lat="42.7919967" lon="13.4396833"><ele>339.0</ele><time>2026-04-03T16:48:08.053Z</time></trkpt><trkpt lat="42.7920533" lon="13.4399583"><ele>339.0</ele><time>2026-04-03T16:48:09.053Z</time></trkpt><trkpt lat="42.7921083" lon="13.4402383"><ele>339.0</ele><time>2026-04-03T16:48:10.053Z</time></trkpt><trkpt lat="42.7921517" lon="13.4405333"><ele>339.0</ele><time>2026-04-03T16:48:11.053Z</time></trkpt><trkpt lat="42.7921767" lon="13.4408333"><ele>335.6666666666667</ele><time>2026-04-03T16:48:12.053Z</time></trkpt><trkpt lat="42.7921767" lon="13.4411333"><ele>332.33333333333337</ele><time>2026-04-03T16:48:13.053Z</time></trkpt><trkpt lat="42.7921767" lon="13.4414317"><ele>329.0</ele><time>2026-04-03T16:48:14.053Z</time></trkpt><trkpt lat="42.792165" lon="13.441735"><ele>328.0</ele><time>2026-04-03T16:48:15.053Z</time></trkpt><trkpt lat="42.7921417" lon="13.4420217"><ele>327.0</ele><time>2026-04-03T16:48:16.053Z</time></trkpt><trkpt lat="42.7920933" lon="13.4423417"><ele>326.5</ele><time>2026-04-03T16:48:17.052Z</time></trkpt><trkpt lat="42.7920317" lon="13.44265"><ele>326.0</ele><time>2026-04-03T16:48:18.053Z</time></trkpt><trkpt lat="42.7919583" lon="13.4429533"><ele>320.0</ele><time>2026-04-03T16:48:19.053Z</time></trkpt><trkpt lat="42.7918733" lon="13.4432417"><ele>314.0</ele><time>2026-04-03T16:48:20.053Z</time></trkpt><trkpt lat="42.791785" lon="13.4435267"><ele>321.33333333333337</ele><time>2026-04-03T16:48:21.053Z</time></trkpt><trkpt lat="42.791685" lon="13.443795"><ele>328.6666666666667</ele><time>2026-04-03T16:48:22.053Z</time></trkpt><trkpt lat="42.7915883" lon="13.444065"><ele>336.0</ele><time>2026-04-03T16:48:23.053Z</time></trkpt><trkpt lat="42.7914717" lon="13.44433"><ele>336.0</ele><time>2026-04-03T16:48:24.052Z</time></trkpt><trkpt lat="42.7914033" lon="13.4446017"><ele>336.0</ele><time>2026-04-03T16:48:25.053Z</time></trkpt><trkpt lat="42.791355" lon="13.44487"><ele>336.0</ele><time>2026-04-03T16:48:26.053Z</time></trkpt><trkpt lat="42.7913167" lon="13.4451517"><ele>330.6666666666667</ele><time>2026-04-03T16:48:27.053Z</time></trkpt><trkpt lat="42.7912867" lon="13.4454317"><ele>325.33333333333337</ele><time>2026-04-03T16:48:28.053Z</time></trkpt><trkpt lat="42.7912417" lon="13.445725"><ele>320.0</ele><time>2026-04-03T16:48:29.053Z</time></trkpt><trkpt lat="42.79121" lon="13.4460183"><ele>310.0</ele><time>2026-04-03T16:48:30.053Z</time></trkpt><trkpt lat="42.791245" lon="13.4463217"><ele>300.0</ele><time>2026-04-03T16:48:31.053Z</time></trkpt><trkpt lat="42.7913067" lon="13.4466317"><ele>300.0</ele><time>2026-04-03T16:48:32.053Z</time></trkpt><trkpt lat="42.7913633" lon="13.4469367"><ele>300.0</ele><time>2026-04-03T16:48:33.053Z</time></trkpt><trkpt lat="42.7914417" lon="13.4472417"><ele>299.6666666666667</ele><time>2026-04-03T16:48:34.053Z</time></trkpt><trkpt lat="42.79153" lon="13.4475283"><ele>299.33333333333337</ele><time>2026-04-03T16:48:35.053Z</time></trkpt><trkpt lat="42.79162" lon="13.447795"><ele>299.0</ele><time>2026-04-03T16:48:36.053Z</time></trkpt><trkpt lat="42.7917533" lon="13.4480683"><ele>297.0</ele><time>2026-04-03T16:48:37.053Z</time></trkpt><trkpt lat="42.7918933" lon="13.4483283"><ele>295.0</ele><time>2026-04-03T16:48:38.053Z</time></trkpt><trkpt lat="42.792045" lon="13.4485683"><ele>301.0</ele><time>2026-04-03T16:48:39.053Z</time></trkpt><trkpt lat="42.7922033" lon="13.448795"><ele>307.0</ele><time>2026-04-03T16:48:40.053Z</time></trkpt><trkpt lat="42.7923767" lon="13.4490017"><ele>307.0</ele><time>2026-04-03T16:48:41.053Z</time></trkpt><trkpt lat="42.79256" lon="13.449195"><ele>307.0</ele><time>2026-04-03T16:48:42.053Z</time></trkpt><trkpt lat="42.7927633" lon="13.449365"><ele>300.5</ele><time>2026-04-03T16:48:43.053Z</time></trkpt><trkpt lat="42.792985" lon="13.4495067"><ele>294.0</ele><time>2026-04-03T16:48:44.053Z</time></trkpt><trkpt lat="42.7932017" lon="13.449625"><ele>299.0</ele><time>2026-04-03T16:48:45.053Z</time></trkpt><trkpt lat="42.7934083" lon="13.4497283"><ele>304.0</ele><time>2026-04-03T16:48:46.053Z</time></trkpt><trkpt lat="42.7936283" lon="13.449825"><ele>304.0</ele><time>2026-04-03T16:48:47.053Z</time></trkpt><trkpt lat="42.793845" lon="13.44992"><ele>304.0</ele><time>2026-04-03T16:48:48.053Z</time></trkpt><trkpt lat="42.7940633" lon="13.450015"><ele>304.0</ele><time>2026-04-03T16:48:49.053Z</time></trkpt><trkpt lat="42.7942767" lon="13.45012"><ele>304.0</ele><time>2026-04-03T16:48:50.053Z</time></trkpt><trkpt lat="42.7944883" lon="13.450235"><ele>298.5</ele><time>2026-04-03T16:48:51.053Z</time></trkpt><trkpt lat="42.7947033" lon="13.45035"><ele>293.0</ele><time>2026-04-03T16:48:52.053Z</time></trkpt><trkpt lat="42.7949233" lon="13.450465"><ele>293.0</ele><time>2026-04-03T16:48:53.053Z</time></trkpt><trkpt lat="42.7951317" lon="13.4505567"><ele>293.0</ele><time>2026-04-03T16:48:54.053Z</time></trkpt><trkpt lat="42.795345" lon="13.4506717"><ele>293.0</ele><time>2026-04-03T16:48:55.053Z</time></trkpt><trkpt lat="42.7955567" lon="13.45078"><ele>293.0</ele><time>2026-04-03T16:48:56.053Z</time></trkpt><trkpt lat="42.7957633" lon="13.4508717"><ele>293.0</ele><time>2026-04-03T16:48:57.053Z</time></trkpt><trkpt lat="42.7959733" lon="13.45096"><ele>293.0</ele><time>2026-04-03T16:48:58.053Z</time></trkpt><trkpt lat="42.7961733" lon="13.4510617"><ele>293.0</ele><time>2026-04-03T16:48:59.053Z</time></trkpt><trkpt lat="42.7963767" lon="13.451175"><ele>293.0</ele><time>2026-04-03T16:49:00.053Z</time></trkpt><trkpt lat="42.7965683" lon="13.4513133"><ele>293.0</ele><time>2026-04-03T16:49:01.053Z</time></trkpt><trkpt lat="42.7967533" lon="13.4514683"><ele>296.33333333333337</ele><time>2026-04-03T16:49:02.053Z</time></trkpt><trkpt lat="42.7969317" lon="13.451635"><ele>299.6666666666667</ele><time>2026-04-03T16:49:03.053Z</time></trkpt><trkpt lat="42.7971033" lon="13.4518117"><ele>303.0</ele><time>2026-04-03T16:49:04.053Z</time></trkpt><trkpt lat="42.7972683" lon="13.4520067"><ele>300.3333333333333</ele><time>2026-04-03T16:49:05.053Z</time></trkpt><trkpt lat="42.7974167" lon="13.4522083"><ele>297.66666666666663</ele><time>2026-04-03T16:49:06.053Z</time></trkpt><trkpt lat="42.79756" lon="13.4524333"><ele>295.0</ele><time>2026-04-03T16:49:07.053Z</time></trkpt><trkpt lat="42.7977" lon="13.4526767"><ele>295.0</ele><time>2026-04-03T16:49:08.053Z</time></trkpt><trkpt lat="42.7978233" lon="13.4529317"><ele>295.0</ele><time>2026-04-03T16:49:09.053Z</time></trkpt><trkpt lat="42.7979433" lon="13.4532017"><ele>295.5</ele><time>2026-04-03T16:49:10.053Z</time></trkpt><trkpt lat="42.798055" lon="13.4534783"><ele>296.0</ele><time>2026-04-03T16:49:11.053Z</time></trkpt><trkpt lat="42.7981633" lon="13.4537533"><ele>298.0</ele><time>2026-04-03T16:49:12.053Z</time></trkpt><trkpt lat="42.7982617" lon="13.4540183"><ele>300.0</ele><time>2026-04-03T16:49:13.053Z</time></trkpt><trkpt lat="42.7983483" lon="13.454285"><ele>302.0</ele><time>2026-04-03T16:49:14.053Z</time></trkpt><trkpt lat="42.7984333" lon="13.45456"><ele>313.6666666666667</ele><time>2026-04-03T16:49:15.053Z</time></trkpt><trkpt lat="42.79852" lon="13.4548367"><ele>325.3333333333333</ele><time>2026-04-03T16:49:16.053Z</time></trkpt><trkpt lat="42.7986067" lon="13.4551133"><ele>337.0</ele><time>2026-04-03T16:49:17.052Z</time></trkpt><trkpt lat="42.7986933" lon="13.45539"><ele>334.0</ele><time>2026-04-03T16:49:18.053Z</time></trkpt><trkpt lat="42.7987783" lon="13.4556667"><ele>331.0</ele><time>2026-04-03T16:49:19.053Z</time></trkpt><trkpt lat="42.79886" lon="13.4559433"><ele>328.0</ele><time>2026-04-03T16:49:20.053Z</time></trkpt><trkpt lat="42.798945" lon="13.45622"><ele>324.0</ele><time>2026-04-03T16:49:21.053Z</time></trkpt><trkpt lat="42.79903" lon="13.4564967"><ele>320.0</ele><time>2026-04-03T16:49:22.053Z</time></trkpt><trkpt lat="42.80193" lon="13.4643283"><ele>306.33333333333337</ele><time>2026-04-03T16:49:50.052Z</time></trkpt><trkpt lat="42.8020283" lon="13.4646117"><ele>292.6666666666667</ele><time>2026-04-03T16:49:51.052Z</time></trkpt><trkpt lat="42.8021383" lon="13.46486"><ele>279.0</ele><time>2026-04-03T16:49:52.052Z</time></trkpt><trkpt lat="42.8022433" lon="13.4651"><ele>274.6666666666667</ele><time>2026-04-03T16:49:53.052Z</time></trkpt><trkpt lat="42.8023333" lon="13.4653417"><ele>270.33333333333337</ele><time>2026-04-03T16:49:54.052Z</time></trkpt><trkpt lat="42.8024" lon="13.465625"><ele>266.0</ele><time>2026-04-03T16:49:55.052Z</time></trkpt><trkpt lat="42.80245" lon="13.4659"><ele>265.0</ele><time>2026-04-03T16:49:56.052Z</time></trkpt><trkpt lat="42.80249" lon="13.466185"><ele>264.0</ele><time>2026-04-03T16:49:57.052Z</time></trkpt><trkpt lat="42.8025217" lon="13.4664767"><ele>263.0</ele><time>2026-04-03T16:49:58.052Z</time></trkpt><trkpt lat="42.802545" lon="13.46676"><ele>263.0</ele><time>2026-04-03T16:49:59.051Z</time></trkpt><trkpt lat="42.8025583" lon="13.4670333"><ele>263.0</ele><time>2026-04-03T16:50:00.052Z</time></trkpt><trkpt lat="42.802565" lon="13.467305"><ele>263.0</ele><time>2026-04-03T16:50:01.052Z</time></trkpt><trkpt lat="42.8025667" lon="13.4675917"><ele>263.6666666666667</ele><time>2026-04-03T16:50:02.052Z</time></trkpt><trkpt lat="42.8025333" lon="13.4678633"><ele>264.3333333333333</ele><time>2026-04-03T16:50:03.052Z</time></trkpt><trkpt lat="42.80249" lon="13.4681467"><ele>265.0</ele><time>2026-04-03T16:50:04.052Z</time></trkpt><trkpt lat="42.80244" lon="13.4684333"><ele>265.0</ele><time>2026-04-03T16:50:05.052Z</time></trkpt><trkpt lat="42.8023817" lon="13.4687117"><ele>265.0</ele><time>2026-04-03T16:50:06.052Z</time></trkpt><trkpt lat="42.8023217" lon="13.4689983"><ele>265.0</ele><time>2026-04-03T16:50:07.052Z</time></trkpt><trkpt lat="42.8022667" lon="13.4692867"><ele>265.0</ele><time>2026-04-03T16:50:08.052Z</time></trkpt><trkpt lat="42.802185" lon="13.4695633"><ele>265.0</ele><time>2026-04-03T16:50:09.052Z</time></trkpt><trkpt lat="42.802115" lon="13.469835"><ele>265.0</ele><time>2026-04-03T16:50:10.052Z</time></trkpt><trkpt lat="42.8020467" lon="13.4701017"><ele>265.0</ele><time>2026-04-03T16:50:11.051Z</time></trkpt><trkpt lat="42.80199" lon="13.4703717"><ele>265.0</ele><time>2026-04-03T16:50:12.051Z</time></trkpt><trkpt lat="42.80193" lon="13.47065"><ele>265.0</ele><time>2026-04-03T16:50:13.052Z</time></trkpt><trkpt lat="42.8018783" lon="13.470925"><ele>262.3333333333333</ele><time>2026-04-03T16:50:14.052Z</time></trkpt><trkpt lat="42.801825" lon="13.4712133"><ele>259.6666666666667</ele><time>2026-04-03T16:50:15.052Z</time></trkpt><trkpt lat="42.80178" lon="13.4714883"><ele>257.0</ele><time>2026-04-03T16:50:16.052Z</time></trkpt><trkpt lat="42.8017433" lon="13.4717917"><ele>257.0</ele><time>2026-04-03T16:50:17.052Z</time></trkpt><trkpt lat="42.8017267" lon="13.472095"><ele>257.0</ele><time>2026-04-03T16:50:18.052Z</time></trkpt><trkpt lat="42.8017133" lon="13.47239"><ele>257.0</ele><time>2026-04-03T16:50:19.052Z</time></trkpt><trkpt lat="42.8017167" lon="13.472705"><ele>256.0</ele><time>2026-04-03T16:50:20.052Z</time></trkpt><trkpt lat="42.801745" lon="13.4730283"><ele>255.0</ele><time>2026-04-03T16:50:21.052Z</time></trkpt><trkpt lat="42.801775" lon="13.4733517"><ele>255.0</ele><time>2026-04-03T16:50:22.052Z</time></trkpt><trkpt lat="42.8018033" lon="13.47367"><ele>255.0</ele><time>2026-04-03T16:50:23.052Z</time></trkpt><trkpt lat="42.8018317" lon="13.47398"><ele>257.0</ele><time>2026-04-03T16:50:24.052Z</time></trkpt><trkpt lat="42.801885" lon="13.4742917"><ele>259.0</ele><time>2026-04-03T16:50:25.051Z</time></trkpt><trkpt lat="42.8019317" lon="13.4746083"><ele>259.0</ele><time>2026-04-03T16:50:26.052Z</time></trkpt><trkpt lat="42.8019733" lon="13.474925"><ele>259.0</ele><time>2026-04-03T16:50:27.052Z</time></trkpt><trkpt lat="42.80202" lon="13.475235"><ele>255.5</ele><time>2026-04-03T16:50:28.052Z</time></trkpt><trkpt lat="42.802065" lon="13.4755433"><ele>252.0</ele><time>2026-04-03T16:50:29.052Z</time></trkpt><trkpt lat="42.802105" lon="13.475845"><ele>252.0</ele><time>2026-04-03T16:50:30.052Z</time></trkpt><trkpt lat="42.80214" lon="13.47614"><ele>252.0</ele><time>2026-04-03T16:50:31.052Z</time></trkpt><trkpt lat="42.8021867" lon="13.4764433"><ele>252.0</ele><time>2026-04-03T16:50:32.052Z</time></trkpt><trkpt lat="42.80223" lon="13.4767467"><ele>250.0</ele><time>2026-04-03T16:50:33.051Z</time></trkpt><trkpt lat="42.80227" lon="13.477045"><ele>248.0</ele><time>2026-04-03T16:50:34.052Z</time></trkpt><trkpt lat="42.8023133" lon="13.4773417"><ele>246.0</ele><time>2026-04-03T16:50:35.052Z</time></trkpt><trkpt lat="42.80235" lon="13.4776433"><ele>247.66666666666669</ele><time>2026-04-03T16:50:36.052Z</time></trkpt><trkpt lat="42.802385" lon="13.477945"><ele>249.33333333333334</ele><time>2026-04-03T16:50:37.052Z</time></trkpt><trkpt lat="42.8024283" lon="13.47824"><ele>251.0</ele><time>2026-04-03T16:50:38.052Z</time></trkpt><trkpt lat="42.8024633" lon="13.4785383"><ele>253.33333333333334</ele><time>2026-04-03T16:50:39.052Z</time></trkpt><trkpt lat="42.80251" lon="13.4788283"><ele>255.66666666666669</ele><time>2026-04-03T16:50:40.052Z</time></trkpt><trkpt lat="42.8025567" lon="13.4791217"><ele>258.0</ele><time>2026-04-03T16:50:41.052Z</time></trkpt><trkpt lat="42.802605" lon="13.47942"><ele>257.3333333333333</ele><time>2026-04-03T16:50:42.052Z</time></trkpt><trkpt lat="42.8026583" lon="13.4797133"><ele>256.66666666666663</ele><time>2026-04-03T16:50:43.052Z</time></trkpt><trkpt lat="42.8027083" lon="13.480005"><ele>256.0</ele><time>2026-04-03T16:50:44.052Z</time></trkpt><trkpt lat="42.8027533" lon="13.4802933"><ele>252.0</ele><time>2026-04-03T16:50:45.051Z</time></trkpt><trkpt lat="42.8028017" lon="13.4805867"><ele>248.0</ele><time>2026-04-03T16:50:46.052Z</time></trkpt><trkpt lat="42.8028533" lon="13.48088"><ele>244.0</ele><time>2026-04-03T16:50:47.052Z</time></trkpt><trkpt lat="42.8029017" lon="13.4811667"><ele>244.0</ele><time>2026-04-03T16:50:48.052Z</time></trkpt><trkpt lat="42.8029517" lon="13.4814667"><ele>244.0</ele><time>2026-04-03T16:50:49.052Z</time></trkpt><trkpt lat="42.8030017" lon="13.4817667"><ele>244.0</ele><time>2026-04-03T16:50:50.052Z</time></trkpt><trkpt lat="42.80305" lon="13.48207"><ele>244.0</ele><time>2026-04-03T16:50:51.052Z</time></trkpt><trkpt lat="42.8030817" lon="13.4823633"><ele>244.0</ele><time>2026-04-03T16:50:52.052Z</time></trkpt><trkpt lat="42.8031333" lon="13.48267"><ele>242.5</ele><time>2026-04-03T16:50:53.052Z</time></trkpt><trkpt lat="42.8031833" lon="13.48297"><ele>241.0</ele><time>2026-04-03T16:50:54.052Z</time></trkpt><trkpt lat="42.80323" lon="13.483275"><ele>241.0</ele><time>2026-04-03T16:50:55.052Z</time></trkpt><trkpt lat="42.8032733" lon="13.4835733"><ele>241.0</ele><time>2026-04-03T16:50:56.052Z</time></trkpt><trkpt lat="42.8033267" lon="13.4838833"><ele>239.5</ele><time>2026-04-03T16:50:57.052Z</time></trkpt><trkpt lat="42.8033717" lon="13.4841883"><ele>238.0</ele><time>2026-04-03T16:50:58.052Z</time></trkpt><trkpt lat="42.8034383" lon="13.4844967"><ele>237.5</ele><time>2026-04-03T16:50:59.052Z</time></trkpt><trkpt lat="42.8034883" lon="13.4848033"><ele>237.0</ele><time>2026-04-03T16:51:00.052Z</time></trkpt><trkpt lat="42.803545" lon="13.4851067"><ele>239.0</ele><time>2026-04-03T16:51:01.052Z</time></trkpt><trkpt lat="42.80361" lon="13.4854033"><ele>241.0</ele><time>2026-04-03T16:51:02.052Z</time></trkpt><trkpt lat="42.8036817" lon="13.4856933"><ele>241.0</ele><time>2026-04-03T16:51:03.052Z</time></trkpt><trkpt lat="42.8037683" lon="13.4859783"><ele>241.0</ele><time>2026-04-03T16:51:04.052Z</time></trkpt><trkpt lat="42.8038583" lon="13.48625"><ele>241.0</ele><time>2026-04-03T16:51:05.052Z</time></trkpt><trkpt lat="42.8039467" lon="13.4865417"><ele>240.0</ele><time>2026-04-03T16:51:06.052Z</time></trkpt><trkpt lat="42.8040433" lon="13.4868283"><ele>239.0</ele><time>2026-04-03T16:51:07.052Z</time></trkpt><trkpt lat="42.8041533" lon="13.4871083"><ele>239.0</ele><time>2026-04-03T16:51:08.052Z</time></trkpt><trkpt lat="42.8042733" lon="13.4873883"><ele>239.0</ele><time>2026-04-03T16:51:09.052Z</time></trkpt><trkpt lat="42.8043917" lon="13.4876533"><ele>238.0</ele><time>2026-04-03T16:51:10.052Z</time></trkpt><trkpt lat="42.804515" lon="13.4879117"><ele>237.0</ele><time>2026-04-03T16:51:11.052Z</time></trkpt><trkpt lat="42.8046333" lon="13.4881783"><ele>236.0</ele><time>2026-04-03T16:51:12.052Z</time></trkpt><trkpt lat="42.80475" lon="13.4884367"><ele>235.0</ele><time>2026-04-03T16:51:13.052Z</time></trkpt><trkpt lat="42.8048733" lon="13.4887017"><ele>233.33333333333331</ele><time>2026-04-03T16:51:14.051Z</time></trkpt><trkpt lat="42.805" lon="13.4889633"><ele>231.66666666666669</ele><time>2026-04-03T16:51:15.052Z</time></trkpt><trkpt lat="42.8051183" lon="13.489215"><ele>230.0</ele><time>2026-04-03T16:51:16.052Z</time></trkpt><trkpt lat="42.8052333" lon="13.4894767"><ele>231.0</ele><time>2026-04-03T16:51:17.052Z</time></trkpt><trkpt lat="42.8053517" lon="13.4897417"><ele>232.0</ele><time>2026-04-03T16:51:18.052Z</time></trkpt><trkpt lat="42.805485" lon="13.4900083"><ele>232.0</ele><time>2026-04-03T16:51:19.052Z</time></trkpt><trkpt lat="42.80561" lon="13.4902767"><ele>232.0</ele><time>2026-04-03T16:51:20.052Z</time></trkpt><trkpt lat="42.8057383" lon="13.4905383"><ele>232.0</ele><time>2026-04-03T16:51:21.052Z</time></trkpt><trkpt lat="42.80587" lon="13.4908067"><ele>232.0</ele><time>2026-04-03T16:51:22.052Z</time></trkpt><trkpt lat="42.8059967" lon="13.4910767"><ele>234.0</ele><time>2026-04-03T16:51:23.052Z</time></trkpt><trkpt lat="42.8061233" lon="13.4913417"><ele>236.0</ele><time>2026-04-03T16:51:24.051Z</time></trkpt><trkpt lat="42.806245" lon="13.4916133"><ele>236.0</ele><time>2026-04-03T16:51:25.052Z</time></trkpt><trkpt lat="42.8063717" lon="13.491885"><ele>236.0</ele><time>2026-04-03T16:51:26.052Z</time></trkpt><trkpt lat="42.8064917" lon="13.492145"><ele>234.33333333333334</ele><time>2026-04-03T16:51:27.052Z</time></trkpt><trkpt lat="42.8066133" lon="13.4923983"><ele>232.66666666666669</ele><time>2026-04-03T16:51:28.052Z</time></trkpt><trkpt lat="42.8067367" lon="13.49265"><ele>231.0</ele><time>2026-04-03T16:51:29.052Z</time></trkpt><trkpt lat="42.8068533" lon="13.4929017"><ele>232.0</ele><time>2026-04-03T16:51:30.051Z</time></trkpt><trkpt lat="42.806975" lon="13.4931533"><ele>233.0</ele><time>2026-04-03T16:51:31.052Z</time></trkpt><trkpt lat="42.8070833" lon="13.4934067"><ele>234.0</ele><time>2026-04-03T16:51:32.052Z</time></trkpt><trkpt lat="42.8071917" lon="13.49366"><ele>236.0</ele><time>2026-04-03T16:51:33.052Z</time></trkpt><trkpt lat="42.80728" lon="13.493935"><ele>238.0</ele><time>2026-04-03T16:51:34.051Z</time></trkpt><trkpt lat="42.80737" lon="13.4942083"><ele>240.0</ele><time>2026-04-03T16:51:35.052Z</time></trkpt><trkpt lat="42.8074533" lon="13.494495"><ele>240.0</ele><time>2026-04-03T16:51:36.052Z</time></trkpt><trkpt lat="42.8075333" lon="13.4947883"><ele>240.0</ele><time>2026-04-03T16:51:37.052Z</time></trkpt><trkpt lat="42.807625" lon="13.49508"><ele>238.5</ele><time>2026-04-03T16:51:38.052Z</time></trkpt><trkpt lat="42.8077117" lon="13.49537"><ele>237.0</ele><time>2026-04-03T16:51:39.052Z</time></trkpt><trkpt lat="42.8078033" lon="13.4956617"><ele>237.0</ele><time>2026-04-03T16:51:40.052Z</time></trkpt><trkpt lat="42.80788" lon="13.4959483"><ele>237.0</ele><time>2026-04-03T16:51:41.052Z</time></trkpt><trkpt lat="42.80796" lon="13.4962417"><ele>234.5</ele><time>2026-04-03T16:51:42.051Z</time></trkpt><trkpt lat="42.8080517" lon="13.4965383"><ele>232.0</ele><time>2026-04-03T16:51:43.052Z</time></trkpt><trkpt lat="42.8081417" lon="13.4968333"><ele>228.5</ele><time>2026-04-03T16:51:44.052Z</time></trkpt><trkpt lat="42.80822" lon="13.497125"><ele>225.0</ele><time>2026-04-03T16:51:45.052Z</time></trkpt><trkpt lat="42.8083033" lon="13.4974217"><ele>225.0</ele><time>2026-04-03T16:51:46.051Z</time></trkpt><trkpt lat="42.8084017" lon="13.4977167"><ele>225.0</ele><time>2026-04-03T16:51:47.052Z</time></trkpt><trkpt lat="42.8084883" lon="13.4980033"><ele>230.0</ele><time>2026-04-03T16:51:48.052Z</time></trkpt><trkpt lat="42.8085767" lon="13.4983"><ele>235.0</ele><time>2026-04-03T16:51:49.052Z</time></trkpt><trkpt lat="42.808665" lon="13.4985767"><ele>236.0</ele><time>2026-04-03T16:51:50.052Z</time></trkpt><trkpt lat="42.8087483" lon="13.4988483"><ele>237.0</ele><time>2026-04-03T16:51:51.052Z</time></trkpt><trkpt lat="42.8088333" lon="13.49912"><ele>238.0</ele><time>2026-04-03T16:51:52.052Z</time></trkpt><trkpt lat="42.8089283" lon="13.4993817"><ele>237.0</ele><time>2026-04-03T16:51:53.052Z</time></trkpt><trkpt lat="42.8090167" lon="13.4996667"><ele>236.0</ele><time>2026-04-03T16:51:54.052Z</time></trkpt><trkpt lat="42.809115" lon="13.4999517"><ele>236.0</ele><time>2026-04-03T16:51:55.052Z</time></trkpt><trkpt lat="42.8092283" lon="13.5002167"><ele>236.0</ele><time>2026-04-03T16:51:56.052Z</time></trkpt><trkpt lat="42.80936" lon="13.50047"><ele>240.0</ele><time>2026-04-03T16:51:57.052Z</time></trkpt><trkpt lat="42.8094933" lon="13.5007033"><ele>244.0</ele><time>2026-04-03T16:51:58.052Z</time></trkpt><trkpt lat="42.8096317" lon="13.5009117"><ele>248.0</ele><time>2026-04-03T16:51:59.052Z</time></trkpt><trkpt lat="42.8097817" lon="13.501125"><ele>239.5</ele><time>2026-04-03T16:52:00.052Z</time></trkpt><trkpt lat="42.8099517" lon="13.5013367"><ele>231.0</ele><time>2026-04-03T16:52:01.052Z</time></trkpt><trkpt lat="42.8101233" lon="13.50154"><ele>235.33333333333331</ele><time>2026-04-03T16:52:02.052Z</time></trkpt><trkpt lat="42.8103067" lon="13.50172"><ele>239.66666666666666</ele><time>2026-04-03T16:52:03.052Z</time></trkpt><trkpt lat="42.8104933" lon="13.5018817"><ele>244.0</ele><time>2026-04-03T16:52:04.052Z</time></trkpt><trkpt lat="42.8106867" lon="13.5020467"><ele>241.33333333333331</ele><time>2026-04-03T16:52:05.052Z</time></trkpt><trkpt lat="42.81088" lon="13.5021733"><ele>238.66666666666669</ele><time>2026-04-03T16:52:06.052Z</time></trkpt><trkpt lat="42.8110833" lon="13.5023"><ele>236.0</ele><time>2026-04-03T16:52:07.052Z</time></trkpt><trkpt lat="42.81128" lon="13.5024317"><ele>236.0</ele><time>2026-04-03T16:52:08.052Z</time></trkpt><trkpt lat="42.811475" lon="13.5025583"><ele>236.0</ele><time>2026-04-03T16:52:09.052Z</time></trkpt><trkpt lat="42.81168" lon="13.5026933"><ele>236.0</ele><time>2026-04-03T16:52:10.052Z</time></trkpt><trkpt lat="42.8118917" lon="13.5028217"><ele>233.0</ele><time>2026-04-03T16:52:11.052Z</time></trkpt><trkpt lat="42.8120867" lon="13.502915"><ele>230.0</ele><time>2026-04-03T16:52:12.052Z</time></trkpt><trkpt lat="42.8122933" lon="13.5030233"><ele>227.0</ele><time>2026-04-03T16:52:13.052Z</time></trkpt><trkpt lat="42.8125067" lon="13.5031133"><ele>228.33333333333334</ele><time>2026-04-03T16:52:14.052Z</time></trkpt><trkpt lat="42.8127133" lon="13.503195"><ele>229.66666666666669</ele><time>2026-04-03T16:52:15.052Z</time></trkpt><trkpt lat="42.8129217" lon="13.5032567"><ele>231.0</ele><time>2026-04-03T16:52:16.052Z</time></trkpt><trkpt lat="42.813145" lon="13.5033033"><ele>231.0</ele><time>2026-04-03T16:52:17.052Z</time></trkpt><trkpt lat="42.8133633" lon="13.5033383"><ele>231.0</ele><time>2026-04-03T16:52:18.052Z</time></trkpt><trkpt lat="42.81359" lon="13.5033517"><ele>231.0</ele><time>2026-04-03T16:52:19.052Z</time></trkpt><trkpt lat="42.813805" lon="13.50335"><ele>229.5</ele><time>2026-04-03T16:52:20.052Z</time></trkpt><trkpt lat="42.8140283" lon="13.5033567"><ele>228.0</ele><time>2026-04-03T16:52:21.051Z</time></trkpt><trkpt lat="42.8142617" lon="13.50336"><ele>228.5</ele><time>2026-04-03T16:52:22.052Z</time></trkpt><trkpt lat="42.8144933" lon="13.50337"><ele>229.0</ele><time>2026-04-03T16:52:23.052Z</time></trkpt><trkpt lat="42.8147217" lon="13.50338"><ele>229.0</ele><time>2026-04-03T16:52:24.052Z</time></trkpt><trkpt lat="42.8149533" lon="13.503385"><ele>229.0</ele><time>2026-04-03T16:52:25.052Z</time></trkpt><trkpt lat="42.8151817" lon="13.5033867"><ele>230.5</ele><time>2026-04-03T16:52:26.052Z</time></trkpt><trkpt lat="42.81541" lon="13.5033983"><ele>232.0</ele><time>2026-04-03T16:52:27.052Z</time></trkpt><trkpt lat="42.8156383" lon="13.5034217"><ele>232.0</ele><time>2026-04-03T16:52:28.052Z</time></trkpt><trkpt lat="42.8158633" lon="13.5034583"><ele>232.0</ele><time>2026-04-03T16:52:29.052Z</time></trkpt><trkpt lat="42.8160983" lon="13.5034983"><ele>232.0</ele><time>2026-04-03T16:52:30.052Z</time></trkpt><trkpt lat="42.8163333" lon="13.5035483"><ele>232.0</ele><time>2026-04-03T16:52:31.052Z</time></trkpt><trkpt lat="42.8165767" lon="13.5036017"><ele>232.0</ele><time>2026-04-03T16:52:32.052Z</time></trkpt><trkpt lat="42.816805" lon="13.5036467"><ele>232.0</ele><time>2026-04-03T16:52:33.052Z</time></trkpt><trkpt lat="42.817035" lon="13.5036983"><ele>223.0</ele><time>2026-04-03T16:52:34.052Z</time></trkpt><trkpt lat="42.8172783" lon="13.5037483"><ele>214.0</ele><time>2026-04-03T16:52:35.052Z</time></trkpt><trkpt lat="42.8175167" lon="13.50379"><ele>217.0</ele><time>2026-04-03T16:52:36.052Z</time></trkpt><trkpt lat="42.817755" lon="13.5038133"><ele>220.0</ele><time>2026-04-03T16:52:37.052Z</time></trkpt><trkpt lat="42.8179983" lon="13.5038683"><ele>220.0</ele><time>2026-04-03T16:52:38.052Z</time></trkpt><trkpt lat="42.81823" lon="13.5039117"><ele>220.0</ele><time>2026-04-03T16:52:39.052Z</time></trkpt><trkpt lat="42.8184533" lon="13.5039483"><ele>219.5</ele><time>2026-04-03T16:52:40.052Z</time></trkpt><trkpt lat="42.8186783" lon="13.504"><ele>219.0</ele><time>2026-04-03T16:52:41.052Z</time></trkpt><trkpt lat="42.8189" lon="13.5040483"><ele>219.0</ele><time>2026-04-03T16:52:42.052Z</time></trkpt><trkpt lat="42.8191183" lon="13.5040883"><ele>219.0</ele><time>2026-04-03T16:52:43.052Z</time></trkpt><trkpt lat="42.8193283" lon="13.504135"><ele>219.0</ele><time>2026-04-03T16:52:44.052Z</time></trkpt><trkpt lat="42.8195183" lon="13.5041933"><ele>222.33333333333331</ele><time>2026-04-03T16:52:45.052Z</time></trkpt><trkpt lat="42.8196967" lon="13.5042617"><ele>225.66666666666666</ele><time>2026-04-03T16:52:46.052Z</time></trkpt><trkpt lat="42.8198667" lon="13.5043417"><ele>229.0</ele><time>2026-04-03T16:52:47.052Z</time></trkpt><trkpt lat="42.8200317" lon="13.504435"><ele>228.0</ele><time>2026-04-03T16:52:48.052Z</time></trkpt><trkpt lat="42.8201983" lon="13.50455"><ele>227.0</ele><time>2026-04-03T16:52:49.052Z</time></trkpt><trkpt lat="42.8203533" lon="13.50467"><ele>226.0</ele><time>2026-04-03T16:52:50.052Z</time></trkpt><trkpt lat="42.820505" lon="13.50479"><ele>226.0</ele><time>2026-04-03T16:52:51.052Z</time></trkpt><trkpt lat="42.820655" lon="13.50492"><ele>226.0</ele><time>2026-04-03T16:52:52.052Z</time></trkpt><trkpt lat="42.8208" lon="13.50505"><ele>226.0</ele><time>2026-04-03T16:52:53.052Z</time></trkpt><trkpt lat="42.8209383" lon="13.50518"><ele>223.66666666666666</ele><time>2026-04-03T16:52:54.052Z</time></trkpt><trkpt lat="42.82108" lon="13.505315"><ele>221.33333333333331</ele><time>2026-04-03T16:52:55.052Z</time></trkpt><trkpt lat="42.8212133" lon="13.5054417"><ele>219.0</ele><time>2026-04-03T16:52:56.052Z</time></trkpt><trkpt lat="42.8213283" lon="13.5055583"><ele>218.0</ele><time>2026-04-03T16:52:57.052Z</time></trkpt><trkpt lat="42.8214267" lon="13.5057"><ele>217.0</ele><time>2026-04-03T16:52:58.052Z</time></trkpt><trkpt lat="42.8215183" lon="13.505865"><ele>216.0</ele><time>2026-04-03T16:52:59.052Z</time></trkpt><trkpt lat="42.8216" lon="13.5060483"><ele>214.0</ele><time>2026-04-03T16:53:00.052Z</time></trkpt><trkpt lat="42.8216667" lon="13.50626"><ele>212.0</ele><time>2026-04-03T16:53:01.052Z</time></trkpt><trkpt lat="42.8217083" lon="13.506485"><ele>210.0</ele><time>2026-04-03T16:53:02.052Z</time></trkpt><trkpt lat="42.8217483" lon="13.5067117"><ele>210.0</ele><time>2026-04-03T16:53:03.052Z</time></trkpt><trkpt lat="42.82179" lon="13.5069367"><ele>210.0</ele><time>2026-04-03T16:53:04.052Z</time></trkpt><trkpt lat="42.8218317" lon="13.50715"><ele>210.0</ele><time>2026-04-03T16:53:05.052Z</time></trkpt><trkpt lat="42.821875" lon="13.50736"><ele>209.25</ele><time>2026-04-03T16:53:06.052Z</time></trkpt><trkpt lat="42.8219267" lon="13.507565"><ele>208.5</ele><time>2026-04-03T16:53:07.052Z</time></trkpt><trkpt lat="42.8219783" lon="13.50774"><ele>207.75</ele><time>2026-04-03T16:53:08.052Z</time></trkpt><trkpt lat="42.82203" lon="13.5079117"><ele>207.0</ele><time>2026-04-03T16:53:09.052Z</time></trkpt><trkpt lat="42.8221067" lon="13.5080467"><ele>207.0</ele><time>2026-04-03T16:53:10.052Z</time></trkpt><trkpt lat="42.8221983" lon="13.508145"><ele>207.0</ele><time>2026-04-03T16:53:11.052Z</time></trkpt><trkpt lat="42.8223183" lon="13.508205"><ele>207.0</ele><time>2026-04-03T16:53:12.052Z</time></trkpt><trkpt lat="42.8224433" lon="13.508255"><ele>207.0</ele><time>2026-04-03T16:53:13.052Z</time></trkpt><trkpt lat="42.8225817" lon="13.508295"><ele>206.75</ele><time>2026-04-03T16:53:14.052Z</time></trkpt><trkpt lat="42.822715" lon="13.50833"><ele>206.5</ele><time>2026-04-03T16:53:15.052Z</time></trkpt><trkpt lat="42.822845" lon="13.5083633"><ele>206.25</ele><time>2026-04-03T16:53:16.052Z</time></trkpt><trkpt lat="42.822975" lon="13.5084117"><ele>206.0</ele><time>2026-04-03T16:53:17.052Z</time></trkpt><trkpt lat="42.823115" lon="13.5084717"><ele>206.0</ele><time>2026-04-03T16:53:18.052Z</time></trkpt><trkpt lat="42.823265" lon="13.5085383"><ele>206.0</ele><time>2026-04-03T16:53:19.052Z</time></trkpt><trkpt lat="42.8234067" lon="13.5086"><ele>206.0</ele><time>2026-04-03T16:53:20.052Z</time></trkpt><trkpt lat="42.823545" lon="13.50865"><ele>205.25</ele><time>2026-04-03T16:53:21.052Z</time></trkpt><trkpt lat="42.8236817" lon="13.5086933"><ele>204.5</ele><time>2026-04-03T16:53:22.051Z</time></trkpt><trkpt lat="42.8237983" lon="13.5087383"><ele>203.75</ele><time>2026-04-03T16:53:23.052Z</time></trkpt><trkpt lat="42.8239067" lon="13.508755"><ele>203.0</ele><time>2026-04-03T16:53:24.052Z</time></trkpt><trkpt lat="42.8240133" lon="13.5087767"><ele>203.0</ele><time>2026-04-03T16:53:25.051Z</time></trkpt><trkpt lat="42.82411" lon="13.5087667"><ele>203.0</ele><time>2026-04-03T16:53:26.051Z</time></trkpt><trkpt lat="42.8242067" lon="13.5087483"><ele>203.0</ele><time>2026-04-03T16:53:27.052Z</time></trkpt><trkpt lat="42.8243033" lon="13.508705"><ele>203.0</ele><time>2026-04-03T16:53:28.052Z</time></trkpt><trkpt lat="42.8244133" lon="13.50866"><ele>203.0</ele><time>2026-04-03T16:53:29.052Z</time></trkpt><trkpt lat="42.824555" lon="13.5086067"><ele>211.33333333333334</ele><time>2026-04-03T16:53:30.052Z</time></trkpt><trkpt lat="42.8247033" lon="13.5085583"><ele>219.66666666666669</ele><time>2026-04-03T16:53:31.052Z</time></trkpt><trkpt lat="42.824865" lon="13.50852"><ele>228.0</ele><time>2026-04-03T16:53:32.052Z</time></trkpt><trkpt lat="42.82503" lon="13.50851"><ele>228.33333333333331</ele><time>2026-04-03T16:53:33.052Z</time></trkpt><trkpt lat="42.8251883" lon="13.5085133"><ele>228.66666666666666</ele><time>2026-04-03T16:53:34.052Z</time></trkpt><trkpt lat="42.825355" lon="13.50855"><ele>229.0</ele><time>2026-04-03T16:53:35.052Z</time></trkpt><trkpt lat="42.82553" lon="13.5086233"><ele>229.0</ele><time>2026-04-03T16:53:36.052Z</time></trkpt><trkpt lat="42.8256983" lon="13.508715"><ele>229.0</ele><time>2026-04-03T16:53:37.052Z</time></trkpt><trkpt lat="42.8258667" lon="13.5088467"><ele>229.0</ele><time>2026-04-03T16:53:38.052Z</time></trkpt><trkpt lat="42.826035" lon="13.509"><ele>223.33333333333331</ele><time>2026-04-03T16:53:39.052Z</time></trkpt><trkpt lat="42.8262167" lon="13.5091717"><ele>217.66666666666669</ele><time>2026-04-03T16:53:40.051Z</time></trkpt><trkpt lat="42.8263917" lon="13.5093267"><ele>212.0</ele><time>2026-04-03T16:53:41.052Z</time></trkpt><trkpt lat="42.826545" lon="13.5094817"><ele>209.33333333333334</ele><time>2026-04-03T16:53:42.052Z</time></trkpt><trkpt lat="42.826715" lon="13.5096533"><ele>206.66666666666669</ele><time>2026-04-03T16:53:43.052Z</time></trkpt><trkpt lat="42.8268733" lon="13.5098517"><ele>204.0</ele><time>2026-04-03T16:53:44.052Z</time></trkpt><trkpt lat="42.8270283" lon="13.51006"><ele>203.33333333333331</ele><time>2026-04-03T16:53:45.052Z</time></trkpt><trkpt lat="42.827175" lon="13.5102817"><ele>202.66666666666666</ele><time>2026-04-03T16:53:46.052Z</time></trkpt><trkpt lat="42.82732" lon="13.510505"><ele>202.0</ele><time>2026-04-03T16:53:47.052Z</time></trkpt><trkpt lat="42.8274667" lon="13.510735"><ele>199.5</ele><time>2026-04-03T16:53:48.052Z</time></trkpt><trkpt lat="42.82761" lon="13.5109733"><ele>197.0</ele><time>2026-04-03T16:53:49.052Z</time></trkpt><trkpt lat="42.82776" lon="13.5112117"><ele>199.5</ele><time>2026-04-03T16:53:50.052Z</time></trkpt><trkpt lat="42.8279083" lon="13.51145"><ele>202.0</ele><time>2026-04-03T16:53:51.052Z</time></trkpt><trkpt lat="42.828055" lon="13.5116917"><ele>202.0</ele><time>2026-04-03T16:53:52.052Z</time></trkpt><trkpt lat="42.8282017" lon="13.5119317"><ele>202.0</ele><time>2026-04-03T16:53:53.052Z</time></trkpt><trkpt lat="42.828345" lon="13.5121617"><ele>203.5</ele><time>2026-04-03T16:53:54.052Z</time></trkpt><trkpt lat="42.8284883" lon="13.512395"><ele>205.0</ele><time>2026-04-03T16:53:55.052Z</time></trkpt><trkpt lat="42.8286317" lon="13.512635"><ele>205.0</ele><time>2026-04-03T16:53:56.052Z</time></trkpt><trkpt lat="42.8287767" lon="13.5128767"><ele>205.0</ele><time>2026-04-03T16:53:57.052Z</time></trkpt><trkpt lat="42.8289333" lon="13.513115"><ele>211.5</ele><time>2026-04-03T16:53:58.052Z</time></trkpt><trkpt lat="42.8290817" lon="13.5133533"><ele>218.0</ele><time>2026-04-03T16:53:59.052Z</time></trkpt><trkpt lat="42.82938" lon="13.5138283"><ele>220.0</ele><time>2026-04-03T16:54:01.052Z</time></trkpt><trkpt lat="42.8295267" lon="13.5140517"><ele>222.0</ele><time>2026-04-03T16:54:02.052Z</time></trkpt><trkpt lat="42.829805" lon="13.5145183"><ele>218.0</ele><time>2026-04-03T16:54:04.052Z</time></trkpt><trkpt lat="42.82995" lon="13.514755"><ele>214.0</ele><time>2026-04-03T16:54:05.052Z</time></trkpt><trkpt lat="42.8300917" lon="13.51499"><ele>210.0</ele><time>2026-04-03T16:54:06.052Z</time></trkpt><trkpt lat="42.8302333" lon="13.5152217"><ele>213.5</ele><time>2026-04-03T16:54:07.052Z</time></trkpt><trkpt lat="42.830375" lon="13.515455"><ele>217.0</ele><time>2026-04-03T16:54:08.052Z</time></trkpt><trkpt lat="42.83067" lon="13.51564"><ele>217.0</ele><time>2026-04-03T16:54:09.052Z</time></trkpt><trkpt lat="42.8308833" lon="13.5159017"><ele>217.0</ele><time>2026-04-03T16:54:10.052Z</time></trkpt><trkpt lat="42.8310967" lon="13.5161067"><ele>217.0</ele><time>2026-04-03T16:54:11.051Z</time></trkpt><trkpt lat="42.8312917" lon="13.5163017"><ele>217.0</ele><time>2026-04-03T16:54:12.052Z</time></trkpt><trkpt lat="42.8314883" lon="13.5164833"><ele>217.0</ele><time>2026-04-03T16:54:13.052Z</time></trkpt><trkpt lat="42.8316833" lon="13.5166683"><ele>217.0</ele><time>2026-04-03T16:54:14.052Z</time></trkpt><trkpt lat="42.8318783" lon="13.516845"><ele>210.5</ele><time>2026-04-03T16:54:15.052Z</time></trkpt><trkpt lat="42.8320817" lon="13.5170133"><ele>204.0</ele><time>2026-04-03T16:54:16.052Z</time></trkpt><trkpt lat="42.8322967" lon="13.5171833"><ele>209.5</ele><time>2026-04-03T16:54:17.052Z</time></trkpt><trkpt lat="42.8325183" lon="13.517365"><ele>215.0</ele><time>2026-04-03T16:54:18.052Z</time></trkpt><trkpt lat="42.8327617" lon="13.517555"><ele>215.0</ele><time>2026-04-03T16:54:19.052Z</time></trkpt><trkpt lat="42.8330017" lon="13.5177283"><ele>215.0</ele><time>2026-04-03T16:54:20.052Z</time></trkpt><trkpt lat="42.833225" lon="13.5178667"><ele>219.0</ele><time>2026-04-03T16:54:21.052Z</time></trkpt><trkpt lat="42.8334417" lon="13.5179867"><ele>223.0</ele><time>2026-04-03T16:54:22.052Z</time></trkpt><trkpt lat="42.8336617" lon="13.5181133"><ele>223.0</ele><time>2026-04-03T16:54:23.052Z</time></trkpt><trkpt lat="42.8338817" lon="13.51823"><ele>223.0</ele><time>2026-04-03T16:54:24.052Z</time></trkpt><trkpt lat="42.8340933" lon="13.5183617"><ele>223.0</ele><time>2026-04-03T16:54:25.052Z</time></trkpt><trkpt lat="42.8342983" lon="13.51848"><ele>223.0</ele><time>2026-04-03T16:54:26.052Z</time></trkpt><trkpt lat="42.8345" lon="13.5186"><ele>223.0</ele><time>2026-04-03T16:54:27.052Z</time></trkpt><trkpt lat="42.8347017" lon="13.518715"><ele>223.66666666666666</ele><time>2026-04-03T16:54:28.052Z</time></trkpt><trkpt lat="42.8348983" lon="13.51882"><ele>224.33333333333331</ele><time>2026-04-03T16:54:29.052Z</time></trkpt><trkpt lat="42.8351117" lon="13.51893"><ele>225.0</ele><time>2026-04-03T16:54:30.052Z</time></trkpt><trkpt lat="42.83532" lon="13.51903"><ele>218.5</ele><time>2026-04-03T16:54:31.052Z</time></trkpt><trkpt lat="42.8355367" lon="13.5191433"><ele>212.0</ele><time>2026-04-03T16:54:32.052Z</time></trkpt><trkpt lat="42.8357433" lon="13.51924"><ele>212.0</ele><time>2026-04-03T16:54:33.052Z</time></trkpt><trkpt lat="42.8359633" lon="13.519345"><ele>212.0</ele><time>2026-04-03T16:54:34.052Z</time></trkpt><trkpt lat="42.83618" lon="13.519435"><ele>217.0</ele><time>2026-04-03T16:54:35.052Z</time></trkpt><trkpt lat="42.8364067" lon="13.519535"><ele>222.0</ele><time>2026-04-03T16:54:36.052Z</time></trkpt><trkpt lat="42.8366233" lon="13.519615"><ele>215.5</ele><time>2026-04-03T16:54:37.052Z</time></trkpt><trkpt lat="42.8368333" lon="13.5197067"><ele>209.0</ele><time>2026-04-03T16:54:38.052Z</time></trkpt><trkpt lat="42.8370533" lon="13.5197983"><ele>209.0</ele><time>2026-04-03T16:54:39.052Z</time></trkpt><trkpt lat="42.8372767" lon="13.5198933"><ele>209.0</ele><time>2026-04-03T16:54:40.051Z</time></trkpt><trkpt lat="42.837495" lon="13.5199767"><ele>203.0</ele><time>2026-04-03T16:54:41.052Z</time></trkpt><trkpt lat="42.8377117" lon="13.5200633"><ele>197.0</ele><time>2026-04-03T16:54:42.052Z</time></trkpt><trkpt lat="42.8379333" lon="13.52016"><ele>197.0</ele><time>2026-04-03T16:54:43.052Z</time></trkpt><trkpt lat="42.838155" lon="13.520265"><ele>197.0</ele><time>2026-04-03T16:54:44.052Z</time></trkpt><trkpt lat="42.83838" lon="13.5203833"><ele>196.0</ele><time>2026-04-03T16:54:45.052Z</time></trkpt><trkpt lat="42.83861" lon="13.52049"><ele>195.0</ele><time>2026-04-03T16:54:46.052Z</time></trkpt><trkpt lat="42.83883" lon="13.5206067"><ele>195.0</ele><time>2026-04-03T16:54:47.052Z</time></trkpt><trkpt lat="42.8390417" lon="13.52073"><ele>195.0</ele><time>2026-04-03T16:54:48.052Z</time></trkpt><trkpt lat="42.8392517" lon="13.5208633"><ele>189.0</ele><time>2026-04-03T16:54:49.052Z</time></trkpt><trkpt lat="42.8394667" lon="13.521015"><ele>183.0</ele><time>2026-04-03T16:54:50.051Z</time></trkpt><trkpt lat="42.8396733" lon="13.52118"><ele>186.5</ele><time>2026-04-03T16:54:51.052Z</time></trkpt><trkpt lat="42.83988" lon="13.5213533"><ele>190.0</ele><time>2026-04-03T16:54:52.052Z</time></trkpt><trkpt lat="42.8400817" lon="13.52153"><ele>185.0</ele><time>2026-04-03T16:54:53.052Z</time></trkpt><trkpt lat="42.8402683" lon="13.5217"><ele>180.0</ele><time>2026-04-03T16:54:54.052Z</time></trkpt><trkpt lat="42.8404517" lon="13.521885"><ele>184.0</ele><time>2026-04-03T16:54:55.052Z</time></trkpt><trkpt lat="42.8406217" lon="13.5220667"><ele>188.0</ele><time>2026-04-03T16:54:56.052Z</time></trkpt><trkpt lat="42.8407783" lon="13.52227"><ele>192.0</ele><time>2026-04-03T16:54:57.052Z</time></trkpt><trkpt lat="42.8409267" lon="13.5224867"><ele>192.0</ele><time>2026-04-03T16:54:58.052Z</time></trkpt><trkpt lat="42.8410833" lon="13.5227217"><ele>192.0</ele><time>2026-04-03T16:54:59.052Z</time></trkpt><trkpt lat="42.8412433" lon="13.5229733"><ele>192.0</ele><time>2026-04-03T16:55:00.052Z</time></trkpt><trkpt lat="42.8414033" lon="13.52322"><ele>192.0</ele><time>2026-04-03T16:55:01.052Z</time></trkpt><trkpt lat="42.8415733" lon="13.5234633"><ele>192.0</ele><time>2026-04-03T16:55:02.051Z</time></trkpt><trkpt lat="42.8417467" lon="13.5237017"><ele>192.0</ele><time>2026-04-03T16:55:03.052Z</time></trkpt><trkpt lat="42.8419283" lon="13.5239367"><ele>190.0</ele><time>2026-04-03T16:55:04.052Z</time></trkpt><trkpt lat="42.84212" lon="13.5241583"><ele>188.0</ele><time>2026-04-03T16:55:05.051Z</time></trkpt><trkpt lat="42.8423117" lon="13.52437"><ele>186.5</ele><time>2026-04-03T16:55:06.052Z</time></trkpt><trkpt lat="42.8425033" lon="13.524575"><ele>185.0</ele><time>2026-04-03T16:55:07.052Z</time></trkpt><trkpt lat="42.8427033" lon="13.524775"><ele>185.0</ele><time>2026-04-03T16:55:08.051Z</time></trkpt><trkpt lat="42.8428983" lon="13.52497"><ele>185.0</ele><time>2026-04-03T16:55:09.052Z</time></trkpt><trkpt lat="42.8430983" lon="13.52516"><ele>185.0</ele><time>2026-04-03T16:55:10.052Z</time></trkpt><trkpt lat="42.8433" lon="13.5253667"><ele>185.0</ele><time>2026-04-03T16:55:11.052Z</time></trkpt><trkpt lat="42.8435017" lon="13.5255583"><ele>184.5</ele><time>2026-04-03T16:55:12.052Z</time></trkpt><trkpt lat="42.84372" lon="13.525745"><ele>184.0</ele><time>2026-04-03T16:55:13.052Z</time></trkpt><trkpt lat="42.8439367" lon="13.52593"><ele>184.0</ele><time>2026-04-03T16:55:14.052Z</time></trkpt><trkpt lat="42.844155" lon="13.5261"><ele>184.0</ele><time>2026-04-03T16:55:15.052Z</time></trkpt><trkpt lat="42.84438" lon="13.5262767"><ele>184.5</ele><time>2026-04-03T16:55:16.051Z</time></trkpt><trkpt lat="42.8446033" lon="13.5264467"><ele>185.0</ele><time>2026-04-03T16:55:17.052Z</time></trkpt><trkpt lat="42.8448217" lon="13.5266133"><ele>185.0</ele><time>2026-04-03T16:55:18.052Z</time></trkpt><trkpt lat="42.84505" lon="13.5267817"><ele>185.0</ele><time>2026-04-03T16:55:19.052Z</time></trkpt><trkpt lat="42.8452767" lon="13.52695"><ele>182.5</ele><time>2026-04-03T16:55:20.052Z</time></trkpt><trkpt lat="42.845505" lon="13.52712"><ele>180.0</ele><time>2026-04-03T16:55:21.052Z</time></trkpt><trkpt lat="42.8457367" lon="13.52728"><ele>173.0</ele><time>2026-04-03T16:55:22.052Z</time></trkpt><trkpt lat="42.845965" lon="13.5274433"><ele>166.0</ele><time>2026-04-03T16:55:23.052Z</time></trkpt><trkpt lat="42.84619" lon="13.5276017"><ele>166.0</ele><time>2026-04-03T16:55:24.051Z</time></trkpt><trkpt lat="42.846415" lon="13.5277617"><ele>166.0</ele><time>2026-04-03T16:55:25.052Z</time></trkpt><trkpt lat="42.8466467" lon="13.527935"><ele>167.0</ele><time>2026-04-03T16:55:26.052Z</time></trkpt><trkpt lat="42.84687" lon="13.5280967"><ele>168.0</ele><time>2026-04-03T16:55:27.052Z</time></trkpt><trkpt lat="42.8470867" lon="13.5282583"><ele>168.0</ele><time>2026-04-03T16:55:28.052Z</time></trkpt><trkpt lat="42.847305" lon="13.5284117"><ele>168.0</ele><time>2026-04-03T16:55:29.052Z</time></trkpt><trkpt lat="42.8475233" lon="13.5285617"><ele>168.0</ele><time>2026-04-03T16:55:30.052Z</time></trkpt><trkpt lat="42.8477467" lon="13.52872"><ele>168.0</ele><time>2026-04-03T16:55:31.052Z</time></trkpt><trkpt lat="42.8479867" lon="13.5288867"><ele>168.0</ele><time>2026-04-03T16:55:32.052Z</time></trkpt><trkpt lat="42.8484417" lon="13.52922"><ele>165.0</ele><time>2026-04-03T16:55:34.052Z</time></trkpt><trkpt lat="42.8486517" lon="13.5293917"><ele>162.0</ele><time>2026-04-03T16:55:35.052Z</time></trkpt><trkpt lat="42.8488567" lon="13.5295667"><ele>173.0</ele><time>2026-04-03T16:55:36.052Z</time></trkpt><trkpt lat="42.8490567" lon="13.5297417"><ele>184.0</ele><time>2026-04-03T16:55:37.052Z</time></trkpt><trkpt lat="42.8492333" lon="13.5299383"><ele>183.0</ele><time>2026-04-03T16:55:38.052Z</time></trkpt><trkpt lat="42.8493967" lon="13.5301483"><ele>182.0</ele><time>2026-04-03T16:55:39.052Z</time></trkpt><trkpt lat="42.8495267" lon="13.5303767"><ele>181.0</ele><time>2026-04-03T16:55:40.052Z</time></trkpt><trkpt lat="42.8496367" lon="13.5306217"><ele>181.0</ele><time>2026-04-03T16:55:41.052Z</time></trkpt><trkpt lat="42.8497267" lon="13.5308717"><ele>181.0</ele><time>2026-04-03T16:55:42.052Z</time></trkpt><trkpt lat="42.849795" lon="13.5311417"><ele>181.0</ele><time>2026-04-03T16:55:43.052Z</time></trkpt><trkpt lat="42.8498617" lon="13.531425"><ele>184.5</ele><time>2026-04-03T16:55:44.052Z</time></trkpt><trkpt lat="42.8499233" lon="13.5317283"><ele>188.0</ele><time>2026-04-03T16:55:45.052Z</time></trkpt><trkpt lat="42.849975" lon="13.53205"><ele>190.0</ele><time>2026-04-03T16:55:46.052Z</time></trkpt><trkpt lat="42.8500083" lon="13.53238"><ele>192.0</ele><time>2026-04-03T16:55:47.052Z</time></trkpt><trkpt lat="42.85003" lon="13.53271"><ele>190.5</ele><time>2026-04-03T16:55:48.052Z</time></trkpt><trkpt lat="42.850045" lon="13.5330517"><ele>189.0</ele><time>2026-04-03T16:55:49.052Z</time></trkpt><trkpt lat="42.8500283" lon="13.5333733"><ele>189.0</ele><time>2026-04-03T16:55:50.052Z</time></trkpt><trkpt lat="42.8500433" lon="13.533715"><ele>189.0</ele><time>2026-04-03T16:55:51.052Z</time></trkpt><trkpt lat="42.8500467" lon="13.5340517"><ele>186.0</ele><time>2026-04-03T16:55:52.052Z</time></trkpt><trkpt lat="42.8500433" lon="13.5343733"><ele>183.0</ele><time>2026-04-03T16:55:53.052Z</time></trkpt><trkpt lat="42.85005" lon="13.534685"><ele>183.0</ele><time>2026-04-03T16:55:54.052Z</time></trkpt><trkpt lat="42.8500617" lon="13.5349867"><ele>183.0</ele><time>2026-04-03T16:55:55.051Z</time></trkpt><trkpt lat="42.8500767" lon="13.5352717"><ele>183.0</ele><time>2026-04-03T16:55:56.052Z</time></trkpt><trkpt lat="42.850085" lon="13.5355583"><ele>183.0</ele><time>2026-04-03T16:55:57.052Z</time></trkpt><trkpt lat="42.8500833" lon="13.5358233"><ele>183.0</ele><time>2026-04-03T16:55:58.052Z</time></trkpt><trkpt lat="42.8500917" lon="13.53609"><ele>183.0</ele><time>2026-04-03T16:55:59.052Z</time></trkpt><trkpt lat="42.8500983" lon="13.5363517"><ele>182.0</ele><time>2026-04-03T16:56:00.052Z</time></trkpt><trkpt lat="42.8501033" lon="13.536595"><ele>181.0</ele><time>2026-04-03T16:56:01.052Z</time></trkpt><trkpt lat="42.8501083" lon="13.5368483"><ele>180.0</ele><time>2026-04-03T16:56:02.052Z</time></trkpt><trkpt lat="42.8501317" lon="13.5371083"><ele>177.66666666666666</ele><time>2026-04-03T16:56:03.052Z</time></trkpt><trkpt lat="42.8501367" lon="13.53734"><ele>175.33333333333331</ele><time>2026-04-03T16:56:04.052Z</time></trkpt><trkpt lat="42.8501383" lon="13.5375483"><ele>173.0</ele><time>2026-04-03T16:56:05.052Z</time></trkpt><trkpt lat="42.8501367" lon="13.5377483"><ele>173.0</ele><time>2026-04-03T16:56:06.052Z</time></trkpt><trkpt lat="42.85013" lon="13.53792"><ele>173.0</ele><time>2026-04-03T16:56:07.052Z</time></trkpt><trkpt lat="42.8501067" lon="13.538085"><ele>173.0</ele><time>2026-04-03T16:56:08.052Z</time></trkpt><trkpt lat="42.8500717" lon="13.538245"><ele>173.0</ele><time>2026-04-03T16:56:09.052Z</time></trkpt><trkpt lat="42.85004" lon="13.5384083"><ele>174.5</ele><time>2026-04-03T16:56:10.052Z</time></trkpt><trkpt lat="42.8500283" lon="13.5385867"><ele>176.0</ele><time>2026-04-03T16:56:11.052Z</time></trkpt><trkpt lat="42.8500067" lon="13.5387667"><ele>177.5</ele><time>2026-04-03T16:56:12.052Z</time></trkpt><trkpt lat="42.8499933" lon="13.5389283"><ele>179.0</ele><time>2026-04-03T16:56:13.052Z</time></trkpt><trkpt lat="42.8499667" lon="13.5390783"><ele>179.33333333333331</ele><time>2026-04-03T16:56:14.052Z</time></trkpt><trkpt lat="42.8499367" lon="13.5392117"><ele>179.66666666666666</ele><time>2026-04-03T16:56:15.052Z</time></trkpt><trkpt lat="42.849895" lon="13.5393067"><ele>180.0</ele><time>2026-04-03T16:56:16.052Z</time></trkpt><trkpt lat="42.849855" lon="13.5393767"><ele>180.33333333333334</ele><time>2026-04-03T16:56:17.052Z</time></trkpt><trkpt lat="42.849765" lon="13.5394517"><ele>180.66666666666669</ele><time>2026-04-03T16:56:19.052Z</time></trkpt><trkpt lat="42.849695" lon="13.5394717"><ele>181.0</ele><time>2026-04-03T16:56:20.052Z</time></trkpt><trkpt lat="42.849625" lon="13.53948"><ele>181.0</ele><time>2026-04-03T16:56:21.052Z</time></trkpt><trkpt lat="42.8495533" lon="13.539485"><ele>181.0</ele><time>2026-04-03T16:56:22.052Z</time></trkpt><trkpt lat="42.8494417" lon="13.5394683"><ele>181.0</ele><time>2026-04-03T16:56:24.052Z</time></trkpt><trkpt lat="42.8493667" lon="13.5394683"><ele>181.0</ele><time>2026-04-03T16:56:26.052Z</time></trkpt><trkpt lat="42.84929" lon="13.53953"><ele>181.0</ele><time>2026-04-03T16:56:28.052Z</time></trkpt><trkpt lat="42.849245" lon="13.5397117"><ele>181.0</ele><time>2026-04-03T16:56:30.052Z</time></trkpt><trkpt lat="42.8492417" lon="13.5398433"><ele>181.0</ele><time>2026-04-03T16:56:31.052Z</time></trkpt><trkpt lat="42.8492667" lon="13.5399867"><ele>181.0</ele><time>2026-04-03T16:56:32.052Z</time></trkpt><trkpt lat="42.8492967" lon="13.5401433"><ele>181.0</ele><time>2026-04-03T16:56:33.052Z</time></trkpt><trkpt lat="42.8493333" lon="13.5403167"><ele>179.25</ele><time>2026-04-03T16:56:34.052Z</time></trkpt><trkpt lat="42.849365" lon="13.540515"><ele>177.5</ele><time>2026-04-03T16:56:35.052Z</time></trkpt><trkpt lat="42.84936" lon="13.5407083"><ele>175.75</ele><time>2026-04-03T16:56:36.052Z</time></trkpt><trkpt lat="42.8493433" lon="13.540915"><ele>174.0</ele><time>2026-04-03T16:56:37.052Z</time></trkpt><trkpt lat="42.8493133" lon="13.54112"><ele>176.66666666666666</ele><time>2026-04-03T16:56:38.052Z</time></trkpt><trkpt lat="42.849265" lon="13.5413217"><ele>179.33333333333331</ele><time>2026-04-03T16:56:39.051Z</time></trkpt><trkpt lat="42.8491867" lon="13.541525"><ele>182.0</ele><time>2026-04-03T16:56:40.052Z</time></trkpt><trkpt lat="42.849105" lon="13.54172"><ele>182.0</ele><time>2026-04-03T16:56:41.052Z</time></trkpt><trkpt lat="42.849025" lon="13.5419133"><ele>182.0</ele><time>2026-04-03T16:56:42.052Z</time></trkpt><trkpt lat="42.8489383" lon="13.542115"><ele>182.0</ele><time>2026-04-03T16:56:43.052Z</time></trkpt><trkpt lat="42.8488717" lon="13.5423217"><ele>180.66666666666666</ele><time>2026-04-03T16:56:44.052Z</time></trkpt><trkpt lat="42.8488367" lon="13.5425333"><ele>179.33333333333334</ele><time>2026-04-03T16:56:45.052Z</time></trkpt><trkpt lat="42.8488367" lon="13.5427483"><ele>178.0</ele><time>2026-04-03T16:56:46.052Z</time></trkpt><trkpt lat="42.848845" lon="13.5429583"><ele>175.66666666666669</ele><time>2026-04-03T16:56:47.052Z</time></trkpt><trkpt lat="42.8488883" lon="13.5431767"><ele>173.33333333333334</ele><time>2026-04-03T16:56:48.052Z</time></trkpt><trkpt lat="42.8489267" lon="13.5434133"><ele>171.0</ele><time>2026-04-03T16:56:49.052Z</time></trkpt><trkpt lat="42.84898" lon="13.5436467"><ele>169.66666666666666</ele><time>2026-04-03T16:56:50.052Z</time></trkpt><trkpt lat="42.849035" lon="13.54388"><ele>168.33333333333331</ele><time>2026-04-03T16:56:51.052Z</time></trkpt><trkpt lat="42.84909" lon="13.54413"><ele>167.0</ele><time>2026-04-03T16:56:52.052Z</time></trkpt><trkpt lat="42.84917" lon="13.544345"><ele>169.33333333333331</ele><time>2026-04-03T16:56:53.052Z</time></trkpt><trkpt lat="42.8492483" lon="13.54459"><ele>171.66666666666666</ele><time>2026-04-03T16:56:54.052Z</time></trkpt><trkpt lat="42.8493317" lon="13.5448617"><ele>174.0</ele><time>2026-04-03T16:56:55.052Z</time></trkpt><trkpt lat="42.8494167" lon="13.545105"><ele>169.33333333333334</ele><time>2026-04-03T16:56:56.052Z</time></trkpt><trkpt lat="42.8495083" lon="13.54535"><ele>164.66666666666669</ele><time>2026-04-03T16:56:57.052Z</time></trkpt><trkpt lat="42.84959" lon="13.5456083"><ele>160.0</ele><time>2026-04-03T16:56:58.052Z</time></trkpt><trkpt lat="42.849645" lon="13.5458717"><ele>160.0</ele><time>2026-04-03T16:56:59.052Z</time></trkpt><trkpt lat="42.8496767" lon="13.5461467"><ele>160.0</ele><time>2026-04-03T16:57:00.051Z</time></trkpt><trkpt lat="42.8496967" lon="13.5464217"><ele>160.0</ele><time>2026-04-03T16:57:01.052Z</time></trkpt><trkpt lat="42.8497067" lon="13.5467067"><ele>160.0</ele><time>2026-04-03T16:57:02.052Z</time></trkpt><trkpt lat="42.849735" lon="13.5469767"><ele>160.0</ele><time>2026-04-03T16:57:03.052Z</time></trkpt><trkpt lat="42.8497567" lon="13.5472483"><ele>160.0</ele><time>2026-04-03T16:57:04.052Z</time></trkpt><trkpt lat="42.8497783" lon="13.547505"><ele>160.0</ele><time>2026-04-03T16:57:05.052Z</time></trkpt><trkpt lat="42.84979" lon="13.54773"><ele>160.0</ele><time>2026-04-03T16:57:06.052Z</time></trkpt><trkpt lat="42.8498033" lon="13.547925"><ele>160.0</ele><time>2026-04-03T16:57:07.052Z</time></trkpt><trkpt lat="42.84982" lon="13.548095"><ele>160.0</ele><time>2026-04-03T16:57:08.052Z</time></trkpt><trkpt lat="42.8498417" lon="13.5482617"><ele>161.25</ele><time>2026-04-03T16:57:09.052Z</time></trkpt><trkpt lat="42.8498833" lon="13.5484167"><ele>162.5</ele><time>2026-04-03T16:57:10.052Z</time></trkpt><trkpt lat="42.8499683" lon="13.548555"><ele>163.75</ele><time>2026-04-03T16:57:11.052Z</time></trkpt><trkpt lat="42.8500883" lon="13.5486817"><ele>165.0</ele><time>2026-04-03T16:57:12.052Z</time></trkpt><trkpt lat="42.850215" lon="13.5487917"><ele>165.0</ele><time>2026-04-03T16:57:13.052Z</time></trkpt><trkpt lat="42.8503417" lon="13.5489017"><ele>165.0</ele><time>2026-04-03T16:57:14.052Z</time></trkpt><trkpt lat="42.8504683" lon="13.5490283"><ele>165.0</ele><time>2026-04-03T16:57:15.052Z</time></trkpt><trkpt lat="42.8505767" lon="13.549155"><ele>165.0</ele><time>2026-04-03T16:57:16.052Z</time></trkpt><trkpt lat="42.8506667" lon="13.549295"><ele>165.0</ele><time>2026-04-03T16:57:17.052Z</time></trkpt><trkpt lat="42.850735" lon="13.5494767"><ele>165.0</ele><time>2026-04-03T16:57:18.052Z</time></trkpt><trkpt lat="42.8507917" lon="13.5496917"><ele>169.0</ele><time>2026-04-03T16:57:19.052Z</time></trkpt><trkpt lat="42.8508333" lon="13.54995"><ele>173.0</ele><time>2026-04-03T16:57:20.051Z</time></trkpt><trkpt lat="42.8508817" lon="13.550205"><ele>177.0</ele><time>2026-04-03T16:57:21.052Z</time></trkpt><trkpt lat="42.85094" lon="13.5504567"><ele>173.33333333333334</ele><time>2026-04-03T16:57:22.052Z</time></trkpt><trkpt lat="42.8509883" lon="13.55071"><ele>169.66666666666669</ele><time>2026-04-03T16:57:23.051Z</time></trkpt><trkpt lat="42.8510383" lon="13.5509617"><ele>166.0</ele><time>2026-04-03T16:57:24.052Z</time></trkpt><trkpt lat="42.8510867" lon="13.5512117"><ele>166.0</ele><time>2026-04-03T16:57:25.052Z</time></trkpt><trkpt lat="42.8511317" lon="13.551445"><ele>166.0</ele><time>2026-04-03T16:57:26.052Z</time></trkpt><trkpt lat="42.8511867" lon="13.5516517"><ele>166.0</ele><time>2026-04-03T16:57:27.052Z</time></trkpt><trkpt lat="42.8512417" lon="13.5518533"><ele>169.0</ele><time>2026-04-03T16:57:28.052Z</time></trkpt><trkpt lat="42.851315" lon="13.5520417"><ele>172.0</ele><time>2026-04-03T16:57:29.051Z</time></trkpt><trkpt lat="42.8514117" lon="13.5522017"><ele>175.0</ele><time>2026-04-03T16:57:30.052Z</time></trkpt><trkpt lat="42.851515" lon="13.5523417"><ele>175.0</ele><time>2026-04-03T16:57:31.052Z</time></trkpt><trkpt lat="42.8515983" lon="13.5524467"><ele>175.0</ele><time>2026-04-03T16:57:32.052Z</time></trkpt><trkpt lat="42.8516783" lon="13.5525683"><ele>175.0</ele><time>2026-04-03T16:57:33.052Z</time></trkpt><trkpt lat="42.8517417" lon="13.5527367"><ele>175.0</ele><time>2026-04-03T16:57:34.052Z</time></trkpt><trkpt lat="42.85177" lon="13.5529367"><ele>178.0</ele><time>2026-04-03T16:57:35.052Z</time></trkpt><trkpt lat="42.8517533" lon="13.55318"><ele>181.0</ele><time>2026-04-03T16:57:36.051Z</time></trkpt><trkpt lat="42.8517467" lon="13.5534133"><ele>184.0</ele><time>2026-04-03T16:57:37.051Z</time></trkpt><trkpt lat="42.8517517" lon="13.55363"><ele>184.33333333333334</ele><time>2026-04-03T16:57:38.052Z</time></trkpt><trkpt lat="42.8517783" lon="13.553835"><ele>184.66666666666666</ele><time>2026-04-03T16:57:39.052Z</time></trkpt><trkpt lat="42.851825" lon="13.554035"><ele>185.0</ele><time>2026-04-03T16:57:40.052Z</time></trkpt><trkpt lat="42.8519033" lon="13.5542367"><ele>180.33333333333331</ele><time>2026-04-03T16:57:41.052Z</time></trkpt><trkpt lat="42.851985" lon="13.554415"><ele>175.66666666666666</ele><time>2026-04-03T16:57:42.052Z</time></trkpt><trkpt lat="42.852085" lon="13.5546067"><ele>171.0</ele><time>2026-04-03T16:57:43.052Z</time></trkpt><trkpt lat="42.852185" lon="13.55481"><ele>171.0</ele><time>2026-04-03T16:57:44.052Z</time></trkpt><trkpt lat="42.85229" lon="13.5550217"><ele>171.0</ele><time>2026-04-03T16:57:45.052Z</time></trkpt><trkpt lat="42.8523917" lon="13.555235"><ele>171.0</ele><time>2026-04-03T16:57:46.052Z</time></trkpt><trkpt lat="42.8524917" lon="13.55544"><ele>173.66666666666666</ele><time>2026-04-03T16:57:47.052Z</time></trkpt><trkpt lat="42.8525933" lon="13.5556617"><ele>176.33333333333331</ele><time>2026-04-03T16:57:48.052Z</time></trkpt><trkpt lat="42.8526933" lon="13.5558767"><ele>179.0</ele><time>2026-04-03T16:57:49.052Z</time></trkpt><trkpt lat="42.8527867" lon="13.5560833"><ele>175.33333333333331</ele><time>2026-04-03T16:57:50.052Z</time></trkpt><trkpt lat="42.8528917" lon="13.5562767"><ele>171.66666666666666</ele><time>2026-04-03T16:57:51.052Z</time></trkpt><trkpt lat="42.8530233" lon="13.5565017"><ele>168.0</ele><time>2026-04-03T16:57:52.052Z</time></trkpt><trkpt lat="42.85312" lon="13.5567017"><ele>168.0</ele><time>2026-04-03T16:57:53.052Z</time></trkpt><trkpt lat="42.8531983" lon="13.5568933"><ele>168.0</ele><time>2026-04-03T16:57:54.052Z</time></trkpt><trkpt lat="42.8532633" lon="13.557075"><ele>168.0</ele><time>2026-04-03T16:57:55.052Z</time></trkpt><trkpt lat="42.8533317" lon="13.55726"><ele>170.0</ele><time>2026-04-03T16:57:56.052Z</time></trkpt><trkpt lat="42.8534067" lon="13.5574617"><ele>172.0</ele><time>2026-04-03T16:57:57.052Z</time></trkpt><trkpt lat="42.8534483" lon="13.5576717"><ele>174.0</ele><time>2026-04-03T16:57:58.052Z</time></trkpt><trkpt lat="42.8534867" lon="13.5578883"><ele>165.33333333333334</ele><time>2026-04-03T16:57:59.052Z</time></trkpt><trkpt lat="42.8534967" lon="13.5581117"><ele>156.66666666666669</ele><time>2026-04-03T16:58:00.052Z</time></trkpt><trkpt lat="42.8535067" lon="13.5583317"><ele>148.0</ele><time>2026-04-03T16:58:01.052Z</time></trkpt><trkpt lat="42.853525" lon="13.558535"><ele>150.25</ele><time>2026-04-03T16:58:02.052Z</time></trkpt><trkpt lat="42.853555" lon="13.55873"><ele>152.5</ele><time>2026-04-03T16:58:03.052Z</time></trkpt><trkpt lat="42.85359" lon="13.5589183"><ele>154.75</ele><time>2026-04-03T16:58:04.052Z</time></trkpt><trkpt lat="42.8536233" lon="13.5591083"><ele>157.0</ele><time>2026-04-03T16:58:05.052Z</time></trkpt><trkpt lat="42.8536767" lon="13.5593233"><ele>157.0</ele><time>2026-04-03T16:58:06.052Z</time></trkpt><trkpt lat="42.8536967" lon="13.559525"><ele>157.0</ele><time>2026-04-03T16:58:07.052Z</time></trkpt><trkpt lat="42.8537183" lon="13.5597233"><ele>157.0</ele><time>2026-04-03T16:58:08.052Z</time></trkpt><trkpt lat="42.8537333" lon="13.5598983"><ele>157.0</ele><time>2026-04-03T16:58:09.052Z</time></trkpt><trkpt lat="42.8537183" lon="13.5600767"><ele>157.8</ele><time>2026-04-03T16:58:10.052Z</time></trkpt><trkpt lat="42.85372" lon="13.5602333"><ele>158.6</ele><time>2026-04-03T16:58:11.052Z</time></trkpt><trkpt lat="42.8537333" lon="13.5603767"><ele>159.4</ele><time>2026-04-03T16:58:12.052Z</time></trkpt><trkpt lat="42.8537417" lon="13.5605033"><ele>160.20000000000002</ele><time>2026-04-03T16:58:13.052Z</time></trkpt><trkpt lat="42.8537633" lon="13.56061"><ele>161.0</ele><time>2026-04-03T16:58:14.052Z</time></trkpt><trkpt lat="42.8537867" lon="13.5607117"><ele>161.14285714285714</ele><time>2026-04-03T16:58:15.052Z</time></trkpt><trkpt lat="42.85381" lon="13.5607983"><ele>161.28571428571428</ele><time>2026-04-03T16:58:16.051Z</time></trkpt><trkpt lat="42.8538267" lon="13.56089"><ele>161.42857142857144</ele><time>2026-04-03T16:58:17.052Z</time></trkpt><trkpt lat="42.8538367" lon="13.5609783"><ele>161.57142857142856</ele><time>2026-04-03T16:58:18.052Z</time></trkpt><trkpt lat="42.8538567" lon="13.5610683"><ele>161.71428571428572</ele><time>2026-04-03T16:58:19.052Z</time></trkpt><trkpt lat="42.853875" lon="13.5611667"><ele>161.85714285714286</ele><time>2026-04-03T16:58:20.052Z</time></trkpt><trkpt lat="42.8538917" lon="13.5612667"><ele>162.0</ele><time>2026-04-03T16:58:21.052Z</time></trkpt><trkpt lat="42.85391" lon="13.561375"><ele>162.0</ele><time>2026-04-03T16:58:22.052Z</time></trkpt><trkpt lat="42.85392" lon="13.56148"><ele>162.0</ele><time>2026-04-03T16:58:23.051Z</time></trkpt><trkpt lat="42.8539317" lon="13.5615767"><ele>162.0</ele><time>2026-04-03T16:58:24.052Z</time></trkpt><trkpt lat="42.8539667" lon="13.5617317"><ele>162.0</ele><time>2026-04-03T16:58:26.052Z</time></trkpt><trkpt lat="42.8539733" lon="13.56182"><ele>162.0</ele><time>2026-04-03T16:58:27.052Z</time></trkpt><trkpt lat="42.8539883" lon="13.5619083"><ele>162.0</ele><time>2026-04-03T16:58:28.052Z</time></trkpt><trkpt lat="42.8540017" lon="13.5620067"><ele>161.66666666666666</ele><time>2026-04-03T16:58:29.052Z</time></trkpt><trkpt lat="42.8540233" lon="13.562095"><ele>161.33333333333334</ele><time>2026-04-03T16:58:30.052Z</time></trkpt><trkpt lat="42.854045" lon="13.5621767"><ele>161.0</ele><time>2026-04-03T16:58:31.052Z</time></trkpt><trkpt lat="42.8540633" lon="13.5622733"><ele>160.66666666666669</ele><time>2026-04-03T16:58:32.052Z</time></trkpt><trkpt lat="42.8540783" lon="13.56237"><ele>160.33333333333334</ele><time>2026-04-03T16:58:33.052Z</time></trkpt><trkpt lat="42.8540917" lon="13.5624583"><ele>160.0</ele><time>2026-04-03T16:58:34.052Z</time></trkpt><trkpt lat="42.8541183" lon="13.562615"><ele>160.0</ele><time>2026-04-03T16:58:36.052Z</time></trkpt><trkpt lat="42.8541217" lon="13.56274"><ele>160.0</ele><time>2026-04-03T16:58:38.052Z</time></trkpt><trkpt lat="42.8541417" lon="13.5628533"><ele>160.0</ele><time>2026-04-03T16:58:40.052Z</time></trkpt><trkpt lat="42.8541633" lon="13.5629367"><ele>160.0</ele><time>2026-04-03T16:58:41.052Z</time></trkpt><trkpt lat="42.854185" lon="13.5630283"><ele>160.0</ele><time>2026-04-03T16:58:42.052Z</time></trkpt><trkpt lat="42.8541967" lon="13.5631333"><ele>160.0</ele><time>2026-04-03T16:58:43.052Z</time></trkpt><trkpt lat="42.854215" lon="13.5632483"><ele>159.8</ele><time>2026-04-03T16:58:44.052Z</time></trkpt><trkpt lat="42.8542333" lon="13.563375"><ele>159.6</ele><time>2026-04-03T16:58:45.051Z</time></trkpt><trkpt lat="42.854255" lon="13.5635133"><ele>159.4</ele><time>2026-04-03T16:58:46.052Z</time></trkpt><trkpt lat="42.854275" lon="13.56366"><ele>159.2</ele><time>2026-04-03T16:58:47.052Z</time></trkpt><trkpt lat="42.8542933" lon="13.56382"><ele>159.0</ele><time>2026-04-03T16:58:48.051Z</time></trkpt><trkpt lat="42.8543133" lon="13.563985"><ele>157.0</ele><time>2026-04-03T16:58:49.052Z</time></trkpt><trkpt lat="42.85434" lon="13.5641283"><ele>155.0</ele><time>2026-04-03T16:58:50.052Z</time></trkpt><trkpt lat="42.85436" lon="13.564255"><ele>153.0</ele><time>2026-04-03T16:58:51.052Z</time></trkpt><trkpt lat="42.8543783" lon="13.5643767"><ele>151.0</ele><time>2026-04-03T16:58:52.052Z</time></trkpt><trkpt lat="42.8543917" lon="13.5644933"><ele>149.0</ele><time>2026-04-03T16:58:53.052Z</time></trkpt><trkpt lat="42.8544" lon="13.5645917"><ele>149.0</ele><time>2026-04-03T16:58:54.052Z</time></trkpt><trkpt lat="42.8544083" lon="13.5646783"><ele>149.0</ele><time>2026-04-03T16:58:55.052Z</time></trkpt><trkpt lat="42.8544283" lon="13.5648133"><ele>149.0</ele><time>2026-04-03T16:58:57.052Z</time></trkpt><trkpt lat="42.8544733" lon="13.5648983"><ele>149.0</ele><time>2026-04-03T16:58:59.052Z</time></trkpt><trkpt lat="42.85453" lon="13.5649533"><ele>149.0</ele><time>2026-04-03T16:59:01.052Z</time></trkpt><trkpt lat="42.8545783" lon="13.565025"><ele>149.0</ele><time>2026-04-03T16:59:04.052Z</time></trkpt><trkpt lat="42.8544833" lon="13.5651783"><ele>149.0</ele><time>2026-04-03T16:59:46.052Z</time></trkpt></trkseg></trk></gpx>